MYDAX CHILLER For M1 mirror 
            

Key: (Temperatures in Centigrade) 
A) System is ON or OFF
B) Actual Tank Temperature as sensed by the Output RTD                   
C) Set point Temperature 
D) Calculated temperature of the refrigerant line at the suction pressure transducer
E) Pressure in PSIg of the refrigerant line at the suction pressure transducer
F & G) Temperature in the refrigerant line at the Superheat and Condenser RTDs
H) Temperature in the refrigerant line at the Discharge RTD (2-stage design only)
I) Temperature in the refrigerant line at the Subcooler RTD (inactive)
J) Valve drives of evaporator 

----------- DATE ----------: A    B     C     D     E    F    G    H   I J

 last update: Fri Nov 17 13:08:44 PST 2017
Fri Nov 17 13:08:18 PST 2017 ON: 20.00 +20.0 20.07 -15.9 26.9 17.0 31.2 8 9 Alarm State:  0
Fri Nov 17 13:07:17 PST 2017 ON: 19.99 +20.0 20.04 -15.3 27.7 16.5 31.5 7 9 Alarm State:  0
Fri Nov 17 13:06:15 PST 2017 ON: 20.00 +20.0 20.05 -15.5 27.4 16.7 31.4 7 9 Alarm State:  0
Fri Nov 17 13:05:14 PST 2017 ON: 20.00 +20.0 20.06 -15.9 26.9 17.0 31.1 8 9 Alarm State:  0
Fri Nov 17 13:04:12 PST 2017 ON: 19.99 +20.0 20.05 -15.3 27.8 16.4 31.5 7 9 Alarm State:  0
Fri Nov 17 13:03:11 PST 2017 ON: 20.00 +20.0 20.05 -15.7 27.2 16.8 31.4 8 9 Alarm State:  0
Fri Nov 17 13:02:09 PST 2017 ON: 20.00 +20.0 20.06 -15.5 27.4 16.7 31.4 7 9 Alarm State:  0
Fri Nov 17 13:01:08 PST 2017 ON: 19.99 +20.0 20.04 -15.3 27.7 16.5 31.5 7 10 Alarm State:  0
Fri Nov 17 13:00:06 PST 2017 ON: 19.99 +20.0 20.04 -15.3 27.7 16.5 31.6 7 10 Alarm State:  0
Fri Nov 17 12:59:05 PST 2017 ON: 20.00 +20.0 20.04 -15.5 27.4 16.7 31.4 7 9 Alarm State:  0
Fri Nov 17 12:58:03 PST 2017 ON: 20.00 +20.0 20.06 -15.5 27.4 16.7 31.4 7 9 Alarm State:  0
Fri Nov 17 12:57:02 PST 2017 ON: 19.99 +20.0 20.05 -15.4 27.6 16.5 31.5 8 10 Alarm State:  0
Fri Nov 17 12:56:00 PST 2017 ON: 19.99 +20.0 20.05 -15.3 27.7 16.5 31.5 7 9 Alarm State:  0
Fri Nov 17 12:54:59 PST 2017 ON: 19.99 +20.0 20.05 -15.4 27.6 16.5 31.5 7 10 Alarm State:  0
Fri Nov 17 12:53:47 PST 2017  Alarm State: 0
Fri Nov 17 12:53:47 PST 2017 Chiller did not report ON, got this reading: 
Fri Nov 17 12:52:46 PST 2017 ON: 20.00 +20.0 20.05 -15.7 27.1 16.9 31.3 8 9 Alarm State:  0
Fri Nov 17 12:51:44 PST 2017 ON: 19.99 +20.0 20.04 -15.5 27.5 16.6 31.4 7 9 Alarm State:  0
Fri Nov 17 12:50:43 PST 2017 ON: 20.00 +20.0 20.06 -15.7 27.2 16.8 31.4 8 9 Alarm State:  0
Fri Nov 17 12:49:41 PST 2017 ON: 19.99 +20.0 20.06 -15.5 27.5 16.6 31.5 7 9 Alarm State:  0
Fri Nov 17 12:48:40 PST 2017 ON: 19.99 +20.0 20.04 -15.3 27.7 16.5 31.5 7 10 Alarm State:  0
Fri Nov 17 12:47:38 PST 2017 ON: 20.00 +20.0 20.06 -15.7 27.2 16.8 31.4 8 9 Alarm State:  0
Fri Nov 17 12:46:37 PST 2017 ON: 19.99 +20.0 20.04 -15.5 27.5 16.6 31.4 7 10 Alarm State:  0
Fri Nov 17 12:45:35 PST 2017 ON: 19.99 +20.0 20.03 -15.3 27.7 16.5 31.6 7 10 Alarm State:  0
Fri Nov 17 12:44:34 PST 2017 ON: 20.00 +20.0 20.06 -15.8 27.0 16.9 31.3 8 9 Alarm State:  0
Fri Nov 17 12:43:32 PST 2017 ON: 19.99 +20.0 20.05 -15.5 27.4 16.7 31.4 7 9 Alarm State:  0
Fri Nov 17 12:42:31 PST 2017 ON: 20.00 +20.0 20.04 -15.3 27.7 16.5 31.5 8 9 Alarm State:  0
Fri Nov 17 12:41:29 PST 2017 ON: 20.00 +20.0 20.06 -15.3 27.7 16.5 31.5 7 9 Alarm State:  0
Fri Nov 17 12:40:28 PST 2017 ON: 19.99 +20.0 20.05 -15.3 27.8 16.4 31.5 7 9 Alarm State:  0
Fri Nov 17 12:39:26 PST 2017 ON: 19.99 +20.0 20.04 -15.4 27.6 16.5 31.6 8 9 Alarm State:  0
Fri Nov 17 12:38:25 PST 2017 ON: 20.00 +20.0 20.05 -15.8 27.0 16.9 31.2 8 9 Alarm State:  0
Fri Nov 17 12:37:23 PST 2017 ON: 19.99 +20.0 20.04 -15.3 27.7 16.5 31.5 7 10 Alarm State:  0
Fri Nov 17 12:36:22 PST 2017 ON: 19.99 +20.0 20.04 -15.5 27.4 16.7 31.4 8 10 Alarm State:  0
Fri Nov 17 12:35:20 PST 2017 ON: 20.01 +20.0 20.06 -15.7 27.1 16.9 31.3 8 9 Alarm State:  0
Fri Nov 17 12:34:19 PST 2017 ON: 19.99 +20.0 20.05 -15.3 27.7 16.5 31.5 7 9 Alarm State:  0
Fri Nov 17 12:33:18 PST 2017 ON: 20.00 +20.0 20.05 -15.4 27.6 16.5 31.5 7 9 Alarm State:  0
Fri Nov 17 12:32:16 PST 2017 ON: 19.99 +20.0 20.05 -15.7 27.1 16.9 31.3 7 9 Alarm State:  0
Fri Nov 17 12:31:15 PST 2017 ON: 19.99 +20.0 20.04 -15.3 27.7 16.5 31.5 7 9 Alarm State:  0
Fri Nov 17 12:30:13 PST 2017 ON: 20.00 +20.0 20.05 -15.5 27.5 16.6 31.4 7 9 Alarm State:  0
Fri Nov 17 12:29:12 PST 2017 ON: 20.01 +20.0 20.06 -15.5 27.5 16.6 31.4 7 9 Alarm State:  0
Fri Nov 17 12:28:10 PST 2017 ON: 19.99 +20.0 20.05 -15.3 27.8 16.4 31.6 8 10 Alarm State:  0
Fri Nov 17 12:27:09 PST 2017 ON: 19.99 +20.0 20.05 -15.5 27.5 16.6 31.4 7 9 Alarm State:  0
Fri Nov 17 12:26:07 PST 2017 ON: 20.00 +20.0 20.04 -15.4 27.6 16.5 31.4 7 9 Alarm State:  0
Fri Nov 17 12:25:06 PST 2017 ON: 20.00 +20.0 20.06 -15.6 27.3 16.8 31.4 7 9 Alarm State:  0
Fri Nov 17 12:24:04 PST 2017 ON: 19.99 +20.0 20.06 -15.4 27.6 16.5 31.5 7 9 Alarm State:  0
Fri Nov 17 12:23:03 PST 2017 ON: 20.00 +20.0 20.05 -15.5 27.4 16.7 31.4 8 9 Alarm State:  0
Fri Nov 17 12:22:01 PST 2017 ON: 19.99 +20.0 20.04 -15.7 27.2 16.8 31.3 7 10 Alarm State:  0
Fri Nov 17 12:21:00 PST 2017 ON: 19.99 +20.0 20.05 -15.3 27.7 16.5 31.6 7 9 Alarm State:  0
Fri Nov 17 12:19:58 PST 2017 ON: 20.00 +20.0 20.05 -15.6 27.3 16.8 31.4 8 9 Alarm State:  0
Fri Nov 17 12:18:57 PST 2017 ON: 19.99 +20.0 20.05 -15.3 27.7 16.5 31.5 7 10 Alarm State:  0
Fri Nov 17 12:17:55 PST 2017 ON: 19.99 +20.0 20.05 -15.3 27.7 16.5 31.5 7 9 Alarm State:  0
Fri Nov 17 12:16:54 PST 2017 ON: 20.00 +20.0 20.04 -15.3 27.7 16.5 31.5 7 9 Alarm State:  0
Fri Nov 17 12:15:52 PST 2017 ON: 20.00 +20.0 20.06 -15.6 27.3 16.8 31.4 7 9 Alarm State:  0
Fri Nov 17 12:14:51 PST 2017 ON: 19.99 +20.0 20.05 -15.5 27.4 16.7 31.4 7 9 Alarm State:  0
Fri Nov 17 12:13:49 PST 2017 ON: 19.99 +20.0 20.03 -15.5 27.5 16.6 31.5 7 10 Alarm State:  0
Fri Nov 17 12:12:48 PST 2017 ON: 20.00 +20.0 20.06 -16.0 26.7 17.1 31.1 8 9 Alarm State:  0
Fri Nov 17 12:11:46 PST 2017 ON: 20.00 +20.0 20.06 -15.5 27.5 16.6 31.4 8 9 Alarm State:  0
Fri Nov 17 12:10:45 PST 2017 ON: 19.99 +20.0 20.04 -15.1 28.0 16.3 31.6 7 10 Alarm State:  0
Fri Nov 17 12:09:43 PST 2017 ON: 19.99 +20.0 20.05 -15.5 27.5 16.6 31.5 7 9 Alarm State:  0
Fri Nov 17 12:08:42 PST 2017 ON: 19.99 +20.0 20.04 -15.6 27.3 16.8 31.5 8 10 Alarm State:  0
Fri Nov 17 12:07:40 PST 2017 ON: 19.99 +20.0 20.04 -15.5 27.4 16.7 31.4 7 9 Alarm State:  0
Fri Nov 17 12:06:39 PST 2017 ON: 20.00 +20.0 20.04 -15.5 27.5 16.6 31.3 7 10 Alarm State:  0
Fri Nov 17 12:05:37 PST 2017 ON: 19.99 +20.0 20.04 -15.1 28.1 16.2 31.6 7 10 Alarm State:  0
Fri Nov 17 12:04:36 PST 2017 ON: 20.00 +20.0 20.05 -15.4 27.6 16.5 31.5 7 9 Alarm State:  0
Fri Nov 17 12:03:34 PST 2017 ON: 19.99 +20.0 20.06 -15.4 27.6 16.5 31.5 8 9 Alarm State:  0
Fri Nov 17 12:02:33 PST 2017 ON: 19.99 +20.0 20.03 -15.3 27.8 16.4 31.5 7 10 Alarm State:  0
Fri Nov 17 12:01:31 PST 2017 ON: 19.99 +20.0 20.05 -15.6 27.3 16.8 31.4 8 9 Alarm State:  0
Fri Nov 17 12:00:30 PST 2017 ON: 19.99 +20.0 20.06 -15.5 27.4 16.7 31.5 8 9 Alarm State:  0
Fri Nov 17 11:59:28 PST 2017 ON: 19.99 +20.0 20.05 -15.6 27.3 16.8 31.4 7 9 Alarm State:  0
Fri Nov 17 11:58:27 PST 2017 ON: 20.00 +20.0 20.05 -15.4 27.6 16.5 31.5 7 9 Alarm State:  0
Fri Nov 17 11:57:25 PST 2017 ON: 20.00 +20.0 20.06 -15.6 27.3 16.8 31.4 7 9 Alarm State:  0
Fri Nov 17 11:56:24 PST 2017 ON: 19.99 +20.0 20.05 -15.5 27.4 16.7 31.5 7 9 Alarm State:  0
Fri Nov 17 11:55:22 PST 2017 ON: 20.00 +20.0 20.05 -15.8 27.0 16.9 31.3 8 9 Alarm State:  0
Fri Nov 17 11:54:21 PST 2017 ON: 20.00 +20.0 20.05 -15.5 27.4 16.7 31.4 8 9 Alarm State:  0
Fri Nov 17 11:53:19 PST 2017 ON: 20.00 +20.0 20.06 -15.5 27.5 16.6 31.5 8 9 Alarm State:  0
Fri Nov 17 11:52:18 PST 2017 ON: 19.98 +20.0 20.05 -15.3 27.7 16.5 31.5 8 9 Alarm State:  0
Fri Nov 17 11:51:16 PST 2017 ON: 20.00 +20.0 20.05 -15.3 27.8 16.4 31.7 7 9 Alarm State:  0
Fri Nov 17 11:50:15 PST 2017 ON: 20.00 +20.0 20.06 -15.5 27.4 16.7 31.5 7 9 Alarm State:  0
Fri Nov 17 11:49:13 PST 2017 ON: 19.99 +20.0 20.03 -15.1 28.0 16.3 31.6 7 10 Alarm State:  0
Fri Nov 17 11:48:12 PST 2017 ON: 20.00 +20.0 20.04 -15.5 27.5 16.6 31.5 7 9 Alarm State:  0
Fri Nov 17 11:47:10 PST 2017 ON: 20.00 +20.0 20.06 -15.7 27.1 16.9 31.2 8 9 Alarm State:  0
Fri Nov 17 11:46:09 PST 2017 ON: 19.99 +20.0 20.05 -15.5 27.5 16.6 31.4 7 9 Alarm State:  0
Fri Nov 17 11:45:07 PST 2017 ON: 20.00 +20.0 20.04 -15.4 27.6 16.5 31.5 8 10 Alarm State:  0
Fri Nov 17 11:44:06 PST 2017 ON: 20.00 +20.0 20.05 -15.5 27.4 16.7 31.4 8 10 Alarm State:  0
Fri Nov 17 11:43:04 PST 2017 ON: 19.99 +20.0 20.05 -15.3 27.7 16.5 31.5 7 9 Alarm State:  0
Fri Nov 17 11:42:03 PST 2017 ON: 20.00 +20.0 20.06 -15.5 27.4 16.7 31.4 8 9 Alarm State:  0
Fri Nov 17 11:41:01 PST 2017 ON: 19.99 +20.0 20.05 -15.4 27.6 16.5 31.4 7 9 Alarm State:  0
Fri Nov 17 11:40:00 PST 2017 ON: 20.00 +20.0 20.04 -15.4 27.6 16.5 31.5 7 9 Alarm State:  0
Fri Nov 17 11:38:58 PST 2017 ON: 20.00 +20.0 20.07 -15.8 27.0 16.9 31.2 8 8 Alarm State:  0
Fri Nov 17 11:37:57 PST 2017 ON: 20.00 +20.0 20.04 -15.1 28.0 16.3 31.6 7 10 Alarm State:  0
Fri Nov 17 11:36:55 PST 2017 ON: 19.99 +20.0 20.06 -15.3 27.7 16.5 31.5 7 9 Alarm State:  0
Fri Nov 17 11:35:54 PST 2017 ON: 20.00 +20.0 20.06 -15.4 27.6 16.5 31.5 8 9 Alarm State:  0
Fri Nov 17 11:34:52 PST 2017 ON: 20.00 +20.0 20.05 -15.5 27.4 16.7 31.4 7 9 Alarm State:  0
Fri Nov 17 11:33:51 PST 2017 ON: 20.00 +20.0 20.05 -15.5 27.4 16.7 31.4 7 10 Alarm State:  0
Fri Nov 17 11:32:49 PST 2017 ON: 19.99 +20.0 20.04 -15.5 27.5 16.6 31.4 7 10 Alarm State:  0
Fri Nov 17 11:31:48 PST 2017 ON: 20.00 +20.0 20.04 -15.5 27.4 16.7 31.4 7 10 Alarm State:  0
Fri Nov 17 11:30:46 PST 2017 ON: 19.99 +20.0 20.06 -15.5 27.5 16.6 31.4 7 9 Alarm State:  0
Fri Nov 17 11:29:45 PST 2017 ON: 19.99 +20.0 20.04 -15.5 27.5 16.6 31.5 7 9 Alarm State:  0
Fri Nov 17 11:28:43 PST 2017 ON: 20.00 +20.0 20.05 -15.7 27.2 16.8 31.4 7 9 Alarm State:  0
Fri Nov 17 11:27:42 PST 2017 ON: 20.00 +20.0 20.06 -15.5 27.5 16.6 31.5 8 9 Alarm State:  0
Fri Nov 17 11:26:40 PST 2017 ON: 20.00 +20.0 20.06 -15.5 27.4 16.7 31.4 8 9 Alarm State:  0
Fri Nov 17 11:25:39 PST 2017 ON: 19.99 +20.0 20.04 -15.5 27.5 16.6 31.4 7 10 Alarm State:  0
Fri Nov 17 11:24:37 PST 2017 ON: 20.00 +20.0 20.03 -15.2 27.9 16.3 31.6 7 10 Alarm State:  0
Fri Nov 17 11:23:36 PST 2017 ON: 20.00 +20.0 20.05 -15.3 27.7 16.5 31.5 7 10 Alarm State:  0
Fri Nov 17 11:22:34 PST 2017 ON: 19.99 +20.0 20.05 -15.4 27.6 16.5 31.5 8 10 Alarm State:  0
Fri Nov 17 11:21:33 PST 2017 ON: 19.99 +20.0 20.03 -15.3 27.7 16.5 31.5 7 10 Alarm State:  0
Fri Nov 17 11:20:31 PST 2017 ON: 20.00 +20.0 20.05 -15.7 27.1 16.9 31.4 7 9 Alarm State:  0
Fri Nov 17 11:19:30 PST 2017 ON: 20.00 +20.0 20.06 -15.9 26.9 17.0 31.2 8 9 Alarm State:  0
Fri Nov 17 11:18:28 PST 2017 ON: 19.99 +20.0 20.06 -15.1 28.1 16.2 31.6 7 9 Alarm State:  0
Fri Nov 17 11:17:27 PST 2017 ON: 20.00 +20.0 20.07 -15.6 27.3 16.8 31.3 8 8 Alarm State:  0
Fri Nov 17 11:16:25 PST 2017 ON: 19.99 +20.0 20.03 -15.1 28.0 16.3 31.6 7 10 Alarm State:  0
Fri Nov 17 11:15:24 PST 2017 ON: 20.00 +20.0 20.05 -15.6 27.3 16.8 31.4 7 9 Alarm State:  0
Fri Nov 17 11:14:22 PST 2017 ON: 19.99 +20.0 20.04 -15.4 27.6 16.5 31.5 8 10 Alarm State:  0
Fri Nov 17 11:13:21 PST 2017 ON: 19.99 +20.0 20.05 -15.3 27.8 16.4 31.5 7 9 Alarm State:  0
Fri Nov 17 11:12:19 PST 2017 ON: 20.00 +20.0 20.05 -15.4 27.6 16.5 31.5 7 10 Alarm State:  0
Fri Nov 17 11:11:18 PST 2017 ON: 19.99 +20.0 20.05 -15.4 27.6 16.5 31.5 8 9 Alarm State:  0
Fri Nov 17 11:10:16 PST 2017 ON: 20.00 +20.0 20.04 -15.2 27.9 16.3 31.6 7 9 Alarm State:  0
Fri Nov 17 11:09:15 PST 2017 ON: 20.00 +20.0 20.06 -15.8 27.0 16.9 31.3 8 9 Alarm State:  0
Fri Nov 17 11:08:13 PST 2017 ON: 19.99 +20.0 20.03 -15.3 27.8 16.4 31.5 7 11 Alarm State:  0
Fri Nov 17 11:07:12 PST 2017 ON: 19.98 +20.0 20.04 -15.1 28.0 16.3 31.7 7 9 Alarm State:  0
Fri Nov 17 11:06:10 PST 2017 ON: 20.00 +20.0 20.05 -15.6 27.3 16.8 31.4 8 9 Alarm State:  0
Fri Nov 17 11:05:09 PST 2017 ON: 20.01 +20.0 20.05 -15.7 27.2 16.8 31.3 7 9 Alarm State:  0
Fri Nov 17 11:04:07 PST 2017 ON: 20.00 +20.0 20.06 -15.3 27.7 16.5 31.5 7 10 Alarm State:  0
Fri Nov 17 11:03:06 PST 2017 ON: 19.99 +20.0 20.05 -15.3 27.8 16.4 31.6 8 10 Alarm State:  0
Fri Nov 17 11:02:04 PST 2017 ON: 20.00 +20.0 20.05 -15.4 27.6 16.5 31.5 7 9 Alarm State:  0
Fri Nov 17 11:01:03 PST 2017 ON: 20.00 +20.0 20.06 -15.7 27.2 16.8 31.3 7 9 Alarm State:  0
Fri Nov 17 11:00:01 PST 2017 ON: 19.99 +20.0 20.04 -15.3 27.7 16.5 31.4 7 9 Alarm State:  0
Fri Nov 17 10:59:00 PST 2017 ON: 20.00 +20.0 20.05 -15.5 27.5 16.6 31.5 7 9 Alarm State:  0
Fri Nov 17 10:57:58 PST 2017 ON: 20.00 +20.0 20.06 -15.5 27.5 16.6 31.5 8 9 Alarm State:  0
Fri Nov 17 10:56:57 PST 2017 ON: 19.99 +20.0 20.04 -15.4 27.6 16.5 31.5 8 10 Alarm State:  0
Fri Nov 17 10:55:55 PST 2017 ON: 20.00 +20.0 20.05 -15.5 27.5 16.6 31.4 7 9 Alarm State:  0
Fri Nov 17 10:54:54 PST 2017 ON: 20.01 +20.0 20.06 -15.5 27.5 16.6 31.5 8 9 Alarm State:  0
Fri Nov 17 10:53:52 PST 2017 ON: 19.99 +20.0 20.06 -15.7 27.2 16.8 31.5 7 10 Alarm State:  0
Fri Nov 17 10:52:51 PST 2017 ON: 19.99 +20.0 20.05 -15.3 27.7 16.5 31.4 8 9 Alarm State:  0
Fri Nov 17 10:51:49 PST 2017 ON: 20.00 +20.0 20.04 -15.3 27.7 16.5 31.5 7 9 Alarm State:  0
Fri Nov 17 10:50:48 PST 2017 ON: 20.00 +20.0 20.06 -15.3 27.7 16.5 31.5 7 9 Alarm State:  0
Fri Nov 17 10:49:46 PST 2017 ON: 19.98 +20.0 20.05 -15.8 27.0 16.9 31.4 8 9 Alarm State:  0
Fri Nov 17 10:48:45 PST 2017 ON: 19.99 +20.0 20.04 -15.7 27.2 16.8 31.5 7 9 Alarm State:  0
Fri Nov 17 10:47:43 PST 2017 ON: 20.00 +20.0 20.06 -15.7 27.1 16.9 31.3 8 9 Alarm State:  0
Fri Nov 17 10:46:42 PST 2017 ON: 20.00 +20.0 20.05 -15.3 27.7 16.5 31.5 8 10 Alarm State:  0
Fri Nov 17 10:45:40 PST 2017 ON: 19.99 +20.0 20.05 -15.5 27.4 16.7 31.4 7 9 Alarm State:  0
Fri Nov 17 10:44:39 PST 2017 ON: 19.99 +20.0 20.04 -15.4 27.6 16.5 31.5 8 9 Alarm State:  0
Fri Nov 17 10:43:37 PST 2017 ON: 20.00 +20.0 20.05 -15.3 27.7 16.5 31.5 7 9 Alarm State:  0
Fri Nov 17 10:42:36 PST 2017 ON: 19.99 +20.0 20.05 -15.4 27.6 16.5 31.5 7 10 Alarm State:  0
Fri Nov 17 10:41:34 PST 2017 ON: 19.99 +20.0 20.05 -15.5 27.5 16.6 31.5 8 9 Alarm State:  0
Fri Nov 17 10:40:33 PST 2017 ON: 20.00 +20.0 20.05 -15.3 27.8 16.4 31.5 7 10 Alarm State:  0
Fri Nov 17 10:39:31 PST 2017 ON: 19.99 +20.0 20.05 -15.5 27.4 16.7 31.4 8 10 Alarm State:  0
Fri Nov 17 10:38:30 PST 2017 ON: 19.99 +20.0 20.03 -15.4 27.6 16.5 31.5 8 10 Alarm State:  0
Fri Nov 17 10:37:28 PST 2017 ON: 20.00 +20.0 20.06 -15.3 27.7 16.5 31.6 7 9 Alarm State:  0
Fri Nov 17 10:36:27 PST 2017 ON: 19.99 +20.0 20.06 -15.4 27.6 16.5 31.5 7 10 Alarm State:  0
Fri Nov 17 10:35:25 PST 2017 ON: 19.99 +20.0 20.04 -15.1 28.1 16.2 31.6 7 10 Alarm State:  0
Fri Nov 17 10:34:24 PST 2017 ON: 20.00 +20.0 20.07 -15.7 27.2 16.8 31.4 7 8 Alarm State:  0
Fri Nov 17 10:33:22 PST 2017 ON: 19.99 +20.0 20.05 -15.5 27.4 16.7 31.5 8 10 Alarm State:  0
Fri Nov 17 10:32:21 PST 2017 ON: 19.99 +20.0 20.04 -15.4 27.6 16.5 31.6 7 9 Alarm State:  0
Fri Nov 17 10:31:19 PST 2017 ON: 19.99 +20.0 20.05 -15.7 27.2 16.8 31.3 8 9 Alarm State:  0
Fri Nov 17 10:30:18 PST 2017 ON: 19.99 +20.0 20.06 -15.6 27.3 16.8 31.4 8 9 Alarm State:  0
Fri Nov 17 10:29:16 PST 2017 ON: 19.99 +20.0 20.04 -15.3 27.7 16.5 31.5 7 10 Alarm State:  0
Fri Nov 17 10:28:15 PST 2017 ON: 20.00 +20.0 20.05 -15.3 27.7 16.5 31.5 8 10 Alarm State:  0
Fri Nov 17 10:27:13 PST 2017 ON: 19.99 +20.0 20.04 -15.3 27.8 16.4 31.5 8 10 Alarm State:  0
Fri Nov 17 10:26:12 PST 2017 ON: 20.00 +20.0 20.05 -15.3 27.7 16.5 31.5 7 9 Alarm State:  0
Fri Nov 17 10:25:10 PST 2017 ON: 20.00 +20.0 20.06 -15.1 28.0 16.3 31.6 7 9 Alarm State:  0
Fri Nov 17 10:24:09 PST 2017 ON: 19.99 +20.0 20.05 -15.3 27.7 16.5 31.5 8 9 Alarm State:  0
Fri Nov 17 10:23:07 PST 2017 ON: 20.00 +20.0 20.05 -15.3 27.7 16.5 31.5 7 9 Alarm State:  0
Fri Nov 17 10:22:06 PST 2017 ON: 20.00 +20.0 20.06 -15.4 27.6 16.5 31.5 8 9 Alarm State:  0
Fri Nov 17 10:21:04 PST 2017 ON: 19.99 +20.0 20.03 -15.3 27.7 16.5 31.5 7 10 Alarm State:  0
Fri Nov 17 10:20:03 PST 2017 ON: 19.99 +20.0 20.05 -15.3 27.7 16.5 31.6 7 9 Alarm State:  0
Fri Nov 17 10:19:01 PST 2017 ON: 20.00 +20.0 20.06 -15.6 27.3 16.8 31.3 7 9 Alarm State:  0
Fri Nov 17 10:18:00 PST 2017 ON: 19.99 +20.0 20.05 -15.4 27.6 16.5 31.5 7 9 Alarm State:  0
Fri Nov 17 10:16:58 PST 2017 ON: 19.99 +20.0 20.06 -15.6 27.3 16.8 31.4 7 9 Alarm State:  0
Fri Nov 17 10:15:57 PST 2017 ON: 20.00 +20.0 20.05 -15.3 27.8 16.4 31.5 7 10 Alarm State:  0
Fri Nov 17 10:14:55 PST 2017 ON: 19.99 +20.0 20.04 -15.3 27.8 16.4 31.5 7 10 Alarm State:  0
Fri Nov 17 10:13:54 PST 2017 ON: 19.99 +20.0 20.04 -15.3 27.8 16.4 31.6 7 9 Alarm State:  0
Fri Nov 17 10:12:52 PST 2017 ON: 20.00 +20.0 20.05 -15.5 27.5 16.6 31.4 7 10 Alarm State:  0
Fri Nov 17 10:11:51 PST 2017 ON: 19.99 +20.0 20.04 -15.3 27.7 16.5 31.5 7 10 Alarm State:  0
Fri Nov 17 10:10:49 PST 2017 ON: 19.99 +20.0 20.04 -15.5 27.5 16.6 31.5 8 9 Alarm State:  0
Fri Nov 17 10:09:48 PST 2017 ON: 20.00 +20.0 20.05 -15.3 27.8 16.4 31.6 7 9 Alarm State:  0
Fri Nov 17 10:08:46 PST 2017 ON: 20.00 +20.0 20.06 -15.5 27.5 16.6 31.4 8 9 Alarm State:  0
Fri Nov 17 10:07:45 PST 2017 ON: 19.99 +20.0 20.04 -15.1 28.0 16.3 31.6 7 10 Alarm State:  0
Fri Nov 17 10:06:44 PST 2017 ON: 20.00 +20.0 20.06 -15.4 27.6 16.5 31.5 7 9 Alarm State:  0
Fri Nov 17 10:05:42 PST 2017 ON: 20.00 +20.0 20.04 -15.5 27.5 16.6 31.5 8 10 Alarm State:  0
Fri Nov 17 10:04:41 PST 2017 ON: 19.99 +20.0 20.05 -15.4 27.6 16.5 31.5 7 10 Alarm State:  0
Fri Nov 17 10:03:39 PST 2017 ON: 19.99 +20.0 20.06 -15.5 27.4 16.7 31.4 7 9 Alarm State:  0
Fri Nov 17 10:02:38 PST 2017 ON: 20.00 +20.0 20.04 -15.3 27.7 16.5 31.5 7 9 Alarm State:  0
Fri Nov 17 10:01:36 PST 2017 ON: 20.00 +20.0 20.07 -15.9 26.9 17.0 31.3 7 9 Alarm State:  0
Fri Nov 17 10:00:35 PST 2017 ON: 19.99 +20.0 20.05 -15.3 27.8 16.4 31.5 7 10 Alarm State:  0
Fri Nov 17 09:59:33 PST 2017 ON: 20.00 +20.0 20.05 -15.7 27.2 16.8 31.3 7 9 Alarm State:  0
Fri Nov 17 09:58:32 PST 2017 ON: 20.00 +20.0 20.06 -15.7 27.2 16.8 31.3 7 9 Alarm State:  0
Fri Nov 17 09:57:30 PST 2017 ON: 19.99 +20.0 20.05 -15.5 27.4 16.7 31.4 8 9 Alarm State:  0
Fri Nov 17 09:56:29 PST 2017 ON: 20.00 +20.0 20.04 -15.3 27.7 16.5 31.5 8 10 Alarm State:  0
Fri Nov 17 09:55:27 PST 2017 ON: 19.99 +20.0 20.05 -15.6 27.3 16.8 31.4 7 10 Alarm State:  0
Fri Nov 17 09:54:26 PST 2017 ON: 19.99 +20.0 20.04 -15.4 27.6 16.5 31.5 8 10 Alarm State:  0
Fri Nov 17 09:53:24 PST 2017 ON: 20.00 +20.0 20.07 -15.7 27.2 16.8 31.3 7 8 Alarm State:  0
Fri Nov 17 09:52:23 PST 2017 ON: 19.99 +20.0 20.05 -15.3 27.7 16.5 31.5 7 10 Alarm State:  0
Fri Nov 17 09:51:21 PST 2017 ON: 20.00 +20.0 20.05 -15.2 27.9 16.3 31.5 7 9 Alarm State:  0
Fri Nov 17 09:50:20 PST 2017 ON: 19.99 +20.0 20.05 -15.4 27.6 16.5 31.5 7 10 Alarm State:  0
Fri Nov 17 09:49:18 PST 2017 ON: 19.99 +20.0 20.05 -15.4 27.6 16.5 31.5 8 9 Alarm State:  0
Fri Nov 17 09:48:17 PST 2017 ON: 20.00 +20.0 20.05 -15.3 27.7 16.5 31.5 7 9 Alarm State:  0
Fri Nov 17 09:47:15 PST 2017 ON: 19.99 +20.0 20.05 -15.5 27.5 16.6 31.4 8 10 Alarm State:  0
Fri Nov 17 09:46:14 PST 2017 ON: 19.99 +20.0 20.05 -15.3 27.7 16.5 31.5 8 9 Alarm State:  0
Fri Nov 17 09:45:12 PST 2017 ON: 20.00 +20.0 20.05 -15.3 27.7 16.5 31.5 7 9 Alarm State:  0
Fri Nov 17 09:44:11 PST 2017 ON: 19.99 +20.0 20.06 -15.2 27.9 16.3 31.5 7 9 Alarm State:  0
Fri Nov 17 09:43:09 PST 2017 ON: 19.99 +20.0 20.05 -15.6 27.3 16.8 31.4 8 9 Alarm State:  0
Fri Nov 17 09:42:08 PST 2017 ON: 20.00 +20.0 20.05 -15.3 27.7 16.5 31.5 7 9 Alarm State:  0
Fri Nov 17 09:41:06 PST 2017 ON: 19.99 +20.0 20.05 -15.6 27.3 16.8 31.4 8 10 Alarm State:  0
Fri Nov 17 09:40:05 PST 2017 ON: 19.99 +20.0 20.03 -15.3 27.7 16.5 31.5 7 10 Alarm State:  0
Fri Nov 17 09:39:03 PST 2017 ON: 20.00 +20.0 20.05 -15.5 27.5 16.6 31.5 7 9 Alarm State:  0
Fri Nov 17 09:38:02 PST 2017 ON: 19.99 +20.0 20.05 -15.4 27.6 16.5 31.5 7 10 Alarm State:  0
Fri Nov 17 09:37:00 PST 2017 ON: 19.99 +20.0 20.05 -15.6 27.3 16.8 31.4 7 9 Alarm State:  0
Fri Nov 17 09:35:59 PST 2017 ON: 20.00 +20.0 20.05 -15.8 27.0 16.9 31.3 7 9 Alarm State:  0
Fri Nov 17 09:34:57 PST 2017 ON: 20.00 +20.0 20.05 -15.5 27.4 16.7 31.4 8 9 Alarm State:  0
Fri Nov 17 09:33:56 PST 2017 ON: 19.99 +20.0 20.06 -15.7 27.1 16.9 31.4 7 9 Alarm State:  0
Fri Nov 17 09:32:54 PST 2017 ON: 20.00 +20.0 20.04 -15.5 27.4 16.7 31.5 7 10 Alarm State:  0
Fri Nov 17 09:31:53 PST 2017 ON: 20.00 +20.0 20.05 -15.6 27.3 16.8 31.4 7 10 Alarm State:  0
Fri Nov 17 09:30:51 PST 2017 ON: 19.99 +20.0 20.05 -15.4 27.6 16.5 31.5 7 9 Alarm State:  0
Fri Nov 17 09:29:50 PST 2017 ON: 19.99 +20.0 20.05 -15.7 27.2 16.8 31.4 8 9 Alarm State:  0
Fri Nov 17 09:28:48 PST 2017 ON: 20.00 +20.0 20.05 -15.3 27.7 16.5 31.5 7 9 Alarm State:  0
Fri Nov 17 09:27:47 PST 2017 ON: 19.99 +20.0 20.06 -15.5 27.4 16.7 31.4 7 9 Alarm State:  0
Fri Nov 17 09:26:45 PST 2017 ON: 19.99 +20.0 20.04 -15.3 27.8 16.4 31.5 7 9 Alarm State:  0
Fri Nov 17 09:25:44 PST 2017 ON: 20.00 +20.0 20.04 -15.5 27.5 16.6 31.5 7 10 Alarm State:  0
Fri Nov 17 09:24:42 PST 2017 ON: 19.99 +20.0 20.05 -15.3 27.8 16.4 31.5 7 10 Alarm State:  0
Fri Nov 17 09:23:41 PST 2017 ON: 19.99 +20.0 20.04 -15.4 27.6 16.5 31.4 7 9 Alarm State:  0
Fri Nov 17 09:22:39 PST 2017 ON: 20.00 +20.0 20.06 -15.7 27.1 16.9 31.3 7 9 Alarm State:  0
Fri Nov 17 09:21:38 PST 2017 ON: 20.00 +20.0 20.07 -15.7 27.1 16.9 31.4 8 9 Alarm State:  0
Fri Nov 17 09:20:36 PST 2017 ON: 19.99 +20.0 20.05 -15.5 27.5 16.6 31.4 8 9 Alarm State:  0
Fri Nov 17 09:19:35 PST 2017 ON: 20.00 +20.0 20.05 -15.3 27.8 16.4 31.6 7 9 Alarm State:  0
Fri Nov 17 09:18:34 PST 2017 ON: 20.00 +20.0 20.06 -15.3 27.7 16.5 31.5 8 9 Alarm State:  0
Fri Nov 17 09:17:32 PST 2017 ON: 19.99 +20.0 20.05 -15.3 27.8 16.4 31.6 7 10 Alarm State:  0
Fri Nov 17 09:16:31 PST 2017 ON: 20.00 +20.0 20.04 -15.5 27.5 16.6 31.4 7 10 Alarm State:  0
Fri Nov 17 09:15:29 PST 2017 ON: 19.99 +20.0 20.05 -15.3 27.8 16.4 31.5 7 10 Alarm State:  0
Fri Nov 17 09:14:28 PST 2017 ON: 20.00 +20.0 20.05 -15.5 27.5 16.6 31.5 7 10 Alarm State:  0
Fri Nov 17 09:13:26 PST 2017 ON: 19.99 +20.0 20.05 -15.3 27.7 16.5 31.5 8 10 Alarm State:  0
Fri Nov 17 09:12:25 PST 2017 ON: 19.99 +20.0 20.04 -15.2 27.9 16.3 31.6 7 10 Alarm State:  0
Fri Nov 17 09:11:23 PST 2017 ON: 20.00 +20.0 20.04 -15.7 27.2 16.8 31.4 8 9 Alarm State:  0
Fri Nov 17 09:10:22 PST 2017 ON: 19.99 +20.0 20.04 -15.3 27.7 16.5 31.6 7 10 Alarm State:  0
Fri Nov 17 09:09:20 PST 2017 ON: 20.00 +20.0 20.05 -14.9 28.3 16.1 31.7 7 10 Alarm State:  0
Fri Nov 17 09:08:19 PST 2017 ON: 19.99 +20.0 20.05 -15.4 27.6 16.5 31.5 7 10 Alarm State:  0
Fri Nov 17 09:07:17 PST 2017 ON: 19.99 +20.0 20.04 -15.5 27.5 16.6 31.5 7 9 Alarm State:  0
Fri Nov 17 09:06:16 PST 2017 ON: 20.00 +20.0 20.06 -15.4 27.6 16.5 31.5 7 9 Alarm State:  0
Fri Nov 17 09:05:14 PST 2017 ON: 20.00 +20.0 20.06 -15.5 27.4 16.7 31.4 8 10 Alarm State:  0
Fri Nov 17 09:04:13 PST 2017 ON: 19.98 +20.0 20.05 -15.2 27.9 16.3 31.5 7 10 Alarm State:  0
Fri Nov 17 09:03:11 PST 2017 ON: 19.99 +20.0 20.03 -14.9 28.4 16.0 31.7 7 10 Alarm State:  0
Fri Nov 17 09:02:10 PST 2017 ON: 20.00 +20.0 20.05 -15.5 27.4 16.7 31.4 8 9 Alarm State:  0
Fri Nov 17 09:01:08 PST 2017 ON: 19.99 +20.0 20.05 -15.4 27.6 16.5 31.5 7 9 Alarm State:  0
Fri Nov 17 09:00:07 PST 2017 ON: 20.00 +20.0 20.05 -15.5 27.5 16.6 31.4 7 9 Alarm State:  0
Fri Nov 17 08:59:05 PST 2017 ON: 20.00 +20.0 20.06 -15.5 27.5 16.6 31.4 8 9 Alarm State:  0
Fri Nov 17 08:58:04 PST 2017 ON: 19.99 +20.0 20.05 -15.1 28.0 16.3 31.6 7 10 Alarm State:  0
Fri Nov 17 08:57:02 PST 2017 ON: 19.99 +20.0 20.05 -15.4 27.6 16.5 31.5 8 9 Alarm State:  0
Fri Nov 17 08:56:01 PST 2017 ON: 20.00 +20.0 20.06 -15.3 27.7 16.5 31.5 7 9 Alarm State:  0
Fri Nov 17 08:54:59 PST 2017 ON: 19.99 +20.0 20.05 -15.5 27.5 16.6 31.4 7 9 Alarm State:  0
Fri Nov 17 08:53:58 PST 2017 ON: 20.00 +20.0 20.06 -15.3 27.7 16.5 31.6 8 8 Alarm State:  0
Fri Nov 17 08:52:56 PST 2017 ON: 19.99 +20.0 20.04 -15.7 27.1 16.9 31.3 7 10 Alarm State:  0
Fri Nov 17 08:51:55 PST 2017 ON: 19.99 +20.0 20.05 -15.5 27.5 16.6 31.4 7 9 Alarm State:  0
Fri Nov 17 08:50:53 PST 2017 ON: 20.00 +20.0 20.05 -15.6 27.3 16.8 31.4 8 9 Alarm State:  0
Fri Nov 17 08:49:52 PST 2017 ON: 19.99 +20.0 20.05 -15.7 27.2 16.8 31.3 7 10 Alarm State:  0
Fri Nov 17 08:48:50 PST 2017 ON: 19.99 +20.0 20.04 -15.3 27.7 16.5 31.5 7 10 Alarm State:  0
Fri Nov 17 08:47:49 PST 2017 ON: 20.00 +20.0 20.05 -15.7 27.2 16.8 31.3 8 9 Alarm State:  0
Fri Nov 17 08:46:47 PST 2017 ON: 19.99 +20.0 20.05 -15.5 27.5 16.6 31.5 7 10 Alarm State:  0
Fri Nov 17 08:45:46 PST 2017 ON: 19.99 +20.0 20.06 -15.2 27.9 16.3 31.6 7 9 Alarm State:  0
Fri Nov 17 08:44:44 PST 2017 ON: 19.99 +20.0 20.04 -15.4 27.6 16.5 31.5 7 9 Alarm State:  0
Fri Nov 17 08:43:43 PST 2017 ON: 20.00 +20.0 20.05 -15.7 27.2 16.8 31.4 8 10 Alarm State:  0
Fri Nov 17 08:42:41 PST 2017 ON: 19.99 +20.0 20.06 -15.3 27.7 16.5 31.5 8 9 Alarm State:  0
Fri Nov 17 08:41:40 PST 2017 ON: 19.98 +20.0 20.04 -15.3 27.8 16.4 31.5 7 10 Alarm State:  0
Fri Nov 17 08:40:38 PST 2017 ON: 20.00 +20.0 20.05 -15.4 27.6 16.5 31.5 8 9 Alarm State:  0
Fri Nov 17 08:39:37 PST 2017 ON: 20.00 +20.0 20.06 -15.4 27.6 16.5 31.4 7 9 Alarm State:  0
Fri Nov 17 08:38:35 PST 2017 ON: 19.99 +20.0 20.07 -15.3 27.7 16.5 31.5 7 9 Alarm State:  0
Fri Nov 17 08:37:34 PST 2017 ON: 19.99 +20.0 20.06 -15.3 27.7 16.5 31.5 8 9 Alarm State:  0
Fri Nov 17 08:36:32 PST 2017 ON: 19.99 +20.0 20.04 -15.4 27.6 16.5 31.5 8 10 Alarm State:  0
Fri Nov 17 08:35:31 PST 2017 ON: 20.00 +20.0 20.06 -15.5 27.4 16.7 31.5 7 8 Alarm State:  0
Fri Nov 17 08:34:29 PST 2017 ON: 20.00 +20.0 20.06 -15.5 27.4 16.7 31.4 8 9 Alarm State:  0
Fri Nov 17 08:33:28 PST 2017 ON: 19.99 +20.0 20.04 -15.1 28.0 16.3 31.6 7 10 Alarm State:  0
Fri Nov 17 08:32:26 PST 2017 ON: 19.99 +20.0 20.05 -15.5 27.4 16.7 31.5 7 10 Alarm State:  0
Fri Nov 17 08:31:25 PST 2017 ON: 19.99 +20.0 20.05 -15.7 27.2 16.8 31.3 7 9 Alarm State:  0
Fri Nov 17 08:30:23 PST 2017 ON: 20.00 +20.0 20.06 -15.6 27.3 16.8 31.4 7 9 Alarm State:  0
Fri Nov 17 08:29:22 PST 2017 ON: 20.00 +20.0 20.06 -15.5 27.4 16.7 31.4 8 9 Alarm State:  0
Fri Nov 17 08:28:20 PST 2017 ON: 19.99 +20.0 20.05 -15.3 27.8 16.4 31.5 7 9 Alarm State:  0
Fri Nov 17 08:27:19 PST 2017 ON: 20.00 +20.0 20.05 -15.5 27.5 16.6 31.5 7 9 Alarm State:  0
Fri Nov 17 08:26:17 PST 2017 ON: 20.00 +20.0 20.06 -15.6 27.3 16.8 31.4 8 9 Alarm State:  0
Fri Nov 17 08:25:16 PST 2017 ON: 19.99 +20.0 20.05 -15.6 27.3 16.8 31.4 7 9 Alarm State:  0
Fri Nov 17 08:24:15 PST 2017 ON: 20.00 +20.0 20.05 -15.4 27.6 16.5 31.5 8 9 Alarm State:  0
Fri Nov 17 08:23:13 PST 2017 ON: 19.99 +20.0 20.05 -15.3 27.8 16.4 31.6 7 10 Alarm State:  0
Fri Nov 17 08:22:12 PST 2017 ON: 19.99 +20.0 20.05 -15.6 27.3 16.8 31.5 7 9 Alarm State:  0
Fri Nov 17 08:21:10 PST 2017 ON: 20.00 +20.0 20.05 -15.5 27.5 16.6 31.5 8 9 Alarm State:  0
Fri Nov 17 08:20:09 PST 2017 ON: 19.99 +20.0 20.05 -15.6 27.3 16.8 31.4 8 10 Alarm State:  0
Fri Nov 17 08:19:07 PST 2017 ON: 20.00 +20.0 20.04 -15.4 27.6 16.5 31.4 7 10 Alarm State:  0
Fri Nov 17 08:18:06 PST 2017 ON: 20.00 +20.0 20.04 -15.4 27.6 16.5 31.5 8 10 Alarm State:  0
Fri Nov 17 08:17:04 PST 2017 ON: 20.00 +20.0 20.05 -15.7 27.2 16.8 31.4 7 9 Alarm State:  0
Fri Nov 17 08:16:03 PST 2017 ON: 20.00 +20.0 20.04 -15.5 27.5 16.6 31.4 7 10 Alarm State:  0
Fri Nov 17 08:15:01 PST 2017 ON: 20.00 +20.0 20.05 -15.3 27.7 16.5 31.5 7 9 Alarm State:  0
Fri Nov 17 08:14:00 PST 2017 ON: 20.00 +20.0 20.06 -15.5 27.4 16.7 31.4 7 9 Alarm State:  0
Fri Nov 17 08:12:58 PST 2017 ON: 19.99 +20.0 20.05 -15.6 27.3 16.8 31.4 8 9 Alarm State:  0
Fri Nov 17 08:11:57 PST 2017 ON: 20.00 +20.0 20.04 -15.3 27.8 16.4 31.5 7 10 Alarm State:  0
Fri Nov 17 08:10:55 PST 2017 ON: 20.00 +20.0 20.04 -15.3 27.8 16.4 31.6 7 10 Alarm State:  0
Fri Nov 17 08:09:54 PST 2017 ON: 19.99 +20.0 20.05 -15.6 27.3 16.8 31.4 8 10 Alarm State:  0
Fri Nov 17 08:08:52 PST 2017 ON: 20.00 +20.0 20.07 -15.5 27.4 16.7 31.5 7 9 Alarm State:  0
Fri Nov 17 08:07:51 PST 2017 ON: 19.99 +20.0 20.04 -15.4 27.6 16.5 31.5 7 10 Alarm State:  0
Fri Nov 17 08:06:49 PST 2017 ON: 20.00 +20.0 20.04 -15.4 27.6 16.5 31.4 7 10 Alarm State:  0
Fri Nov 17 08:05:48 PST 2017 ON: 20.00 +20.0 20.05 -15.5 27.5 16.6 31.4 7 10 Alarm State:  0
Fri Nov 17 08:04:46 PST 2017 ON: 19.99 +20.0 20.04 -15.5 27.4 16.7 31.4 7 10 Alarm State:  0
Fri Nov 17 08:03:45 PST 2017 ON: 20.00 +20.0 20.05 -15.6 27.3 16.8 31.4 7 9 Alarm State:  0
Fri Nov 17 08:02:43 PST 2017 ON: 20.00 +20.0 20.06 -15.4 27.6 16.5 31.4 7 9 Alarm State:  0
Fri Nov 17 08:01:42 PST 2017 ON: 19.99 +20.0 20.05 -15.3 27.7 16.5 31.5 7 9 Alarm State:  0
Fri Nov 17 08:00:40 PST 2017 ON: 20.00 +20.0 20.05 -15.6 27.3 16.8 31.3 7 9 Alarm State:  0
Fri Nov 17 07:59:39 PST 2017 ON: 19.99 +20.0 20.06 -15.4 27.6 16.5 31.5 7 9 Alarm State:  0
Fri Nov 17 07:58:37 PST 2017 ON: 19.99 +20.0 20.04 -15.3 27.7 16.5 31.5 7 10 Alarm State:  0
Fri Nov 17 07:57:36 PST 2017 ON: 20.00 +20.0 20.05 -15.7 27.2 16.8 31.3 8 9 Alarm State:  0
Fri Nov 17 07:56:34 PST 2017 ON: 20.00 +20.0 20.06 -15.2 27.9 16.3 31.6 7 10 Alarm State:  0
Fri Nov 17 07:55:33 PST 2017 ON: 19.99 +20.0 20.05 -15.5 27.4 16.7 31.5 7 9 Alarm State:  0
Fri Nov 17 07:54:31 PST 2017 ON: 20.00 +20.0 20.05 -15.5 27.4 16.7 31.4 7 9 Alarm State:  0
Fri Nov 17 07:53:30 PST 2017 ON: 19.99 +20.0 20.05 -15.7 27.1 16.9 31.3 8 10 Alarm State:  0
Fri Nov 17 07:52:28 PST 2017 ON: 20.00 +20.0 20.04 -15.3 27.7 16.5 31.5 7 9 Alarm State:  0
Fri Nov 17 07:51:27 PST 2017 ON: 20.00 +20.0 20.05 -15.4 27.6 16.5 31.5 8 10 Alarm State:  0
Fri Nov 17 07:50:25 PST 2017 ON: 20.00 +20.0 20.06 -15.4 27.6 16.5 31.4 8 9 Alarm State:  0
Fri Nov 17 07:49:24 PST 2017 ON: 20.00 +20.0 20.05 -15.4 27.6 16.5 31.5 7 9 Alarm State:  0
Fri Nov 17 07:48:22 PST 2017 ON: 20.00 +20.0 20.05 -15.4 27.6 16.5 31.5 7 10 Alarm State:  0
Fri Nov 17 07:47:21 PST 2017 ON: 19.98 +20.0 20.04 -15.3 27.8 16.4 31.6 7 10 Alarm State:  0
Fri Nov 17 07:46:19 PST 2017 ON: 20.00 +20.0 20.05 -15.7 27.2 16.8 31.4 7 9 Alarm State:  0
Fri Nov 17 07:45:18 PST 2017 ON: 20.00 +20.0 20.06 -15.7 27.1 16.9 31.3 8 9 Alarm State:  0
Fri Nov 17 07:44:16 PST 2017 ON: 20.00 +20.0 20.05 -15.3 27.7 16.5 31.5 7 9 Alarm State:  0
Fri Nov 17 07:43:15 PST 2017 ON: 20.00 +20.0 20.04 -15.3 27.8 16.4 31.5 7 10 Alarm State:  0
Fri Nov 17 07:42:13 PST 2017 ON: 19.99 +20.0 20.05 -15.5 27.4 16.7 31.4 8 10 Alarm State:  0
Fri Nov 17 07:41:12 PST 2017 ON: 19.99 +20.0 20.05 -15.5 27.5 16.6 31.5 7 9 Alarm State:  0
Fri Nov 17 07:40:10 PST 2017 ON: 20.00 +20.0 20.04 -15.3 27.8 16.4 31.5 7 10 Alarm State:  0
Fri Nov 17 07:39:09 PST 2017 ON: 19.99 +20.0 20.06 -15.5 27.5 16.6 31.4 7 9 Alarm State:  0
Fri Nov 17 07:38:07 PST 2017 ON: 19.99 +20.0 20.04 -15.3 27.7 16.5 31.5 7 10 Alarm State:  0
Fri Nov 17 07:37:06 PST 2017 ON: 20.00 +20.0 20.06 -15.6 27.3 16.8 31.4 8 9 Alarm State:  0
Fri Nov 17 07:36:04 PST 2017 ON: 19.99 +20.0 20.06 -15.5 27.4 16.7 31.3 7 9 Alarm State:  0
Fri Nov 17 07:35:03 PST 2017 ON: 19.99 +20.0 20.05 -15.5 27.5 16.6 31.4 7 9 Alarm State:  0
Fri Nov 17 07:34:02 PST 2017 ON: 20.00 +20.0 20.06 -15.3 27.7 16.5 31.5 7 9 Alarm State:  0
Fri Nov 17 07:33:00 PST 2017 ON: 19.99 +20.0 20.05 -15.6 27.3 16.8 31.4 7 9 Alarm State:  0
Fri Nov 17 07:31:59 PST 2017 ON: 19.99 +20.0 20.04 -15.6 27.3 16.8 31.3 8 9 Alarm State:  0
Fri Nov 17 07:30:57 PST 2017 ON: 20.00 +20.0 20.05 -15.5 27.5 16.6 31.3 7 9 Alarm State:  0
Fri Nov 17 07:29:56 PST 2017 ON: 20.00 +20.0 20.06 -15.4 27.6 16.5 31.5 7 10 Alarm State:  0
Fri Nov 17 07:28:54 PST 2017 ON: 19.99 +20.0 20.05 -15.5 27.4 16.7 31.4 8 10 Alarm State:  0
Fri Nov 17 07:27:53 PST 2017 ON: 19.99 +20.0 20.03 -15.4 27.6 16.5 31.5 7 10 Alarm State:  0
Fri Nov 17 07:26:51 PST 2017 ON: 20.00 +20.0 20.05 -15.8 27.0 16.9 31.2 8 9 Alarm State:  0
Fri Nov 17 07:25:50 PST 2017 ON: 20.00 +20.0 20.05 -15.6 27.3 16.8 31.5 8 10 Alarm State:  0
Fri Nov 17 07:24:48 PST 2017 ON: 19.99 +20.0 20.05 -15.4 27.6 16.5 31.5 7 10 Alarm State:  0
Fri Nov 17 07:23:47 PST 2017 ON: 19.99 +20.0 20.05 -15.6 27.3 16.8 31.3 7 9 Alarm State:  0
Fri Nov 17 07:22:45 PST 2017 ON: 20.00 +20.0 20.05 -15.6 27.3 16.8 31.4 8 9 Alarm State:  0
Fri Nov 17 07:21:44 PST 2017 ON: 20.00 +20.0 20.05 -15.7 27.2 16.8 31.4 7 10 Alarm State:  0
Fri Nov 17 07:20:42 PST 2017 ON: 19.98 +20.0 20.05 -15.5 27.4 16.7 31.4 8 9 Alarm State:  0
Fri Nov 17 07:19:41 PST 2017 ON: 19.99 +20.0 20.03 -15.3 27.7 16.5 31.5 7 10 Alarm State:  0
Fri Nov 17 07:18:39 PST 2017 ON: 20.00 +20.0 20.05 -15.8 27.0 16.9 31.3 7 9 Alarm State:  0
Fri Nov 17 07:17:38 PST 2017 ON: 19.99 +20.0 20.05 -15.2 27.9 16.3 31.5 7 10 Alarm State:  0
Fri Nov 17 07:16:36 PST 2017 ON: 20.00 +20.0 20.05 -15.2 27.9 16.3 31.5 7 10 Alarm State:  0
Fri Nov 17 07:15:35 PST 2017 ON: 19.99 +20.0 20.04 -15.3 27.8 16.4 31.4 7 10 Alarm State:  0
Fri Nov 17 07:14:33 PST 2017 ON: 20.00 +20.0 20.06 -15.4 27.6 16.5 31.5 8 9 Alarm State:  0
Fri Nov 17 07:13:32 PST 2017 ON: 19.99 +20.0 20.05 -15.3 27.7 16.5 31.5 7 10 Alarm State:  0
Fri Nov 17 07:12:30 PST 2017 ON: 19.99 +20.0 20.04 -15.3 27.7 16.5 31.4 7 10 Alarm State:  0
Fri Nov 17 07:11:29 PST 2017 ON: 19.99 +20.0 20.05 -15.5 27.4 16.7 31.4 7 9 Alarm State:  0
Fri Nov 17 07:10:27 PST 2017 ON: 20.00 +20.0 20.05 -15.6 27.3 16.8 31.4 7 10 Alarm State:  0
Fri Nov 17 07:09:26 PST 2017 ON: 19.99 +20.0 20.05 -15.7 27.2 16.8 31.4 8 9 Alarm State:  0
Fri Nov 17 07:08:24 PST 2017 ON: 20.00 +20.0 20.03 -15.5 27.5 16.6 31.5 7 10 Alarm State:  0
Fri Nov 17 07:07:23 PST 2017 ON: 20.00 +20.0 20.05 -15.4 27.6 16.5 31.4 7 9 Alarm State:  0
Fri Nov 17 07:06:21 PST 2017 ON: 20.00 +20.0 20.06 -15.4 27.6 16.5 31.4 8 10 Alarm State:  0
Fri Nov 17 07:05:20 PST 2017 ON: 19.99 +20.0 20.06 -15.7 27.2 16.8 31.4 7 9 Alarm State:  0
Fri Nov 17 07:04:18 PST 2017 ON: 19.99 +20.0 20.05 -15.7 27.2 16.8 31.4 8 9 Alarm State:  0
Fri Nov 17 07:03:17 PST 2017 ON: 20.00 +20.0 20.05 -15.4 27.6 16.5 31.4 7 9 Alarm State:  0
Fri Nov 17 07:02:15 PST 2017 ON: 20.00 +20.0 20.05 -15.5 27.4 16.7 31.4 7 10 Alarm State:  0
Fri Nov 17 07:01:14 PST 2017 ON: 19.99 +20.0 20.05 -15.5 27.5 16.6 31.4 7 9 Alarm State:  0
Fri Nov 17 07:00:12 PST 2017 ON: 20.00 +20.0 20.04 -15.5 27.4 16.7 31.4 7 9 Alarm State:  0
Fri Nov 17 06:59:11 PST 2017 ON: 20.00 +20.0 20.04 -15.3 27.7 16.5 31.5 7 10 Alarm State:  0
Fri Nov 17 06:58:09 PST 2017 ON: 19.99 +20.0 20.06 -15.7 27.1 16.9 31.4 8 9 Alarm State:  0
Fri Nov 17 06:57:08 PST 2017 ON: 20.00 +20.0 20.05 -15.7 27.1 16.9 31.3 7 9 Alarm State:  0
Fri Nov 17 06:56:06 PST 2017 ON: 19.99 +20.0 20.04 -15.3 27.8 16.4 31.6 7 10 Alarm State:  0
Fri Nov 17 06:55:05 PST 2017 ON: 19.99 +20.0 20.04 -15.5 27.4 16.7 31.4 8 10 Alarm State:  0
Fri Nov 17 06:54:03 PST 2017 ON: 20.00 +20.0 20.05 -15.6 27.3 16.8 31.4 7 9 Alarm State:  0
Fri Nov 17 06:53:02 PST 2017 ON: 20.00 +20.0 20.07 -15.5 27.4 16.7 31.5 8 9 Alarm State:  0
Fri Nov 17 06:52:00 PST 2017 ON: 19.99 +20.0 20.04 -15.4 27.6 16.5 31.5 8 10 Alarm State:  0
Fri Nov 17 06:50:59 PST 2017 ON: 20.00 +20.0 20.05 -15.4 27.6 16.5 31.4 7 9 Alarm State:  0
Fri Nov 17 06:49:57 PST 2017 ON: 19.99 +20.0 20.06 -15.5 27.4 16.7 31.4 7 9 Alarm State:  0
Fri Nov 17 06:48:56 PST 2017 ON: 19.99 +20.0 20.04 -15.7 27.2 16.8 31.4 7 9 Alarm State:  0
Fri Nov 17 06:47:54 PST 2017 ON: 20.00 +20.0 20.06 -15.8 27.0 16.9 31.3 8 9 Alarm State:  0
Fri Nov 17 06:46:53 PST 2017 ON: 20.00 +20.0 20.04 -15.3 27.7 16.5 31.5 8 10 Alarm State:  0
Fri Nov 17 06:45:51 PST 2017 ON: 20.00 +20.0 20.06 -15.5 27.5 16.6 31.4 7 10 Alarm State:  0
Fri Nov 17 06:44:50 PST 2017 ON: 19.99 +20.0 20.05 -15.3 27.8 16.4 31.5 8 10 Alarm State:  0
Fri Nov 17 06:43:48 PST 2017 ON: 19.98 +20.0 20.04 -15.4 27.6 16.5 31.5 7 10 Alarm State:  0
Fri Nov 17 06:42:47 PST 2017 ON: 20.00 +20.0 20.05 -15.6 27.3 16.8 31.4 8 9 Alarm State:  0
Fri Nov 17 06:41:45 PST 2017 ON: 20.00 +20.0 20.06 -15.6 27.3 16.8 31.4 8 9 Alarm State:  0
Fri Nov 17 06:40:44 PST 2017 ON: 19.99 +20.0 20.06 -15.4 27.6 16.5 31.5 7 10 Alarm State:  0
Fri Nov 17 06:39:42 PST 2017 ON: 19.99 +20.0 20.05 -15.4 27.6 16.5 31.5 8 9 Alarm State:  0
Fri Nov 17 06:38:41 PST 2017 ON: 20.00 +20.0 20.06 -15.4 27.6 16.5 31.4 7 9 Alarm State:  0
Fri Nov 17 06:37:39 PST 2017 ON: 19.99 +20.0 20.07 -15.7 27.1 16.9 31.4 7 9 Alarm State:  0
Fri Nov 17 06:36:38 PST 2017 ON: 20.00 +20.0 20.04 -15.6 27.3 16.8 31.4 8 10 Alarm State:  0
Fri Nov 17 06:35:36 PST 2017 ON: 20.00 +20.0 20.06 -15.7 27.2 16.8 31.3 7 9 Alarm State:  0
Fri Nov 17 06:34:35 PST 2017 ON: 19.99 +20.0 20.05 -15.4 27.6 16.5 31.4 7 10 Alarm State:  0
Fri Nov 17 06:33:33 PST 2017 ON: 20.00 +20.0 20.05 -15.5 27.5 16.6 31.4 8 9 Alarm State:  0
Fri Nov 17 06:32:32 PST 2017 ON: 20.00 +20.0 20.05 -15.4 27.6 16.5 31.5 7 10 Alarm State:  0
Fri Nov 17 06:31:30 PST 2017 ON: 19.99 +20.0 20.05 -15.2 27.9 16.3 31.6 7 10 Alarm State:  0
Fri Nov 17 06:30:29 PST 2017 ON: 19.99 +20.0 20.05 -15.5 27.5 16.6 31.4 7 9 Alarm State:  0
Fri Nov 17 06:29:27 PST 2017 ON: 20.00 +20.0 20.06 -15.6 27.3 16.8 31.3 7 9 Alarm State:  0
Fri Nov 17 06:28:26 PST 2017 ON: 20.00 +20.0 20.07 -15.7 27.2 16.8 31.4 8 9 Alarm State:  0
Fri Nov 17 06:27:24 PST 2017 ON: 19.99 +20.0 20.05 -15.4 27.6 16.5 31.4 7 9 Alarm State:  0
Fri Nov 17 06:26:23 PST 2017 ON: 20.00 +20.0 20.06 -15.4 27.6 16.5 31.4 7 9 Alarm State:  0
Fri Nov 17 06:25:21 PST 2017 ON: 20.00 +20.0 20.05 -15.3 27.7 16.5 31.5 8 10 Alarm State:  0
Fri Nov 17 06:24:20 PST 2017 ON: 19.99 +20.0 20.05 -15.6 27.3 16.8 31.3 7 9 Alarm State:  0
Fri Nov 17 06:23:18 PST 2017 ON: 20.00 +20.0 20.04 -15.5 27.5 16.6 31.4 7 9 Alarm State:  0
Fri Nov 17 06:22:17 PST 2017 ON: 20.00 +20.0 20.05 -15.6 27.3 16.8 31.4 8 9 Alarm State:  0
Fri Nov 17 06:21:15 PST 2017 ON: 20.00 +20.0 20.06 -15.4 27.6 16.5 31.5 7 10 Alarm State:  0
Fri Nov 17 06:20:14 PST 2017 ON: 19.99 +20.0 20.05 -15.5 27.4 16.7 31.5 8 10 Alarm State:  0
Fri Nov 17 06:19:12 PST 2017 ON: 19.99 +20.0 20.03 -15.3 27.7 16.5 31.5 7 10 Alarm State:  0
Fri Nov 17 06:18:11 PST 2017 ON: 20.00 +20.0 20.06 -15.6 27.3 16.8 31.4 7 9 Alarm State:  0
Fri Nov 17 06:17:09 PST 2017 ON: 19.99 +20.0 20.05 -15.7 27.1 16.9 31.2 8 10 Alarm State:  0
Fri Nov 17 06:16:08 PST 2017 ON: 20.00 +20.0 20.04 -15.3 27.8 16.4 31.6 7 10 Alarm State:  0
Fri Nov 17 06:15:06 PST 2017 ON: 19.99 +20.0 20.05 -15.5 27.5 16.6 31.4 8 10 Alarm State:  0
Fri Nov 17 06:14:05 PST 2017 ON: 19.99 +20.0 20.05 -15.5 27.5 16.6 31.4 7 9 Alarm State:  0
Fri Nov 17 06:13:03 PST 2017 ON: 20.00 +20.0 20.04 -15.5 27.5 16.6 31.4 7 10 Alarm State:  0
Fri Nov 17 06:12:02 PST 2017 ON: 20.00 +20.0 20.06 -15.6 27.3 16.8 31.4 8 9 Alarm State:  0
Fri Nov 17 06:11:00 PST 2017 ON: 19.99 +20.0 20.04 -15.3 27.7 16.5 31.5 7 10 Alarm State:  0
Fri Nov 17 06:09:59 PST 2017 ON: 19.99 +20.0 20.06 -15.9 26.9 17.0 31.2 8 9 Alarm State:  0
Fri Nov 17 06:08:57 PST 2017 ON: 19.99 +20.0 20.05 -15.4 27.6 16.5 31.5 8 9 Alarm State:  0
Fri Nov 17 06:07:56 PST 2017 ON: 20.00 +20.0 20.07 -15.6 27.3 16.8 31.4 7 9 Alarm State:  0
Fri Nov 17 06:06:44 PST 2017  Alarm State: 0
Fri Nov 17 06:06:44 PST 2017 Chiller did not report ON, got this reading: 
Fri Nov 17 06:05:43 PST 2017 ON: 19.99 +20.0 20.04 -15.3 27.7 16.5 31.5 7 10 Alarm State:  0
Fri Nov 17 06:04:41 PST 2017 ON: 20.00 +20.0 20.06 -15.7 27.1 16.9 31.3 8 9 Alarm State:  0
Fri Nov 17 06:03:40 PST 2017 ON: 19.99 +20.0 20.05 -15.3 27.7 16.5 31.5 7 9 Alarm State:  0
Fri Nov 17 06:02:38 PST 2017 ON: 20.00 +20.0 20.06 -15.3 27.8 16.4 31.5 7 9 Alarm State:  0
Fri Nov 17 06:01:37 PST 2017 ON: 20.00 +20.0 20.06 -15.5 27.4 16.7 31.3 7 10 Alarm State:  0
Fri Nov 17 06:00:35 PST 2017 ON: 19.99 +20.0 20.04 -15.3 27.8 16.4 31.6 7 10 Alarm State:  0
Fri Nov 17 05:59:34 PST 2017 ON: 19.99 +20.0 20.05 -15.4 27.6 16.5 31.5 7 9 Alarm State:  0
Fri Nov 17 05:58:32 PST 2017 ON: 20.00 +20.0 20.06 -15.6 27.3 16.8 31.4 8 9 Alarm State:  0
Fri Nov 17 05:57:31 PST 2017 ON: 19.99 +20.0 20.04 -15.3 27.7 16.5 31.5 7 10 Alarm State:  0
Fri Nov 17 05:56:29 PST 2017 ON: 19.99 +20.0 20.06 -15.6 27.3 16.8 31.4 8 9 Alarm State:  0
Fri Nov 17 05:55:28 PST 2017 ON: 20.00 +20.0 20.07 -15.8 27.0 16.9 31.3 7 8 Alarm State:  0
Fri Nov 17 05:54:26 PST 2017 ON: 20.00 +20.0 20.05 -15.7 27.1 16.9 31.3 8 10 Alarm State:  0
Fri Nov 17 05:53:25 PST 2017 ON: 19.98 +20.0 20.04 -15.4 27.6 16.5 31.4 7 10 Alarm State:  0
Fri Nov 17 05:52:23 PST 2017 ON: 19.99 +20.0 20.04 -15.3 27.7 16.5 31.6 7 9 Alarm State:  0
Fri Nov 17 05:51:22 PST 2017 ON: 20.01 +20.0 20.06 -16.0 26.6 17.2 31.0 8 9 Alarm State:  0
Fri Nov 17 05:50:20 PST 2017 ON: 19.99 +20.0 20.05 -15.8 27.0 16.9 30.9 8 10 Alarm State:  0
Fri Nov 17 05:49:19 PST 2017 ON: 19.99 +20.0 20.03 -15.2 27.9 16.3 32.1 7 10 Alarm State:  0
Fri Nov 17 05:48:17 PST 2017 ON: 19.99 +20.0 20.04 -15.1 28.0 16.3 31.6 7 10 Alarm State:  0
Fri Nov 17 05:47:16 PST 2017 ON: 20.00 +20.0 20.05 -15.3 27.7 16.5 31.5 8 10 Alarm State:  0
Fri Nov 17 05:46:15 PST 2017 ON: 19.99 +20.0 20.04 -15.1 28.0 16.3 31.6 7 11 Alarm State:  0
Fri Nov 17 05:45:13 PST 2017 ON: 19.99 +20.0 20.04 -15.3 27.8 16.4 31.5 8 10 Alarm State:  0
Fri Nov 17 05:44:12 PST 2017 ON: 20.00 +20.0 20.05 -15.5 27.5 16.6 31.4 7 9 Alarm State:  0
Fri Nov 17 05:43:10 PST 2017 ON: 20.00 +20.0 20.07 -15.7 27.2 16.8 31.4 7 9 Alarm State:  0
Fri Nov 17 05:42:08 PST 2017 ON: 19.99 +20.0 20.05 -15.4 27.6 16.5 31.4 8 10 Alarm State:  0
Fri Nov 17 05:41:07 PST 2017 ON: 20.00 +20.0 20.05 -15.4 27.6 16.5 31.5 7 9 Alarm State:  0
Fri Nov 17 05:40:05 PST 2017 ON: 20.00 +20.0 20.06 -15.3 27.8 16.4 31.5 8 9 Alarm State:  0
Fri Nov 17 05:39:04 PST 2017 ON: 20.00 +20.0 20.06 -15.3 27.7 16.5 31.5 7 9 Alarm State:  0
Fri Nov 17 05:38:02 PST 2017 ON: 19.99 +20.0 20.05 -15.4 27.6 16.5 31.5 7 10 Alarm State:  0
Fri Nov 17 05:37:01 PST 2017 ON: 19.99 +20.0 20.04 -15.5 27.5 16.6 31.5 7 9 Alarm State:  0
Fri Nov 17 05:35:59 PST 2017 ON: 20.00 +20.0 20.06 -15.9 26.9 17.0 31.2 7 9 Alarm State:  0
Fri Nov 17 05:34:58 PST 2017 ON: 19.99 +20.0 20.04 -15.2 27.9 16.3 31.6 7 10 Alarm State:  0
Fri Nov 17 05:33:56 PST 2017 ON: 19.99 +20.0 20.04 -15.3 27.8 16.4 31.5 7 10 Alarm State:  0
Fri Nov 17 05:32:55 PST 2017 ON: 19.99 +20.0 20.04 -15.7 27.2 16.8 31.4 7 9 Alarm State:  0
Fri Nov 17 05:31:53 PST 2017 ON: 20.00 +20.0 20.06 -15.7 27.2 16.8 31.4 8 9 Alarm State:  0
Fri Nov 17 05:30:52 PST 2017 ON: 19.99 +20.0 20.06 -15.3 27.8 16.4 31.5 7 9 Alarm State:  0
Fri Nov 17 05:29:50 PST 2017 ON: 19.99 +20.0 20.07 -15.6 27.3 16.8 31.4 7 8 Alarm State:  0
Fri Nov 17 05:28:49 PST 2017 ON: 20.00 +20.0 20.05 -15.5 27.5 16.6 31.4 8 9 Alarm State:  0
Fri Nov 17 05:27:48 PST 2017 ON: 20.00 +20.0 20.06 -15.5 27.5 16.6 31.4 7 9 Alarm State:  0
Fri Nov 17 05:26:46 PST 2017 ON: 19.99 +20.0 20.05 -15.3 27.7 16.5 31.4 7 10 Alarm State:  0
Fri Nov 17 05:25:45 PST 2017 ON: 19.99 +20.0 20.03 -15.1 28.1 16.2 31.6 7 10 Alarm State:  0
Fri Nov 17 05:24:43 PST 2017 ON: 20.01 +20.0 20.06 -15.8 27.0 16.9 31.3 7 9 Alarm State:  0
Fri Nov 17 05:23:42 PST 2017 ON: 19.99 +20.0 20.06 -15.3 27.7 16.5 31.5 8 10 Alarm State:  0
Fri Nov 17 05:22:40 PST 2017 ON: 19.99 +20.0 20.04 -15.3 27.7 16.5 31.5 7 10 Alarm State:  0
Fri Nov 17 05:21:39 PST 2017 ON: 20.00 +20.0 20.04 -15.5 27.5 16.6 31.4 7 10 Alarm State:  0
Fri Nov 17 05:20:37 PST 2017 ON: 20.00 +20.0 20.05 -15.7 27.2 16.8 31.3 8 9 Alarm State:  0
Fri Nov 17 05:19:36 PST 2017 ON: 19.99 +20.0 20.04 -15.5 27.5 16.6 31.4 7 10 Alarm State:  0
Fri Nov 17 05:18:34 PST 2017 ON: 20.00 +20.0 20.05 -15.4 27.6 16.5 31.5 7 9 Alarm State:  0
Fri Nov 17 05:17:33 PST 2017 ON: 20.00 +20.0 20.06 -15.2 27.9 16.3 31.6 7 10 Alarm State:  0
Fri Nov 17 05:16:31 PST 2017 ON: 19.99 +20.0 20.06 -15.5 27.4 16.7 31.4 7 9 Alarm State:  0
Fri Nov 17 05:15:30 PST 2017 ON: 19.99 +20.0 20.03 -15.6 27.3 16.8 31.4 8 10 Alarm State:  0
Fri Nov 17 05:14:28 PST 2017 ON: 20.00 +20.0 20.06 -15.7 27.2 16.8 31.3 7 9 Alarm State:  0
Fri Nov 17 05:13:27 PST 2017 ON: 19.99 +20.0 20.05 -15.5 27.5 16.6 31.4 7 10 Alarm State:  0
Fri Nov 17 05:12:25 PST 2017 ON: 19.99 +20.0 20.06 -15.5 27.5 16.6 31.5 8 9 Alarm State:  0
Fri Nov 17 05:11:23 PST 2017 ON: 20.00 +20.0 20.05 -15.4 27.6 16.5 31.5 7 9 Alarm State:  0
Fri Nov 17 05:10:22 PST 2017 ON: 20.00 +20.0 20.05 -15.3 27.7 16.5 31.5 8 10 Alarm State:  0
Fri Nov 17 05:09:20 PST 2017 ON: 19.99 +20.0 20.04 -15.2 27.9 16.3 31.5 7 10 Alarm State:  0
Fri Nov 17 05:08:19 PST 2017 ON: 19.99 +20.0 20.04 -15.4 27.6 16.5 31.5 7 9 Alarm State:  0
Fri Nov 17 05:07:17 PST 2017 ON: 20.00 +20.0 20.06 -15.9 26.9 17.0 31.3 8 9 Alarm State:  0
Fri Nov 17 05:06:16 PST 2017 ON: 19.99 +20.0 20.05 -15.5 27.5 16.6 31.5 7 9 Alarm State:  0
Fri Nov 17 05:05:14 PST 2017 ON: 20.00 +20.0 20.05 -15.5 27.4 16.7 31.4 7 9 Alarm State:  0
Fri Nov 17 05:04:13 PST 2017 ON: 19.99 +20.0 20.07 -15.7 27.1 16.9 31.3 8 9 Alarm State:  0
Fri Nov 17 05:03:11 PST 2017 ON: 19.99 +20.0 20.03 -15.5 27.5 16.6 31.5 7 10 Alarm State:  0
Fri Nov 17 05:02:10 PST 2017 ON: 20.00 +20.0 20.05 -15.4 27.6 16.5 31.5 7 9 Alarm State:  0
Fri Nov 17 05:01:08 PST 2017 ON: 20.00 +20.0 20.06 -15.7 27.2 16.8 31.3 8 9 Alarm State:  0
Fri Nov 17 05:00:07 PST 2017 ON: 20.00 +20.0 20.06 -15.3 27.8 16.4 31.6 7 10 Alarm State:  0
Fri Nov 17 04:59:05 PST 2017 ON: 19.99 +20.0 20.05 -15.4 27.6 16.5 31.5 8 10 Alarm State:  0
Fri Nov 17 04:58:04 PST 2017 ON: 20.00 +20.0 20.05 -15.3 27.7 16.5 31.5 7 9 Alarm State:  0
Fri Nov 17 04:57:02 PST 2017 ON: 19.99 +20.0 20.05 -15.6 27.3 16.8 31.4 7 9 Alarm State:  0
Fri Nov 17 04:56:01 PST 2017 ON: 19.99 +20.0 20.05 -15.3 27.7 16.5 31.6 8 10 Alarm State:  0
Fri Nov 17 04:54:59 PST 2017 ON: 20.00 +20.0 20.04 -15.4 27.6 16.5 31.5 7 10 Alarm State:  0
Fri Nov 17 04:53:58 PST 2017 ON: 20.00 +20.0 20.06 -15.5 27.5 16.6 31.5 7 9 Alarm State:  0
Fri Nov 17 04:52:56 PST 2017 ON: 19.99 +20.0 20.05 -15.5 27.4 16.7 31.4 7 9 Alarm State:  0
Fri Nov 17 04:51:55 PST 2017 ON: 20.00 +20.0 20.05 -15.5 27.4 16.7 31.4 7 9 Alarm State:  0
Fri Nov 17 04:50:54 PST 2017 ON: 20.00 +20.0 20.05 -15.4 27.6 16.5 31.5 8 10 Alarm State:  0
Fri Nov 17 04:49:52 PST 2017 ON: 19.99 +20.0 20.04 -15.1 28.0 16.3 31.6 7 11 Alarm State:  0
Fri Nov 17 04:48:51 PST 2017 ON: 19.99 +20.0 20.04 -15.5 27.5 16.6 31.4 8 10 Alarm State:  0
Fri Nov 17 04:47:49 PST 2017 ON: 19.99 +20.0 20.05 -15.6 27.3 16.8 31.4 8 9 Alarm State:  0
Fri Nov 17 04:46:48 PST 2017 ON: 20.00 +20.0 20.05 -15.4 27.6 16.5 31.5 7 9 Alarm State:  0
Fri Nov 17 04:45:46 PST 2017 ON: 20.00 +20.0 20.06 -15.4 27.6 16.5 31.4 7 9 Alarm State:  0
Fri Nov 17 04:44:45 PST 2017 ON: 19.99 +20.0 20.05 -15.4 27.6 16.5 31.4 7 10 Alarm State:  0
Fri Nov 17 04:43:43 PST 2017 ON: 19.99 +20.0 20.05 -15.3 27.7 16.5 31.5 7 9 Alarm State:  0
Fri Nov 17 04:42:42 PST 2017 ON: 20.00 +20.0 20.06 -15.7 27.2 16.8 31.3 8 9 Alarm State:  0
Fri Nov 17 04:41:40 PST 2017 ON: 19.99 +20.0 20.04 -15.2 27.9 16.3 31.6 7 10 Alarm State:  0
Fri Nov 17 04:40:39 PST 2017 ON: 19.99 +20.0 20.05 -15.5 27.4 16.7 31.4 7 10 Alarm State:  0
Fri Nov 17 04:39:37 PST 2017 ON: 20.00 +20.0 20.05 -15.4 27.6 16.5 31.4 8 10 Alarm State:  0
Fri Nov 17 04:38:36 PST 2017 ON: 19.99 +20.0 20.05 -15.5 27.5 16.6 31.5 7 10 Alarm State:  0
Fri Nov 17 04:37:34 PST 2017 ON: 19.99 +20.0 20.04 -15.2 27.9 16.3 31.6 7 9 Alarm State:  0
Fri Nov 17 04:36:33 PST 2017 ON: 20.00 +20.0 20.04 -15.5 27.4 16.7 31.4 7 10 Alarm State:  0
Fri Nov 17 04:35:31 PST 2017 ON: 20.00 +20.0 20.06 -15.1 28.1 16.2 31.6 7 9 Alarm State:  0
Fri Nov 17 04:34:30 PST 2017 ON: 19.99 +20.0 20.05 -15.5 27.5 16.6 31.4 7 9 Alarm State:  0
Fri Nov 17 04:33:28 PST 2017 ON: 20.00 +20.0 20.05 -15.5 27.5 16.6 31.5 8 9 Alarm State:  0
Fri Nov 17 04:32:27 PST 2017 ON: 20.00 +20.0 20.04 -15.3 27.8 16.4 31.5 7 10 Alarm State:  0
Fri Nov 17 04:31:25 PST 2017 ON: 19.99 +20.0 20.05 -15.6 27.3 16.8 31.4 8 10 Alarm State:  0
Fri Nov 17 04:30:24 PST 2017 ON: 19.99 +20.0 20.04 -15.3 27.7 16.5 31.5 7 9 Alarm State:  0
Fri Nov 17 04:29:22 PST 2017 ON: 20.00 +20.0 20.06 -15.7 27.2 16.8 31.3 8 9 Alarm State:  0
Fri Nov 17 04:28:21 PST 2017 ON: 19.99 +20.0 20.05 -15.4 27.6 16.5 31.5 7 10 Alarm State:  0
Fri Nov 17 04:27:19 PST 2017 ON: 19.99 +20.0 20.06 -15.4 27.6 16.5 31.5 7 9 Alarm State:  0
Fri Nov 17 04:26:18 PST 2017 ON: 19.99 +20.0 20.04 -15.5 27.4 16.7 31.5 8 10 Alarm State:  0
Fri Nov 17 04:25:16 PST 2017 ON: 20.00 +20.0 20.06 -15.8 27.0 16.9 31.2 8 8 Alarm State:  0
Fri Nov 17 04:24:15 PST 2017 ON: 19.99 +20.0 20.05 -15.3 27.8 16.4 31.5 7 10 Alarm State:  0
Fri Nov 17 04:23:13 PST 2017 ON: 19.99 +20.0 20.05 -15.3 27.8 16.4 31.5 7 10 Alarm State:  0
Fri Nov 17 04:22:12 PST 2017 ON: 19.99 +20.0 20.05 -15.6 27.3 16.8 31.4 7 9 Alarm State:  0
Fri Nov 17 04:21:10 PST 2017 ON: 20.00 +20.0 20.04 -15.3 27.7 16.5 31.5 7 9 Alarm State:  0
Fri Nov 17 04:20:09 PST 2017 ON: 20.00 +20.0 20.05 -15.6 27.3 16.8 31.3 7 9 Alarm State:  0
Fri Nov 17 04:19:07 PST 2017 ON: 20.00 +20.0 20.05 -15.3 27.8 16.4 31.5 7 10 Alarm State:  0
Fri Nov 17 04:18:06 PST 2017 ON: 19.99 +20.0 20.06 -15.5 27.5 16.6 31.4 8 9 Alarm State:  0
Fri Nov 17 04:17:04 PST 2017 ON: 20.00 +20.0 20.05 -15.5 27.4 16.7 31.4 8 9 Alarm State:  0
Fri Nov 17 04:16:03 PST 2017 ON: 20.00 +20.0 20.05 -15.3 27.7 16.5 31.4 7 10 Alarm State:  0
Fri Nov 17 04:15:01 PST 2017 ON: 20.00 +20.0 20.06 -15.1 28.1 16.2 31.7 8 10 Alarm State:  0
Fri Nov 17 04:14:00 PST 2017 ON: 19.99 +20.0 20.05 -15.4 27.6 16.5 31.5 7 10 Alarm State:  0
Fri Nov 17 04:12:58 PST 2017 ON: 20.00 +20.0 20.04 -15.5 27.5 16.6 31.4 7 10 Alarm State:  0
Fri Nov 17 04:11:57 PST 2017 ON: 20.00 +20.0 20.05 -15.2 27.9 16.3 31.5 7 10 Alarm State:  0
Fri Nov 17 04:10:55 PST 2017 ON: 19.99 +20.0 20.05 -15.6 27.3 16.8 31.4 7 10 Alarm State:  0
Fri Nov 17 04:09:54 PST 2017 ON: 20.00 +20.0 20.04 -15.6 27.3 16.8 31.4 8 9 Alarm State:  0
Fri Nov 17 04:08:52 PST 2017 ON: 20.00 +20.0 20.04 -15.3 27.8 16.4 31.5 7 10 Alarm State:  0
Fri Nov 17 04:07:51 PST 2017 ON: 19.99 +20.0 20.05 -15.1 28.1 16.2 31.6 7 10 Alarm State:  0
Fri Nov 17 04:06:49 PST 2017 ON: 19.99 +20.0 20.05 -15.4 27.6 16.5 31.5 8 9 Alarm State:  0
Fri Nov 17 04:05:48 PST 2017 ON: 19.99 +20.0 20.05 -15.7 27.2 16.8 31.4 7 9 Alarm State:  0
Fri Nov 17 04:04:46 PST 2017 ON: 20.00 +20.0 20.05 -15.6 27.3 16.8 31.4 7 9 Alarm State:  0
Fri Nov 17 04:03:45 PST 2017 ON: 20.00 +20.0 20.05 -15.3 27.7 16.5 31.5 7 10 Alarm State:  0
Fri Nov 17 04:02:43 PST 2017 ON: 19.99 +20.0 20.06 -15.5 27.4 16.7 31.4 7 9 Alarm State:  0
Fri Nov 17 04:01:42 PST 2017 ON: 19.99 +20.0 20.05 -15.5 27.5 16.6 31.4 7 9 Alarm State:  0
Fri Nov 17 04:00:40 PST 2017 ON: 20.00 +20.0 20.05 -15.4 27.6 16.5 31.4 7 9 Alarm State:  0
Fri Nov 17 03:59:39 PST 2017 ON: 20.00 +20.0 20.05 -15.5 27.4 16.7 31.4 7 10 Alarm State:  0
Fri Nov 17 03:58:37 PST 2017 ON: 19.99 +20.0 20.07 -15.4 27.6 16.5 31.5 8 9 Alarm State:  0
Fri Nov 17 03:57:36 PST 2017 ON: 19.99 +20.0 20.04 -15.3 27.8 16.4 31.5 7 10 Alarm State:  0
Fri Nov 17 03:56:34 PST 2017 ON: 20.00 +20.0 20.05 -15.5 27.4 16.7 31.4 7 9 Alarm State:  0
Fri Nov 17 03:55:33 PST 2017 ON: 20.00 +20.0 20.08 -15.7 27.1 16.9 31.4 8 8 Alarm State:  0
Fri Nov 17 03:54:31 PST 2017 ON: 19.99 +20.0 20.05 -15.4 27.6 16.5 31.4 7 9 Alarm State:  0
Fri Nov 17 03:53:30 PST 2017 ON: 20.00 +20.0 20.05 -15.5 27.4 16.7 31.4 7 9 Alarm State:  0
Fri Nov 17 03:52:28 PST 2017 ON: 20.00 +20.0 20.04 -15.3 27.7 16.5 31.4 7 10 Alarm State:  0
Fri Nov 17 03:51:27 PST 2017 ON: 19.99 +20.0 20.06 -15.6 27.3 16.8 31.5 7 9 Alarm State:  0
Fri Nov 17 03:50:25 PST 2017 ON: 19.99 +20.0 20.05 -15.6 27.3 16.8 31.4 8 9 Alarm State:  0
Fri Nov 17 03:49:24 PST 2017 ON: 20.00 +20.0 20.05 -15.6 27.3 16.8 31.4 8 9 Alarm State:  0
Fri Nov 17 03:48:22 PST 2017 ON: 20.00 +20.0 20.06 -15.4 27.6 16.5 31.4 7 9 Alarm State:  0
Fri Nov 17 03:47:21 PST 2017 ON: 19.99 +20.0 20.05 -15.3 27.7 16.5 31.5 8 10 Alarm State:  0
Fri Nov 17 03:46:19 PST 2017 ON: 20.00 +20.0 20.05 -15.3 27.7 16.5 31.5 7 9 Alarm State:  0
Fri Nov 17 03:45:18 PST 2017 ON: 19.99 +20.0 20.05 -15.5 27.5 16.6 31.4 7 10 Alarm State:  0
Fri Nov 17 03:44:17 PST 2017 ON: 19.99 +20.0 20.04 -15.3 27.7 16.5 31.5 7 10 Alarm State:  0
Fri Nov 17 03:43:15 PST 2017 ON: 19.99 +20.0 20.04 -15.4 27.6 16.5 31.4 7 9 Alarm State:  0
Fri Nov 17 03:42:14 PST 2017 ON: 20.00 +20.0 20.04 -15.3 27.7 16.5 31.5 8 10 Alarm State:  0
Fri Nov 17 03:41:12 PST 2017 ON: 20.00 +20.0 20.06 -15.4 27.6 16.5 31.5 7 10 Alarm State:  0
Fri Nov 17 03:40:11 PST 2017 ON: 19.99 +20.0 20.06 -15.4 27.6 16.5 31.5 8 9 Alarm State:  0
Fri Nov 17 03:39:09 PST 2017 ON: 19.99 +20.0 20.04 -15.2 27.9 16.3 31.6 7 10 Alarm State:  0
Fri Nov 17 03:38:08 PST 2017 ON: 19.99 +20.0 20.05 -15.7 27.2 16.8 31.3 7 10 Alarm State:  0
Fri Nov 17 03:37:06 PST 2017 ON: 19.99 +20.0 20.04 -15.1 28.0 16.3 31.5 7 9 Alarm State:  0
Fri Nov 17 03:36:05 PST 2017 ON: 20.01 +20.0 20.06 -15.5 27.4 16.7 31.4 8 9 Alarm State:  0
Fri Nov 17 03:35:03 PST 2017 ON: 20.00 +20.0 20.06 -15.6 27.3 16.8 31.3 7 9 Alarm State:  0
Fri Nov 17 03:34:02 PST 2017 ON: 19.99 +20.0 20.05 -15.1 28.0 16.3 31.6 7 10 Alarm State:  0
Fri Nov 17 03:33:00 PST 2017 ON: 19.98 +20.0 20.04 -15.3 27.8 16.4 31.5 7 10 Alarm State:  0
Fri Nov 17 03:31:59 PST 2017 ON: 20.00 +20.0 20.06 -15.5 27.4 16.7 31.4 7 9 Alarm State:  0
Fri Nov 17 03:30:57 PST 2017 ON: 20.00 +20.0 20.06 -15.3 27.7 16.5 31.5 7 9 Alarm State:  0
Fri Nov 17 03:29:56 PST 2017 ON: 20.00 +20.0 20.05 -15.5 27.5 16.6 31.5 7 9 Alarm State:  0
Fri Nov 17 03:28:54 PST 2017 ON: 20.00 +20.0 20.05 -15.2 27.9 16.3 31.5 7 10 Alarm State:  0
Fri Nov 17 03:27:53 PST 2017 ON: 20.00 +20.0 20.05 -15.3 27.7 16.5 31.4 7 10 Alarm State:  0
Fri Nov 17 03:26:51 PST 2017 ON: 19.99 +20.0 20.04 -15.2 27.9 16.3 31.6 7 10 Alarm State:  0
Fri Nov 17 03:25:50 PST 2017 ON: 20.00 +20.0 20.05 -15.7 27.2 16.8 31.4 8 9 Alarm State:  0
Fri Nov 17 03:24:48 PST 2017 ON: 20.00 +20.0 20.05 -15.4 27.6 16.5 31.5 7 10 Alarm State:  0
Fri Nov 17 03:23:47 PST 2017 ON: 20.00 +20.0 20.04 -15.3 27.7 16.5 31.4 7 10 Alarm State:  0
Fri Nov 17 03:22:45 PST 2017 ON: 20.00 +20.0 20.05 -15.6 27.3 16.8 31.3 8 9 Alarm State:  0
Fri Nov 17 03:21:44 PST 2017 ON: 20.00 +20.0 20.06 -15.5 27.5 16.6 31.5 7 9 Alarm State:  0
Fri Nov 17 03:20:42 PST 2017 ON: 19.99 +20.0 20.04 -15.5 27.5 16.6 31.5 7 10 Alarm State:  0
Fri Nov 17 03:19:41 PST 2017 ON: 20.00 +20.0 20.04 -15.6 27.3 16.8 31.4 7 9 Alarm State:  0
Fri Nov 17 03:18:39 PST 2017 ON: 20.01 +20.0 20.06 -15.8 27.0 16.9 31.2 7 9 Alarm State:  0
Fri Nov 17 03:17:38 PST 2017 ON: 19.99 +20.0 20.05 -15.3 27.7 16.5 31.5 7 10 Alarm State:  0
Fri Nov 17 03:16:36 PST 2017 ON: 19.99 +20.0 20.04 -15.5 27.4 16.7 31.4 7 10 Alarm State:  0
Fri Nov 17 03:15:35 PST 2017 ON: 20.01 +20.0 20.05 -15.5 27.4 16.7 31.3 7 10 Alarm State:  0
Fri Nov 17 03:14:33 PST 2017 ON: 19.99 +20.0 20.05 -15.5 27.5 16.6 31.4 8 10 Alarm State:  0
Fri Nov 17 03:13:32 PST 2017 ON: 19.99 +20.0 20.05 -15.7 27.2 16.8 31.3 7 9 Alarm State:  0
Fri Nov 17 03:12:30 PST 2017 ON: 19.99 +20.0 20.03 -15.5 27.5 16.6 31.4 7 9 Alarm State:  0
Fri Nov 17 03:11:29 PST 2017 ON: 20.00 +20.0 20.05 -15.7 27.2 16.8 31.4 8 9 Alarm State:  0
Fri Nov 17 03:10:27 PST 2017 ON: 20.00 +20.0 20.06 -15.5 27.4 16.7 31.4 7 9 Alarm State:  0
Fri Nov 17 03:09:26 PST 2017 ON: 19.99 +20.0 20.06 -15.4 27.6 16.5 31.4 7 10 Alarm State:  0
Fri Nov 17 03:08:24 PST 2017 ON: 19.99 +20.0 20.04 -15.3 27.7 16.5 31.5 7 10 Alarm State:  0
Fri Nov 17 03:07:23 PST 2017 ON: 20.00 +20.0 20.05 -15.5 27.5 16.6 31.5 7 9 Alarm State:  0
Fri Nov 17 03:06:21 PST 2017 ON: 20.00 +20.0 20.08 -15.9 26.9 17.0 31.2 8 8 Alarm State:  0
Fri Nov 17 03:05:20 PST 2017 ON: 19.99 +20.0 20.05 -15.3 27.7 16.5 31.5 7 10 Alarm State:  0
Fri Nov 17 03:04:18 PST 2017 ON: 19.99 +20.0 20.05 -15.5 27.5 16.6 31.4 7 9 Alarm State:  0
Fri Nov 17 03:03:17 PST 2017 ON: 20.00 +20.0 20.05 -15.5 27.5 16.6 31.5 8 10 Alarm State:  0
Fri Nov 17 03:02:15 PST 2017 ON: 19.99 +20.0 20.05 -15.4 27.6 16.5 31.5 7 9 Alarm State:  0
Fri Nov 17 03:01:14 PST 2017 ON: 19.99 +20.0 20.04 -15.3 27.7 16.5 31.5 7 10 Alarm State:  0
Fri Nov 17 03:00:12 PST 2017 ON: 20.00 +20.0 20.06 -15.5 27.5 16.6 31.4 7 9 Alarm State:  0
Fri Nov 17 02:59:11 PST 2017 ON: 19.99 +20.0 20.06 -15.5 27.4 16.7 31.5 7 9 Alarm State:  0
Fri Nov 17 02:58:09 PST 2017 ON: 19.99 +20.0 20.04 -15.5 27.5 16.6 31.5 8 9 Alarm State:  0
Fri Nov 17 02:57:08 PST 2017 ON: 19.99 +20.0 20.05 -15.7 27.2 16.8 31.3 7 9 Alarm State:  0
Fri Nov 17 02:56:06 PST 2017 ON: 20.00 +20.0 20.05 -15.3 27.7 16.5 31.5 7 10 Alarm State:  0
Fri Nov 17 02:55:05 PST 2017 ON: 19.99 +20.0 20.04 -15.5 27.5 16.6 31.4 8 10 Alarm State:  0
Fri Nov 17 02:54:03 PST 2017 ON: 19.99 +20.0 20.05 -15.4 27.6 16.5 31.4 7 9 Alarm State:  0
Fri Nov 17 02:53:02 PST 2017 ON: 19.99 +20.0 20.05 -15.5 27.5 16.6 31.5 7 10 Alarm State:  0
Fri Nov 17 02:52:00 PST 2017 ON: 19.99 +20.0 20.06 -15.8 27.0 16.9 31.3 7 9 Alarm State:  0
Fri Nov 17 02:50:59 PST 2017 ON: 19.99 +20.0 20.05 -15.5 27.5 16.6 31.4 7 9 Alarm State:  0
Fri Nov 17 02:49:57 PST 2017 ON: 20.00 +20.0 20.06 -15.3 27.7 16.5 31.5 8 9 Alarm State:  0
Fri Nov 17 02:48:56 PST 2017 ON: 20.00 +20.0 20.05 -15.4 27.6 16.5 31.5 7 9 Alarm State:  0
Fri Nov 17 02:47:54 PST 2017 ON: 19.99 +20.0 20.06 -15.5 27.5 16.6 31.5 7 9 Alarm State:  0
Fri Nov 17 02:46:53 PST 2017 ON: 20.00 +20.0 20.06 -15.7 27.2 16.8 31.3 8 9 Alarm State:  0
Fri Nov 17 02:45:52 PST 2017 ON: 20.00 +20.0 20.06 -15.5 27.5 16.6 31.4 7 9 Alarm State:  0
Fri Nov 17 02:44:50 PST 2017 ON: 19.99 +20.0 20.04 -15.5 27.5 16.6 31.4 8 10 Alarm State:  0
Fri Nov 17 02:43:49 PST 2017 ON: 20.00 +20.0 20.06 -15.4 27.6 16.5 31.5 7 9 Alarm State:  0
Fri Nov 17 02:42:47 PST 2017 ON: 19.99 +20.0 20.06 -15.4 27.6 16.5 31.5 7 9 Alarm State:  0
Fri Nov 17 02:41:46 PST 2017 ON: 20.00 +20.0 20.05 -15.5 27.5 16.6 31.4 8 9 Alarm State:  0
Fri Nov 17 02:40:44 PST 2017 ON: 19.99 +20.0 20.05 -15.3 27.7 16.5 31.4 8 10 Alarm State:  0
Fri Nov 17 02:39:43 PST 2017 ON: 20.00 +20.0 20.06 -15.4 27.6 16.5 31.5 7 9 Alarm State:  0
Fri Nov 17 02:38:41 PST 2017 ON: 19.99 +20.0 20.05 -15.5 27.4 16.7 31.4 8 9 Alarm State:  0
Fri Nov 17 02:37:40 PST 2017 ON: 20.00 +20.0 20.05 -15.3 27.7 16.5 31.5 7 9 Alarm State:  0
Fri Nov 17 02:36:38 PST 2017 ON: 19.99 +20.0 20.05 -15.5 27.5 16.6 31.4 7 10 Alarm State:  0
Fri Nov 17 02:35:37 PST 2017 ON: 19.99 +20.0 20.04 -15.3 27.7 16.5 31.5 7 10 Alarm State:  0
Fri Nov 17 02:34:35 PST 2017 ON: 19.99 +20.0 20.05 -15.5 27.4 16.7 31.4 7 9 Alarm State:  0
Fri Nov 17 02:33:34 PST 2017 ON: 20.00 +20.0 20.05 -15.4 27.6 16.5 31.5 8 10 Alarm State:  0
Fri Nov 17 02:32:32 PST 2017 ON: 19.99 +20.0 20.05 -15.2 27.9 16.3 31.5 7 9 Alarm State:  0
Fri Nov 17 02:31:31 PST 2017 ON: 19.99 +20.0 20.05 -15.7 27.2 16.8 31.3 7 9 Alarm State:  0
Fri Nov 17 02:30:29 PST 2017 ON: 19.99 +20.0 20.04 -15.4 27.6 16.5 31.5 8 10 Alarm State:  0
Fri Nov 17 02:29:28 PST 2017 ON: 19.99 +20.0 20.04 -15.3 27.8 16.4 31.6 7 9 Alarm State:  0
Fri Nov 17 02:28:26 PST 2017 ON: 20.00 +20.0 20.05 -15.7 27.2 16.8 31.3 7 9 Alarm State:  0
Fri Nov 17 02:27:25 PST 2017 ON: 20.00 +20.0 20.04 -15.1 28.0 16.3 31.5 7 10 Alarm State:  0
Fri Nov 17 02:26:23 PST 2017 ON: 19.99 +20.0 20.04 -15.4 27.6 16.5 31.5 7 10 Alarm State:  0
Fri Nov 17 02:25:22 PST 2017 ON: 19.99 +20.0 20.05 -15.5 27.5 16.6 31.5 7 9 Alarm State:  0
Fri Nov 17 02:24:20 PST 2017 ON: 20.00 +20.0 20.05 -15.4 27.6 16.5 31.4 7 9 Alarm State:  0
Fri Nov 17 02:23:19 PST 2017 ON: 19.99 +20.0 20.05 -15.2 27.9 16.3 31.5 7 10 Alarm State:  0
Fri Nov 17 02:22:17 PST 2017 ON: 19.99 +20.0 20.05 -15.3 27.7 16.5 31.5 8 9 Alarm State:  0
Fri Nov 17 02:21:16 PST 2017 ON: 20.00 +20.0 20.06 -15.7 27.2 16.8 31.3 8 9 Alarm State:  0
Fri Nov 17 02:20:14 PST 2017 ON: 19.99 +20.0 20.06 -15.5 27.4 16.7 31.5 7 9 Alarm State:  0
Fri Nov 17 02:19:13 PST 2017 ON: 20.00 +20.0 20.07 -15.7 27.2 16.8 31.4 8 9 Alarm State:  0
Fri Nov 17 02:18:11 PST 2017 ON: 19.99 +20.0 20.05 -15.3 27.7 16.5 31.5 7 10 Alarm State:  0
Fri Nov 17 02:17:10 PST 2017 ON: 19.99 +20.0 20.04 -15.3 27.8 16.4 31.5 7 9 Alarm State:  0
Fri Nov 17 02:16:08 PST 2017 ON: 20.00 +20.0 20.05 -15.5 27.4 16.7 31.4 7 9 Alarm State:  0
Fri Nov 17 02:15:07 PST 2017 ON: 19.99 +20.0 20.04 -15.3 27.8 16.4 31.5 7 10 Alarm State:  0
Fri Nov 17 02:14:05 PST 2017 ON: 19.99 +20.0 20.05 -15.6 27.3 16.8 31.4 8 9 Alarm State:  0
Fri Nov 17 02:13:04 PST 2017 ON: 19.99 +20.0 20.04 -15.6 27.3 16.8 31.4 7 9 Alarm State:  0
Fri Nov 17 02:12:02 PST 2017 ON: 20.00 +20.0 20.04 -15.2 27.9 16.3 31.6 7 10 Alarm State:  0
Fri Nov 17 02:11:01 PST 2017 ON: 19.99 +20.0 20.05 -15.7 27.2 16.8 31.3 8 10 Alarm State:  0
Fri Nov 17 02:09:59 PST 2017 ON: 19.99 +20.0 20.05 -15.3 27.7 16.5 31.5 7 9 Alarm State:  0
Fri Nov 17 02:08:58 PST 2017 ON: 20.00 +20.0 20.04 -15.5 27.5 16.6 31.5 7 9 Alarm State:  0
Fri Nov 17 02:07:56 PST 2017 ON: 20.00 +20.0 20.06 -15.6 27.3 16.8 31.4 7 9 Alarm State:  0
Fri Nov 17 02:06:55 PST 2017 ON: 20.00 +20.0 20.07 -15.5 27.4 16.7 31.4 7 9 Alarm State:  0
Fri Nov 17 02:05:53 PST 2017 ON: 19.99 +20.0 20.06 -15.6 27.3 16.8 31.4 8 9 Alarm State:  0
Fri Nov 17 02:04:52 PST 2017 ON: 20.00 +20.0 20.05 -15.5 27.5 16.6 31.5 7 9 Alarm State:  0
Fri Nov 17 02:03:50 PST 2017 ON: 20.00 +20.0 20.06 -15.3 27.7 16.5 31.5 7 9 Alarm State:  0
Fri Nov 17 02:02:49 PST 2017 ON: 19.99 +20.0 20.06 -15.7 27.1 16.9 31.3 8 9 Alarm State:  0
Fri Nov 17 02:01:47 PST 2017 ON: 20.00 +20.0 20.05 -15.6 27.3 16.8 31.4 7 9 Alarm State:  0
Fri Nov 17 02:00:46 PST 2017 ON: 19.99 +20.0 20.05 -15.2 27.9 16.3 31.6 7 10 Alarm State:  0
Fri Nov 17 01:59:44 PST 2017 ON: 19.99 +20.0 20.03 -15.3 27.7 16.5 31.5 7 11 Alarm State:  0
Fri Nov 17 01:58:43 PST 2017 ON: 19.99 +20.0 20.04 -15.3 27.8 16.4 31.5 7 10 Alarm State:  0
Fri Nov 17 01:57:41 PST 2017 ON: 20.00 +20.0 20.06 -15.8 27.0 16.9 31.3 8 9 Alarm State:  0
Fri Nov 17 01:56:40 PST 2017 ON: 19.99 +20.0 20.05 -15.5 27.4 16.7 31.4 7 10 Alarm State:  0
Fri Nov 17 01:55:38 PST 2017 ON: 20.00 +20.0 20.06 -15.5 27.4 16.7 31.4 8 9 Alarm State:  0
Fri Nov 17 01:54:37 PST 2017 ON: 19.99 +20.0 20.04 -15.4 27.6 16.5 31.4 7 10 Alarm State:  0
Fri Nov 17 01:53:35 PST 2017 ON: 20.00 +20.0 20.05 -15.5 27.5 16.6 31.4 7 9 Alarm State:  0
Fri Nov 17 01:52:34 PST 2017 ON: 19.99 +20.0 20.06 -15.3 27.7 16.5 31.5 7 10 Alarm State:  0
Fri Nov 17 01:51:32 PST 2017 ON: 19.99 +20.0 20.05 -15.3 27.7 16.5 31.5 7 9 Alarm State:  0
Fri Nov 17 01:50:31 PST 2017 ON: 20.00 +20.0 20.05 -15.4 27.6 16.5 31.5 7 9 Alarm State:  0
Fri Nov 17 01:49:29 PST 2017 ON: 20.00 +20.0 20.06 -15.9 26.9 17.0 31.2 8 9 Alarm State:  0
Fri Nov 17 01:48:28 PST 2017 ON: 19.99 +20.0 20.05 -15.4 27.6 16.5 31.4 8 9 Alarm State:  0
Fri Nov 17 01:47:26 PST 2017 ON: 20.00 +20.0 20.05 -15.3 27.7 16.5 31.5 7 10 Alarm State:  0
Fri Nov 17 01:46:25 PST 2017 ON: 20.00 +20.0 20.06 -15.6 27.3 16.8 31.4 8 9 Alarm State:  0
Fri Nov 17 01:45:23 PST 2017 ON: 19.99 +20.0 20.05 -15.7 27.2 16.8 31.3 7 9 Alarm State:  0
Fri Nov 17 01:44:22 PST 2017 ON: 20.00 +20.0 20.04 -15.4 27.6 16.5 31.5 7 9 Alarm State:  0
Fri Nov 17 01:43:21 PST 2017 ON: 20.00 +20.0 20.04 -15.3 27.7 16.5 31.5 7 10 Alarm State:  0
Fri Nov 17 01:42:19 PST 2017 ON: 20.00 +20.0 20.06 -15.7 27.1 16.9 31.3 7 9 Alarm State:  0
Fri Nov 17 01:41:18 PST 2017 ON: 20.00 +20.0 20.04 -15.2 27.9 16.3 31.6 7 9 Alarm State:  0
Fri Nov 17 01:40:16 PST 2017 ON: 20.00 +20.0 20.06 -15.7 27.2 16.8 31.3 7 9 Alarm State:  0
Fri Nov 17 01:39:15 PST 2017 ON: 19.99 +20.0 20.05 -15.3 27.7 16.5 31.5 7 10 Alarm State:  0
Fri Nov 17 01:38:03 PST 2017  Alarm State: 0
Fri Nov 17 01:38:03 PST 2017 Chiller did not report ON, got this reading: 
Fri Nov 17 01:37:02 PST 2017 ON: 20.00 +20.0 20.06 -15.8 27.0 16.9 31.3 8 9 Alarm State:  0
Fri Nov 17 01:36:00 PST 2017 ON: 19.99 +20.0 20.03 -15.1 28.0 16.3 31.5 7 10 Alarm State:  0
Fri Nov 17 01:34:59 PST 2017 ON: 20.00 +20.0 20.04 -15.5 27.5 16.6 31.4 7 10 Alarm State:  0
Fri Nov 17 01:33:57 PST 2017 ON: 20.01 +20.0 20.06 -15.4 27.6 16.5 31.5 8 9 Alarm State:  0
Fri Nov 17 01:32:56 PST 2017 ON: 19.99 +20.0 20.05 -15.3 27.8 16.4 31.5 7 10 Alarm State:  0
Fri Nov 17 01:31:54 PST 2017 ON: 19.99 +20.0 20.04 -15.2 27.9 16.3 31.6 7 10 Alarm State:  0
Fri Nov 17 01:30:53 PST 2017 ON: 20.00 +20.0 20.04 -15.7 27.2 16.8 31.3 8 9 Alarm State:  0
Fri Nov 17 01:29:51 PST 2017 ON: 20.00 +20.0 20.06 -15.4 27.6 16.5 31.5 7 9 Alarm State:  0
Fri Nov 17 01:28:50 PST 2017 ON: 19.99 +20.0 20.05 -15.3 27.8 16.4 31.5 7 10 Alarm State:  0
Fri Nov 17 01:27:48 PST 2017 ON: 20.00 +20.0 20.04 -15.3 27.8 16.4 31.5 7 10 Alarm State:  0
Fri Nov 17 01:26:47 PST 2017 ON: 20.00 +20.0 20.06 -15.4 27.6 16.5 31.4 7 9 Alarm State:  0
Fri Nov 17 01:25:45 PST 2017 ON: 19.99 +20.0 20.06 -15.5 27.5 16.6 31.4 8 9 Alarm State:  0
Fri Nov 17 01:24:44 PST 2017 ON: 19.99 +20.0 20.04 -15.4 27.6 16.5 31.4 7 10 Alarm State:  0
Fri Nov 17 01:23:42 PST 2017 ON: 20.00 +20.0 20.05 -15.6 27.3 16.8 31.4 7 9 Alarm State:  0
Fri Nov 17 01:22:41 PST 2017 ON: 20.00 +20.0 20.05 -15.3 27.7 16.5 31.5 8 10 Alarm State:  0
Fri Nov 17 01:21:39 PST 2017 ON: 19.98 +20.0 20.04 -15.2 27.9 16.3 31.6 7 10 Alarm State:  0
Fri Nov 17 01:20:38 PST 2017 ON: 19.99 +20.0 20.04 -15.5 27.5 16.6 31.4 8 9 Alarm State:  0
Fri Nov 17 01:19:36 PST 2017 ON: 20.00 +20.0 20.06 -15.6 27.3 16.8 31.4 7 9 Alarm State:  0
Fri Nov 17 01:18:35 PST 2017 ON: 20.00 +20.0 20.07 -15.5 27.4 16.7 31.4 7 9 Alarm State:  0
Fri Nov 17 01:17:33 PST 2017 ON: 19.99 +20.0 20.05 -15.4 27.6 16.5 31.5 8 10 Alarm State:  0
Fri Nov 17 01:16:32 PST 2017 ON: 20.00 +20.0 20.05 -15.3 27.8 16.4 31.4 7 9 Alarm State:  0
Fri Nov 17 01:15:30 PST 2017 ON: 20.00 +20.0 20.04 -15.3 27.7 16.5 31.5 8 10 Alarm State:  0
Fri Nov 17 01:14:29 PST 2017 ON: 19.99 +20.0 20.07 -15.7 27.1 16.9 31.2 8 9 Alarm State:  0
Fri Nov 17 01:13:27 PST 2017 ON: 19.99 +20.0 20.04 -15.2 27.9 16.3 31.5 7 10 Alarm State:  0
Fri Nov 17 01:12:26 PST 2017 ON: 19.99 +20.0 20.06 -15.7 27.1 16.9 31.3 8 9 Alarm State:  0
Fri Nov 17 01:11:24 PST 2017 ON: 19.99 +20.0 20.04 -15.3 27.8 16.4 31.5 7 10 Alarm State:  0
Fri Nov 17 01:10:23 PST 2017 ON: 20.00 +20.0 20.05 -15.7 27.2 16.8 31.3 7 9 Alarm State:  0
Fri Nov 17 01:09:21 PST 2017 ON: 20.00 +20.0 20.07 -15.6 27.3 16.8 31.4 8 9 Alarm State:  0
Fri Nov 17 01:08:20 PST 2017 ON: 20.00 +20.0 20.05 -15.5 27.5 16.6 31.4 7 10 Alarm State:  0
Fri Nov 17 01:07:18 PST 2017 ON: 19.99 +20.0 20.06 -15.7 27.2 16.8 31.4 7 9 Alarm State:  0
Fri Nov 17 01:06:17 PST 2017 ON: 20.00 +20.0 20.05 -15.5 27.5 16.6 31.5 8 9 Alarm State:  0
Fri Nov 17 01:05:15 PST 2017 ON: 20.00 +20.0 20.07 -15.6 27.3 16.8 31.4 7 9 Alarm State:  0
Fri Nov 17 01:04:14 PST 2017 ON: 19.99 +20.0 20.05 -15.5 27.5 16.6 31.5 8 10 Alarm State:  0
Fri Nov 17 01:03:12 PST 2017 ON: 19.99 +20.0 20.04 -15.2 27.9 16.3 31.5 7 9 Alarm State:  0
Fri Nov 17 01:02:11 PST 2017 ON: 20.00 +20.0 20.06 -15.5 27.5 16.6 31.5 7 9 Alarm State:  0
Fri Nov 17 01:01:09 PST 2017 ON: 20.00 +20.0 20.07 -15.4 27.6 16.5 31.4 8 9 Alarm State:  0
Fri Nov 17 01:00:08 PST 2017 ON: 19.99 +20.0 20.04 -15.0 28.2 16.1 31.6 7 10 Alarm State:  0
Fri Nov 17 00:59:06 PST 2017 ON: 19.99 +20.0 20.05 -15.2 27.9 16.3 31.5 7 9 Alarm State:  0
Fri Nov 17 00:58:05 PST 2017 ON: 19.99 +20.0 20.04 -15.3 27.7 16.5 31.5 8 10 Alarm State:  0
Fri Nov 17 00:57:03 PST 2017 ON: 19.99 +20.0 20.05 -15.7 27.2 16.8 31.4 7 10 Alarm State:  0
Fri Nov 17 00:56:02 PST 2017 ON: 19.99 +20.0 20.04 -15.4 27.6 16.5 31.5 8 9 Alarm State:  0
Fri Nov 17 00:55:01 PST 2017 ON: 20.00 +20.0 20.05 -15.7 27.1 16.9 31.3 8 9 Alarm State:  0
Fri Nov 17 00:53:59 PST 2017 ON: 20.00 +20.0 20.06 -15.3 27.7 16.5 31.5 7 9 Alarm State:  0
Fri Nov 17 00:52:58 PST 2017 ON: 19.99 +20.0 20.05 -15.5 27.4 16.7 31.4 8 9 Alarm State:  0
Fri Nov 17 00:51:56 PST 2017 ON: 19.99 +20.0 20.05 -15.4 27.6 16.5 31.4 7 10 Alarm State:  0
Fri Nov 17 00:50:55 PST 2017 ON: 19.99 +20.0 20.05 -15.4 27.6 16.5 31.4 7 10 Alarm State:  0
Fri Nov 17 00:49:53 PST 2017 ON: 20.00 +20.0 20.05 -15.3 27.7 16.5 31.5 7 9 Alarm State:  0
Fri Nov 17 00:48:52 PST 2017 ON: 20.00 +20.0 20.05 -15.5 27.4 16.7 31.4 8 10 Alarm State:  0
Fri Nov 17 00:47:50 PST 2017 ON: 19.99 +20.0 20.04 -15.3 27.8 16.4 31.5 7 10 Alarm State:  0
Fri Nov 17 00:46:49 PST 2017 ON: 19.99 +20.0 20.07 -15.8 27.0 16.9 31.4 8 8 Alarm State:  0
Fri Nov 17 00:45:47 PST 2017 ON: 20.00 +20.0 20.06 -15.6 27.3 16.8 31.4 7 9 Alarm State:  0
Fri Nov 17 00:44:46 PST 2017 ON: 19.99 +20.0 20.05 -15.5 27.5 16.6 31.4 7 10 Alarm State:  0
Fri Nov 17 00:43:44 PST 2017 ON: 19.99 +20.0 20.04 -15.1 28.0 16.3 31.6 7 10 Alarm State:  0
Fri Nov 17 00:42:43 PST 2017 ON: 20.00 +20.0 20.05 -15.4 27.6 16.5 31.4 7 9 Alarm State:  0
Fri Nov 17 00:41:41 PST 2017 ON: 19.99 +20.0 20.05 -15.2 27.9 16.3 31.5 7 10 Alarm State:  0
Fri Nov 17 00:40:40 PST 2017 ON: 20.00 +20.0 20.05 -15.4 27.6 16.5 31.4 7 9 Alarm State:  0
Fri Nov 17 00:39:38 PST 2017 ON: 20.00 +20.0 20.05 -15.5 27.5 16.6 31.5 7 10 Alarm State:  0
Fri Nov 17 00:38:37 PST 2017 ON: 19.99 +20.0 20.05 -15.4 27.6 16.5 31.5 8 10 Alarm State:  0
Fri Nov 17 00:37:35 PST 2017 ON: 20.00 +20.0 20.04 -15.5 27.5 16.6 31.5 7 10 Alarm State:  0
Fri Nov 17 00:36:34 PST 2017 ON: 19.99 +20.0 20.06 -15.7 27.1 16.9 31.3 7 9 Alarm State:  0
Fri Nov 17 00:35:32 PST 2017 ON: 19.99 +20.0 20.03 -15.1 28.1 16.2 31.6 7 10 Alarm State:  0
Fri Nov 17 00:34:31 PST 2017 ON: 20.00 +20.0 20.06 -15.8 27.0 16.9 31.3 7 9 Alarm State:  0
Fri Nov 17 00:33:29 PST 2017 ON: 20.00 +20.0 20.06 -15.5 27.5 16.6 31.4 8 9 Alarm State:  0
Fri Nov 17 00:32:28 PST 2017 ON: 19.99 +20.0 20.04 -15.4 27.6 16.5 31.4 7 10 Alarm State:  0
Fri Nov 17 00:31:26 PST 2017 ON: 20.00 +20.0 20.05 -15.3 27.8 16.4 31.5 7 9 Alarm State:  0
Fri Nov 17 00:30:25 PST 2017 ON: 20.00 +20.0 20.06 -15.5 27.4 16.7 31.4 8 9 Alarm State:  0
Fri Nov 17 00:29:23 PST 2017 ON: 19.99 +20.0 20.04 -15.2 27.9 16.3 31.5 7 10 Alarm State:  0
Fri Nov 17 00:28:22 PST 2017 ON: 20.00 +20.0 20.05 -15.1 28.0 16.3 31.5 7 10 Alarm State:  0
Fri Nov 17 00:27:20 PST 2017 ON: 19.99 +20.0 20.04 -15.3 27.7 16.5 31.5 7 10 Alarm State:  0
Fri Nov 17 00:26:19 PST 2017 ON: 19.99 +20.0 20.04 -15.1 28.0 16.3 31.6 7 10 Alarm State:  0
Fri Nov 17 00:25:17 PST 2017 ON: 19.99 +20.0 20.05 -15.3 27.8 16.4 31.5 7 10 Alarm State:  0
Fri Nov 17 00:24:16 PST 2017 ON: 19.99 +20.0 20.03 -15.1 28.1 16.2 31.5 7 10 Alarm State:  0
Fri Nov 17 00:23:14 PST 2017 ON: 20.00 +20.0 20.06 -15.5 27.4 16.7 31.3 8 9 Alarm State:  0
Fri Nov 17 00:22:13 PST 2017 ON: 19.99 +20.0 20.05 -15.0 28.2 16.1 31.6 8 10 Alarm State:  0
Fri Nov 17 00:21:11 PST 2017 ON: 20.00 +20.0 20.05 -15.3 27.7 16.5 31.5 7 10 Alarm State:  0
Fri Nov 17 00:20:10 PST 2017 ON: 19.99 +20.0 20.04 -15.2 27.9 16.3 31.5 7 10 Alarm State:  0
Fri Nov 17 00:19:08 PST 2017 ON: 20.00 +20.0 20.05 -15.5 27.5 16.6 31.4 8 10 Alarm State:  0
Fri Nov 17 00:18:07 PST 2017 ON: 19.99 +20.0 20.05 -15.5 27.5 16.6 31.3 7 9 Alarm State:  0
Fri Nov 17 00:17:05 PST 2017 ON: 20.00 +20.0 20.05 -15.3 27.8 16.4 31.5 8 9 Alarm State:  0
Fri Nov 17 00:16:04 PST 2017 ON: 20.00 +20.0 20.06 -15.5 27.5 16.6 31.4 7 9 Alarm State:  0
Fri Nov 17 00:15:02 PST 2017 ON: 19.99 +20.0 20.05 -15.0 28.2 16.1 31.6 7 10 Alarm State:  0
Fri Nov 17 00:14:01 PST 2017 ON: 20.00 +20.0 20.04 -15.3 27.7 16.5 31.5 8 10 Alarm State:  0
Fri Nov 17 00:12:59 PST 2017 ON: 20.00 +20.0 20.06 -15.5 27.4 16.7 31.4 7 9 Alarm State:  0
Fri Nov 17 00:11:58 PST 2017 ON: 19.99 +20.0 20.05 -15.5 27.5 16.6 31.4 7 10 Alarm State:  0
Fri Nov 17 00:10:56 PST 2017 ON: 20.00 +20.0 20.06 -15.3 27.8 16.4 31.5 7 9 Alarm State:  0
Fri Nov 17 00:09:55 PST 2017 ON: 20.00 +20.0 20.07 -15.6 27.3 16.8 31.4 7 8 Alarm State:  0
Fri Nov 17 00:08:53 PST 2017 ON: 19.99 +20.0 20.05 -15.3 27.7 16.5 31.5 7 10 Alarm State:  0
Fri Nov 17 00:07:52 PST 2017 ON: 19.99 +20.0 20.03 -15.2 27.9 16.3 31.5 7 10 Alarm State:  0
Fri Nov 17 00:06:50 PST 2017 ON: 19.99 +20.0 20.04 -15.3 27.8 16.4 31.5 7 10 Alarm State:  0
Fri Nov 17 00:05:49 PST 2017 ON: 20.00 +20.0 20.06 -15.5 27.4 16.7 31.4 8 9 Alarm State:  0
Fri Nov 17 00:04:47 PST 2017 ON: 20.00 +20.0 20.07 -15.5 27.5 16.6 31.4 7 9 Alarm State:  0
Fri Nov 17 00:03:46 PST 2017 ON: 20.00 +20.0 20.06 -15.3 27.7 16.5 31.4 7 9 Alarm State:  0
Fri Nov 17 00:02:44 PST 2017 ON: 19.99 +20.0 20.05 -15.4 27.6 16.5 31.5 7 9 Alarm State:  0
Fri Nov 17 00:01:43 PST 2017 ON: 20.00 +20.0 20.04 -15.3 27.7 16.5 31.5 7 9 Alarm State:  0
Fri Nov 17 00:00:41 PST 2017 ON: 20.00 +20.0 20.06 -15.6 27.3 16.8 31.3 8 9 Alarm State:  0
Thu Nov 16 23:59:40 PST 2017 ON: 19.99 +20.0 20.04 -15.2 27.9 16.3 31.5 7 10 Alarm State:  0
Thu Nov 16 23:58:38 PST 2017 ON: 19.99 +20.0 20.04 -15.3 27.7 16.5 31.5 7 10 Alarm State:  0
Thu Nov 16 23:57:37 PST 2017 ON: 19.99 +20.0 20.05 -15.2 27.9 16.3 31.5 7 9 Alarm State:  0
Thu Nov 16 23:56:35 PST 2017 ON: 20.01 +20.0 20.05 -15.5 27.4 16.7 31.4 7 10 Alarm State:  0
Thu Nov 16 23:55:34 PST 2017 ON: 19.99 +20.0 20.06 -15.5 27.5 16.6 31.5 7 9 Alarm State:  0
Thu Nov 16 23:54:32 PST 2017 ON: 19.98 +20.0 20.03 -15.2 27.9 16.3 31.6 7 10 Alarm State:  0
Thu Nov 16 23:53:31 PST 2017 ON: 20.00 +20.0 20.05 -15.7 27.2 16.8 31.4 7 9 Alarm State:  0
Thu Nov 16 23:52:29 PST 2017 ON: 20.00 +20.0 20.07 -15.8 27.0 16.9 31.3 8 9 Alarm State:  0
Thu Nov 16 23:51:28 PST 2017 ON: 19.99 +20.0 20.04 -15.5 27.5 16.6 31.4 7 10 Alarm State:  0
Thu Nov 16 23:50:26 PST 2017 ON: 20.00 +20.0 20.04 -15.4 27.6 16.5 31.5 7 10 Alarm State:  0
Thu Nov 16 23:49:25 PST 2017 ON: 20.00 +20.0 20.05 -15.5 27.5 16.6 31.5 8 10 Alarm State:  0
Thu Nov 16 23:48:23 PST 2017 ON: 19.99 +20.0 20.05 -15.4 27.6 16.5 31.5 7 9 Alarm State:  0
Thu Nov 16 23:47:22 PST 2017 ON: 20.00 +20.0 20.04 -15.5 27.5 16.6 31.4 7 9 Alarm State:  0
Thu Nov 16 23:46:20 PST 2017 ON: 20.00 +20.0 20.05 -15.6 27.3 16.8 31.3 8 9 Alarm State:  0
Thu Nov 16 23:45:19 PST 2017 ON: 20.00 +20.0 20.05 -15.3 27.8 16.4 31.5 7 10 Alarm State:  0
Thu Nov 16 23:44:17 PST 2017 ON: 19.99 +20.0 20.05 -15.3 27.7 16.5 31.6 7 10 Alarm State:  0
Thu Nov 16 23:43:16 PST 2017 ON: 20.00 +20.0 20.05 -15.5 27.5 16.6 31.4 7 9 Alarm State:  0
Thu Nov 16 23:42:14 PST 2017 ON: 19.99 +20.0 20.05 -15.3 27.8 16.4 31.5 7 9 Alarm State:  0
Thu Nov 16 23:41:13 PST 2017 ON: 20.01 +20.0 20.05 -15.3 27.7 16.5 31.5 7 10 Alarm State:  0
Thu Nov 16 23:40:11 PST 2017 ON: 20.00 +20.0 20.06 -15.2 27.9 16.3 31.5 7 10 Alarm State:  0
Thu Nov 16 23:39:10 PST 2017 ON: 19.99 +20.0 20.05 -15.3 27.8 16.4 31.5 7 10 Alarm State:  0
Thu Nov 16 23:38:09 PST 2017 ON: 19.98 +20.0 20.04 -15.3 27.8 16.4 31.5 7 10 Alarm State:  0
Thu Nov 16 23:37:07 PST 2017 ON: 20.00 +20.0 20.05 -15.4 27.6 16.5 31.5 7 9 Alarm State:  0
Thu Nov 16 23:36:06 PST 2017 ON: 19.99 +20.0 20.06 -15.6 27.3 16.8 31.3 7 9 Alarm State:  0
Thu Nov 16 23:35:04 PST 2017 ON: 19.99 +20.0 20.05 -15.4 27.6 16.5 31.4 7 10 Alarm State:  0
Thu Nov 16 23:34:03 PST 2017 ON: 20.00 +20.0 20.06 -15.6 27.3 16.8 31.3 7 9 Alarm State:  0
Thu Nov 16 23:33:01 PST 2017 ON: 20.00 +20.0 20.05 -15.5 27.5 16.6 31.4 8 9 Alarm State:  0
Thu Nov 16 23:32:00 PST 2017 ON: 20.00 +20.0 20.05 -15.6 27.3 16.8 31.3 7 10 Alarm State:  0
Thu Nov 16 23:30:58 PST 2017 ON: 19.99 +20.0 20.04 -15.5 27.4 16.7 31.4 7 10 Alarm State:  0
Thu Nov 16 23:29:57 PST 2017 ON: 20.00 +20.0 20.05 -15.7 27.1 16.9 31.3 8 9 Alarm State:  0
Thu Nov 16 23:28:55 PST 2017 ON: 20.00 +20.0 20.05 -15.5 27.5 16.6 31.5 7 9 Alarm State:  0
Thu Nov 16 23:27:54 PST 2017 ON: 20.00 +20.0 20.07 -15.6 27.3 16.8 31.4 7 9 Alarm State:  0
Thu Nov 16 23:26:52 PST 2017 ON: 19.99 +20.0 20.05 -15.4 27.6 16.5 31.4 7 10 Alarm State:  0
Thu Nov 16 23:25:51 PST 2017 ON: 20.00 +20.0 20.06 -15.4 27.6 16.5 31.4 7 9 Alarm State:  0
Thu Nov 16 23:24:49 PST 2017 ON: 19.99 +20.0 20.07 -15.5 27.4 16.7 31.4 8 9 Alarm State:  0
Thu Nov 16 23:23:48 PST 2017 ON: 19.99 +20.0 20.04 -15.3 27.8 16.4 31.5 7 10 Alarm State:  0
Thu Nov 16 23:22:46 PST 2017 ON: 20.00 +20.0 20.05 -15.3 27.8 16.4 31.5 7 9 Alarm State:  0
Thu Nov 16 23:21:45 PST 2017 ON: 20.00 +20.0 20.05 -15.1 28.0 16.3 31.6 7 9 Alarm State:  0
Thu Nov 16 23:20:43 PST 2017 ON: 19.99 +20.0 20.06 -15.7 27.1 16.9 31.3 7 10 Alarm State:  0
Thu Nov 16 23:19:42 PST 2017 ON: 19.99 +20.0 20.05 -15.5 27.5 16.6 31.4 7 9 Alarm State:  0
Thu Nov 16 23:18:40 PST 2017 ON: 19.99 +20.0 20.07 -15.7 27.1 16.9 31.2 7 9 Alarm State:  0
Thu Nov 16 23:17:39 PST 2017 ON: 20.00 +20.0 20.05 -15.5 27.5 16.6 31.4 7 9 Alarm State:  0
Thu Nov 16 23:16:37 PST 2017 ON: 19.99 +20.0 20.05 -15.4 27.6 16.5 31.5 7 10 Alarm State:  0
Thu Nov 16 23:15:36 PST 2017 ON: 19.99 +20.0 20.04 -15.3 27.8 16.4 31.5 7 10 Alarm State:  0
Thu Nov 16 23:14:34 PST 2017 ON: 19.99 +20.0 20.04 -15.1 28.0 16.3 31.5 7 10 Alarm State:  0
Thu Nov 16 23:13:33 PST 2017 ON: 20.00 +20.0 20.06 -15.5 27.5 16.6 31.5 8 9 Alarm State:  0
Thu Nov 16 23:12:31 PST 2017 ON: 19.99 +20.0 20.06 -15.3 27.8 16.4 31.5 7 9 Alarm State:  0
Thu Nov 16 23:11:30 PST 2017 ON: 20.00 +20.0 20.05 -15.5 27.4 16.7 31.3 7 9 Alarm State:  0
Thu Nov 16 23:10:28 PST 2017 ON: 20.00 +20.0 20.05 -15.3 27.7 16.5 31.5 7 9 Alarm State:  0
Thu Nov 16 23:09:27 PST 2017 ON: 19.99 +20.0 20.06 -15.7 27.1 16.9 31.3 7 9 Alarm State:  0
Thu Nov 16 23:08:25 PST 2017 ON: 20.00 +20.0 20.06 -15.5 27.5 16.6 31.4 8 9 Alarm State:  0
Thu Nov 16 23:07:24 PST 2017 ON: 19.99 +20.0 20.07 -15.4 27.6 16.5 31.5 7 9 Alarm State:  0
Thu Nov 16 23:06:22 PST 2017 ON: 19.99 +20.0 20.04 -15.3 27.8 16.4 31.5 7 10 Alarm State:  0
Thu Nov 16 23:05:21 PST 2017 ON: 20.00 +20.0 20.06 -15.6 27.3 16.8 31.3 8 9 Alarm State:  0
Thu Nov 16 23:04:19 PST 2017 ON: 20.00 +20.0 20.04 -15.2 27.9 16.3 31.5 7 10 Alarm State:  0
Thu Nov 16 23:03:18 PST 2017 ON: 20.00 +20.0 20.05 -15.5 27.5 16.6 31.4 7 10 Alarm State:  0
Thu Nov 16 23:02:16 PST 2017 ON: 20.00 +20.0 20.04 -15.5 27.4 16.7 31.4 8 10 Alarm State:  0
Thu Nov 16 23:01:15 PST 2017 ON: 19.99 +20.0 20.04 -15.3 27.8 16.4 31.5 7 10 Alarm State:  0
Thu Nov 16 23:00:13 PST 2017 ON: 20.00 +20.0 20.05 -15.3 27.7 16.5 31.5 8 9 Alarm State:  0
Thu Nov 16 22:59:12 PST 2017 ON: 20.00 +20.0 20.05 -15.0 28.2 16.1 31.6 7 10 Alarm State:  0
Thu Nov 16 22:58:10 PST 2017 ON: 19.99 +20.0 20.05 -15.3 27.8 16.4 31.5 7 10 Alarm State:  0
Thu Nov 16 22:57:09 PST 2017 ON: 19.99 +20.0 20.04 -15.4 27.6 16.5 31.5 8 10 Alarm State:  0
Thu Nov 16 22:56:07 PST 2017 ON: 20.00 +20.0 20.06 -15.3 27.7 16.5 31.5 7 9 Alarm State:  0
Thu Nov 16 22:55:06 PST 2017 ON: 19.99 +20.0 20.05 -15.3 27.7 16.5 31.5 8 10 Alarm State:  0
Thu Nov 16 22:54:04 PST 2017 ON: 20.00 +20.0 20.05 -15.6 27.3 16.8 31.3 8 9 Alarm State:  0
Thu Nov 16 22:53:03 PST 2017 ON: 20.00 +20.0 20.05 -15.5 27.5 16.6 31.4 7 9 Alarm State:  0
Thu Nov 16 22:52:01 PST 2017 ON: 19.99 +20.0 20.06 -15.6 27.3 16.8 31.4 7 9 Alarm State:  0
Thu Nov 16 22:51:00 PST 2017 ON: 20.00 +20.0 20.06 -15.4 27.6 16.5 31.4 7 9 Alarm State:  0
Thu Nov 16 22:49:59 PST 2017 ON: 20.00 +20.0 20.07 -15.7 27.1 16.9 31.4 7 9 Alarm State:  0
Thu Nov 16 22:48:57 PST 2017 ON: 19.99 +20.0 20.04 -15.7 27.2 16.8 31.4 8 10 Alarm State:  0
Thu Nov 16 22:47:56 PST 2017 ON: 20.00 +20.0 20.05 -15.7 27.2 16.8 31.3 7 9 Alarm State:  0
Thu Nov 16 22:46:54 PST 2017 ON: 19.99 +20.0 20.05 -15.7 27.2 16.8 31.3 7 10 Alarm State:  0
Thu Nov 16 22:45:53 PST 2017 ON: 20.00 +20.0 20.06 -15.6 27.3 16.8 31.4 8 9 Alarm State:  0
Thu Nov 16 22:44:51 PST 2017 ON: 20.00 +20.0 20.07 -15.6 27.3 16.8 31.4 7 9 Alarm State:  0
Thu Nov 16 22:43:50 PST 2017 ON: 19.99 +20.0 20.04 -15.6 27.3 16.8 31.3 8 10 Alarm State:  0
Thu Nov 16 22:42:48 PST 2017 ON: 19.99 +20.0 20.03 -15.3 27.7 16.5 31.5 7 10 Alarm State:  0
Thu Nov 16 22:41:47 PST 2017 ON: 20.01 +20.0 20.06 -15.7 27.2 16.8 31.3 7 9 Alarm State:  0
Thu Nov 16 22:40:45 PST 2017 ON: 20.00 +20.0 20.06 -15.2 27.9 16.3 31.6 8 10 Alarm State:  0
Thu Nov 16 22:39:44 PST 2017 ON: 19.99 +20.0 20.05 -15.2 27.9 16.3 31.5 7 10 Alarm State:  0
Thu Nov 16 22:38:42 PST 2017 ON: 20.00 +20.0 20.06 -15.6 27.3 16.8 31.4 7 9 Alarm State:  0
Thu Nov 16 22:37:41 PST 2017 ON: 20.00 +20.0 20.06 -15.4 27.6 16.5 31.4 8 9 Alarm State:  0
Thu Nov 16 22:36:39 PST 2017 ON: 20.00 +20.0 20.05 -15.3 27.7 16.5 31.4 7 9 Alarm State:  0
Thu Nov 16 22:35:38 PST 2017 ON: 20.00 +20.0 20.05 -15.6 27.3 16.8 31.4 7 10 Alarm State:  0
Thu Nov 16 22:34:36 PST 2017 ON: 20.00 +20.0 20.04 -15.3 27.8 16.4 31.5 7 10 Alarm State:  0
Thu Nov 16 22:33:35 PST 2017 ON: 19.99 +20.0 20.04 -15.5 27.5 16.6 31.4 7 10 Alarm State:  0
Thu Nov 16 22:32:33 PST 2017 ON: 20.00 +20.0 20.05 -15.4 27.6 16.5 31.4 8 9 Alarm State:  0
Thu Nov 16 22:31:32 PST 2017 ON: 20.00 +20.0 20.05 -15.5 27.5 16.6 31.4 8 10 Alarm State:  0
Thu Nov 16 22:30:30 PST 2017 ON: 20.00 +20.0 20.05 -15.3 27.8 16.4 31.5 7 9 Alarm State:  0
Thu Nov 16 22:29:29 PST 2017 ON: 19.99 +20.0 20.05 -15.5 27.4 16.7 31.4 8 9 Alarm State:  0
Thu Nov 16 22:28:27 PST 2017 ON: 20.00 +20.0 20.05 -15.3 27.7 16.5 31.5 7 10 Alarm State:  0
Thu Nov 16 22:27:26 PST 2017 ON: 20.00 +20.0 20.06 -15.5 27.5 16.6 31.4 7 10 Alarm State:  0
Thu Nov 16 22:26:24 PST 2017 ON: 19.99 +20.0 20.05 -15.4 27.6 16.5 31.4 7 9 Alarm State:  0
Thu Nov 16 22:25:23 PST 2017 ON: 20.00 +20.0 20.05 -15.4 27.6 16.5 31.5 7 9 Alarm State:  0
Thu Nov 16 22:24:21 PST 2017 ON: 20.00 +20.0 20.05 -15.3 27.8 16.4 31.5 7 10 Alarm State:  0
Thu Nov 16 22:23:20 PST 2017 ON: 19.99 +20.0 20.05 -15.3 27.8 16.4 31.5 7 10 Alarm State:  0
Thu Nov 16 22:22:18 PST 2017 ON: 19.99 +20.0 20.05 -15.3 27.7 16.5 31.5 7 9 Alarm State:  0
Thu Nov 16 22:21:17 PST 2017 ON: 20.00 +20.0 20.05 -15.7 27.2 16.8 31.3 8 9 Alarm State:  0
Thu Nov 16 22:20:15 PST 2017 ON: 20.01 +20.0 20.06 -15.7 27.2 16.8 31.3 7 9 Alarm State:  0
Thu Nov 16 22:19:14 PST 2017 ON: 19.99 +20.0 20.05 -15.5 27.5 16.6 31.4 7 10 Alarm State:  0
Thu Nov 16 22:18:12 PST 2017 ON: 20.00 +20.0 20.05 -15.3 27.7 16.5 31.5 7 9 Alarm State:  0
Thu Nov 16 22:17:11 PST 2017 ON: 19.99 +20.0 20.06 -15.5 27.5 16.6 31.4 7 9 Alarm State:  0
Thu Nov 16 22:16:09 PST 2017 ON: 19.99 +20.0 20.04 -15.2 27.9 16.3 31.5 7 10 Alarm State:  0
Thu Nov 16 22:15:08 PST 2017 ON: 19.99 +20.0 20.06 -15.6 27.3 16.8 31.4 7 9 Alarm State:  0
Thu Nov 16 22:14:06 PST 2017 ON: 20.00 +20.0 20.06 -15.5 27.4 16.7 31.4 7 9 Alarm State:  0
Thu Nov 16 22:13:05 PST 2017 ON: 20.00 +20.0 20.06 -15.5 27.5 16.6 31.4 8 9 Alarm State:  0
Thu Nov 16 22:12:03 PST 2017 ON: 19.99 +20.0 20.05 -15.5 27.5 16.6 31.4 7 9 Alarm State:  0
Thu Nov 16 22:11:02 PST 2017 ON: 20.00 +20.0 20.05 -15.5 27.5 16.6 31.4 7 9 Alarm State:  0
Thu Nov 16 22:10:00 PST 2017 ON: 20.00 +20.0 20.07 -15.5 27.4 16.7 31.4 8 9 Alarm State:  0
Thu Nov 16 22:08:59 PST 2017 ON: 20.00 +20.0 20.05 -15.3 27.7 16.5 31.5 7 10 Alarm State:  0
Thu Nov 16 22:07:57 PST 2017 ON: 19.99 +20.0 20.05 -15.3 27.7 16.5 31.5 7 9 Alarm State:  0
Thu Nov 16 22:06:56 PST 2017 ON: 20.00 +20.0 20.06 -15.7 27.1 16.9 31.2 8 9 Alarm State:  0
Thu Nov 16 22:05:54 PST 2017 ON: 20.00 +20.0 20.05 -15.2 27.9 16.3 31.5 7 9 Alarm State:  0
Thu Nov 16 22:04:53 PST 2017 ON: 19.99 +20.0 20.05 -15.3 27.8 16.4 31.5 8 10 Alarm State:  0
Thu Nov 16 22:03:51 PST 2017 ON: 19.99 +20.0 20.04 -15.2 27.9 16.3 31.5 7 10 Alarm State:  0
Thu Nov 16 22:02:50 PST 2017 ON: 20.00 +20.0 20.04 -15.6 27.3 16.8 31.3 8 10 Alarm State:  0
Thu Nov 16 22:01:49 PST 2017 ON: 20.00 +20.0 20.05 -15.4 27.6 16.5 31.5 8 10 Alarm State:  0
Thu Nov 16 22:00:47 PST 2017 ON: 20.00 +20.0 20.05 -15.4 27.6 16.5 31.5 7 10 Alarm State:  0
Thu Nov 16 21:59:46 PST 2017 ON: 19.99 +20.0 20.05 -15.5 27.5 16.6 31.4 7 9 Alarm State:  0
Thu Nov 16 21:58:44 PST 2017 ON: 20.00 +20.0 20.06 -15.5 27.5 16.6 31.4 8 9 Alarm State:  0
Thu Nov 16 21:57:43 PST 2017 ON: 19.99 +20.0 20.05 -15.4 27.6 16.5 31.5 7 10 Alarm State:  0
Thu Nov 16 21:56:41 PST 2017 ON: 19.99 +20.0 20.05 -15.4 27.6 16.5 31.4 8 9 Alarm State:  0
Thu Nov 16 21:55:40 PST 2017 ON: 20.00 +20.0 20.04 -15.3 27.8 16.4 31.5 7 9 Alarm State:  0
Thu Nov 16 21:54:38 PST 2017 ON: 20.00 +20.0 20.03 -15.1 28.0 16.3 31.6 7 10 Alarm State:  0
Thu Nov 16 21:53:37 PST 2017 ON: 20.00 +20.0 20.06 -15.6 27.3 16.8 31.3 8 9 Alarm State:  0
Thu Nov 16 21:52:35 PST 2017 ON: 20.00 +20.0 20.06 -15.5 27.5 16.6 31.5 7 9 Alarm State:  0
Thu Nov 16 21:51:34 PST 2017 ON: 19.99 +20.0 20.05 -15.2 27.9 16.3 31.5 7 9 Alarm State:  0
Thu Nov 16 21:50:32 PST 2017 ON: 20.00 +20.0 20.06 -15.7 27.1 16.9 31.3 7 9 Alarm State:  0
Thu Nov 16 21:49:31 PST 2017 ON: 19.99 +20.0 20.05 -15.3 27.7 16.5 31.5 7 10 Alarm State:  0
Thu Nov 16 21:48:29 PST 2017 ON: 19.99 +20.0 20.04 -15.4 27.6 16.5 31.5 7 9 Alarm State:  0
Thu Nov 16 21:47:28 PST 2017 ON: 20.00 +20.0 20.05 -15.7 27.2 16.8 31.3 7 9 Alarm State:  0
Thu Nov 16 21:46:26 PST 2017 ON: 19.99 +20.0 20.05 -15.1 28.0 16.3 31.5 7 10 Alarm State:  0
Thu Nov 16 21:45:25 PST 2017 ON: 20.00 +20.0 20.06 -15.4 27.6 16.5 31.5 8 9 Alarm State:  0
Thu Nov 16 21:44:23 PST 2017 ON: 19.99 +20.0 20.04 -15.3 27.8 16.4 31.5 7 10 Alarm State:  0
Thu Nov 16 21:43:22 PST 2017 ON: 20.00 +20.0 20.04 -15.7 27.2 16.8 31.3 7 9 Alarm State:  0
Thu Nov 16 21:42:20 PST 2017 ON: 20.00 +20.0 20.05 -15.3 27.8 16.4 31.4 7 9 Alarm State:  0
Thu Nov 16 21:41:19 PST 2017 ON: 20.00 +20.0 20.06 -15.5 27.4 16.7 31.4 7 10 Alarm State:  0
Thu Nov 16 21:40:17 PST 2017 ON: 19.99 +20.0 20.04 -15.4 27.6 16.5 31.4 7 10 Alarm State:  0
Thu Nov 16 21:39:16 PST 2017 ON: 20.00 +20.0 20.05 -15.5 27.4 16.7 31.4 7 9 Alarm State:  0
Thu Nov 16 21:38:14 PST 2017 ON: 20.00 +20.0 20.06 -15.7 27.1 16.9 31.3 7 9 Alarm State:  0
Thu Nov 16 21:37:13 PST 2017 ON: 19.99 +20.0 20.05 -15.5 27.5 16.6 31.4 8 9 Alarm State:  0
Thu Nov 16 21:36:11 PST 2017 ON: 20.00 +20.0 20.06 -15.3 27.8 16.4 31.5 7 9 Alarm State:  0
Thu Nov 16 21:35:10 PST 2017 ON: 19.99 +20.0 20.05 -15.5 27.4 16.7 31.3 8 10 Alarm State:  0
Thu Nov 16 21:34:08 PST 2017 ON: 19.99 +20.0 20.06 -15.7 27.2 16.8 31.5 8 9 Alarm State:  0
Thu Nov 16 21:33:07 PST 2017 ON: 20.00 +20.0 20.06 -15.8 27.0 16.9 31.3 7 9 Alarm State:  0
Thu Nov 16 21:32:05 PST 2017 ON: 19.99 +20.0 20.06 -15.5 27.5 16.6 31.5 7 9 Alarm State:  0
Thu Nov 16 21:31:04 PST 2017 ON: 20.00 +20.0 20.06 -15.6 27.3 16.8 31.3 7 9 Alarm State:  0
Thu Nov 16 21:30:02 PST 2017 ON: 19.99 +20.0 20.04 -15.5 27.5 16.6 31.4 7 10 Alarm State:  0
Thu Nov 16 21:29:01 PST 2017 ON: 20.00 +20.0 20.05 -15.4 27.6 16.5 31.5 8 9 Alarm State:  0
Thu Nov 16 21:27:59 PST 2017 ON: 20.00 +20.0 20.06 -15.7 27.2 16.8 31.3 8 9 Alarm State:  0
Thu Nov 16 21:26:58 PST 2017 ON: 19.99 +20.0 20.05 -15.3 27.7 16.5 31.5 7 10 Alarm State:  0
Thu Nov 16 21:25:56 PST 2017 ON: 19.99 +20.0 20.05 -15.1 28.0 16.3 31.6 8 9 Alarm State:  0
Thu Nov 16 21:24:55 PST 2017 ON: 20.00 +20.0 20.05 -15.5 27.4 16.7 31.4 7 9 Alarm State:  0
Thu Nov 16 21:23:53 PST 2017 ON: 20.00 +20.0 20.06 -15.5 27.5 16.6 31.4 7 10 Alarm State:  0
Thu Nov 16 21:22:52 PST 2017 ON: 19.99 +20.0 20.06 -15.3 27.8 16.4 31.4 7 9 Alarm State:  0
Thu Nov 16 21:21:50 PST 2017 ON: 19.99 +20.0 20.04 -15.4 27.6 16.5 31.4 7 9 Alarm State:  0
Thu Nov 16 21:20:49 PST 2017 ON: 20.00 +20.0 20.07 -15.9 26.8 17.1 31.2 8 8 Alarm State:  0
Thu Nov 16 21:19:47 PST 2017 ON: 20.00 +20.0 20.04 -15.1 28.0 16.3 31.6 7 10 Alarm State:  0
Thu Nov 16 21:18:46 PST 2017 ON: 19.99 +20.0 20.05 -15.4 27.6 16.5 31.4 8 10 Alarm State:  0
Thu Nov 16 21:17:44 PST 2017 ON: 19.99 +20.0 20.04 -15.5 27.5 16.6 31.5 8 10 Alarm State:  0
Thu Nov 16 21:16:43 PST 2017 ON: 20.00 +20.0 20.06 -15.7 27.1 16.9 31.3 7 9 Alarm State:  0
Thu Nov 16 21:15:41 PST 2017 ON: 20.00 +20.0 20.05 -15.7 27.1 16.9 31.3 8 9 Alarm State:  0
Thu Nov 16 21:14:40 PST 2017 ON: 19.99 +20.0 20.06 -15.5 27.5 16.6 31.4 7 9 Alarm State:  0
Thu Nov 16 21:13:38 PST 2017 ON: 19.99 +20.0 20.04 -15.5 27.5 16.6 31.4 7 10 Alarm State:  0
Thu Nov 16 21:12:37 PST 2017 ON: 20.00 +20.0 20.06 -15.7 27.1 16.9 31.3 8 9 Alarm State:  0
Thu Nov 16 21:11:36 PST 2017 ON: 19.99 +20.0 20.04 -15.4 27.6 16.5 31.4 7 10 Alarm State:  0
Thu Nov 16 21:10:34 PST 2017 ON: 20.00 +20.0 20.04 -15.3 27.8 16.4 31.6 7 10 Alarm State:  0
Thu Nov 16 21:09:33 PST 2017 ON: 19.99 +20.0 20.07 -15.7 27.1 16.9 31.3 8 9 Alarm State:  0
Thu Nov 16 21:08:31 PST 2017 ON: 19.99 +20.0 20.05 -15.5 27.4 16.7 31.4 7 9 Alarm State:  0
Thu Nov 16 21:07:30 PST 2017 ON: 20.00 +20.0 20.05 -15.6 27.3 16.8 31.4 8 9 Alarm State:  0
Thu Nov 16 21:06:28 PST 2017 ON: 20.00 +20.0 20.06 -15.6 27.3 16.8 31.4 7 9 Alarm State:  0
Thu Nov 16 21:05:27 PST 2017 ON: 19.99 +20.0 20.05 -15.4 27.6 16.5 31.5 7 10 Alarm State:  0
Thu Nov 16 21:04:25 PST 2017 ON: 19.99 +20.0 20.04 -15.4 27.6 16.5 31.5 8 10 Alarm State:  0
Thu Nov 16 21:03:24 PST 2017 ON: 19.99 +20.0 20.05 -15.7 27.2 16.8 31.3 7 10 Alarm State:  0
Thu Nov 16 21:02:22 PST 2017 ON: 20.00 +20.0 20.06 -15.4 27.6 16.5 31.4 7 9 Alarm State:  0
Thu Nov 16 21:01:21 PST 2017 ON: 20.00 +20.0 20.05 -15.4 27.6 16.5 31.4 8 10 Alarm State:  0
Thu Nov 16 21:00:19 PST 2017 ON: 19.99 +20.0 20.05 -15.3 27.7 16.5 31.5 7 10 Alarm State:  0
Thu Nov 16 20:59:18 PST 2017 ON: 19.99 +20.0 20.04 -15.4 27.6 16.5 31.5 7 9 Alarm State:  0
Thu Nov 16 20:58:16 PST 2017 ON: 20.00 +20.0 20.05 -15.5 27.4 16.7 31.4 8 9 Alarm State:  0
Thu Nov 16 20:57:15 PST 2017 ON: 19.99 +20.0 20.06 -15.5 27.4 16.7 31.5 7 9 Alarm State:  0
Thu Nov 16 20:56:13 PST 2017 ON: 20.00 +20.0 20.05 -15.3 27.8 16.4 31.5 8 10 Alarm State:  0
Thu Nov 16 20:55:12 PST 2017 ON: 19.99 +20.0 20.05 -15.0 28.2 16.1 31.6 7 10 Alarm State:  0
Thu Nov 16 20:54:10 PST 2017 ON: 20.00 +20.0 20.05 -15.5 27.4 16.7 31.4 8 10 Alarm State:  0
Thu Nov 16 20:53:09 PST 2017 ON: 19.99 +20.0 20.06 -15.5 27.5 16.6 31.4 8 9 Alarm State:  0
Thu Nov 16 20:52:07 PST 2017 ON: 20.00 +20.0 20.05 -15.6 27.3 16.8 31.4 7 9 Alarm State:  0
Thu Nov 16 20:51:06 PST 2017 ON: 20.00 +20.0 20.06 -15.7 27.1 16.9 31.2 7 9 Alarm State:  0
Thu Nov 16 20:50:04 PST 2017 ON: 20.00 +20.0 20.06 -15.4 27.6 16.5 31.5 8 9 Alarm State:  0
Thu Nov 16 20:49:03 PST 2017 ON: 20.00 +20.0 20.05 -15.3 27.8 16.4 31.5 7 10 Alarm State:  0
Thu Nov 16 20:48:01 PST 2017 ON: 20.00 +20.0 20.06 -15.6 27.3 16.8 31.4 7 9 Alarm State:  0
Thu Nov 16 20:47:00 PST 2017 ON: 20.00 +20.0 20.05 -15.6 27.3 16.8 31.3 7 10 Alarm State:  0
Thu Nov 16 20:45:58 PST 2017 ON: 20.00 +20.0 20.04 -15.3 27.7 16.5 31.4 7 10 Alarm State:  0
Thu Nov 16 20:44:57 PST 2017 ON: 20.00 +20.0 20.05 -15.5 27.4 16.7 31.4 8 9 Alarm State:  0
Thu Nov 16 20:43:55 PST 2017 ON: 20.00 +20.0 20.05 -15.7 27.2 16.8 31.3 7 9 Alarm State:  0
Thu Nov 16 20:42:54 PST 2017 ON: 20.00 +20.0 20.05 -15.4 27.6 16.5 31.4 7 10 Alarm State:  0
Thu Nov 16 20:41:52 PST 2017 ON: 19.99 +20.0 20.05 -15.2 27.9 16.3 31.6 7 10 Alarm State:  0
Thu Nov 16 20:40:51 PST 2017 ON: 20.00 +20.0 20.05 -15.5 27.4 16.7 31.4 7 9 Alarm State:  0
Thu Nov 16 20:39:49 PST 2017 ON: 20.00 +20.0 20.05 -15.4 27.6 16.5 31.4 7 10 Alarm State:  0
Thu Nov 16 20:38:48 PST 2017 ON: 19.99 +20.0 20.04 -15.1 28.0 16.3 31.6 7 10 Alarm State:  0
Thu Nov 16 20:37:46 PST 2017 ON: 20.00 +20.0 20.05 -15.2 27.9 16.3 31.5 7 9 Alarm State:  0
Thu Nov 16 20:36:45 PST 2017 ON: 20.00 +20.0 20.06 -15.5 27.5 16.6 31.5 8 9 Alarm State:  0
Thu Nov 16 20:35:43 PST 2017 ON: 19.99 +20.0 20.03 -15.1 28.0 16.3 31.5 7 11 Alarm State:  0
Thu Nov 16 20:34:42 PST 2017 ON: 19.99 +20.0 20.04 -15.5 27.4 16.7 31.4 7 10 Alarm State:  0
Thu Nov 16 20:33:40 PST 2017 ON: 20.00 +20.0 20.05 -15.5 27.4 16.7 31.4 8 10 Alarm State:  0
Thu Nov 16 20:32:39 PST 2017 ON: 19.99 +20.0 20.04 -15.4 27.6 16.5 31.5 7 10 Alarm State:  0
Thu Nov 16 20:31:37 PST 2017 ON: 19.99 +20.0 20.05 -15.7 27.2 16.8 31.4 7 9 Alarm State:  0
Thu Nov 16 20:30:36 PST 2017 ON: 19.99 +20.0 20.04 -15.2 27.9 16.3 31.5 7 9 Alarm State:  0
Thu Nov 16 20:29:34 PST 2017 ON: 20.00 +20.0 20.06 -15.6 27.3 16.8 31.4 7 9 Alarm State:  0
Thu Nov 16 20:28:33 PST 2017 ON: 20.00 +20.0 20.06 -15.8 27.0 16.9 31.3 8 9 Alarm State:  0
Thu Nov 16 20:27:31 PST 2017 ON: 19.99 +20.0 20.04 -15.5 27.5 16.6 31.4 7 10 Alarm State:  0
Thu Nov 16 20:26:30 PST 2017 ON: 20.00 +20.0 20.05 -15.3 27.7 16.5 31.5 7 9 Alarm State:  0
Thu Nov 16 20:25:28 PST 2017 ON: 20.00 +20.0 20.06 -15.6 27.3 16.8 31.3 8 9 Alarm State:  0
Thu Nov 16 20:24:27 PST 2017 ON: 20.00 +20.0 20.06 -15.5 27.5 16.6 31.4 7 9 Alarm State:  0
Thu Nov 16 20:23:25 PST 2017 ON: 19.99 +20.0 20.05 -15.5 27.4 16.7 31.5 7 10 Alarm State:  0
Thu Nov 16 20:22:24 PST 2017 ON: 19.99 +20.0 20.06 -15.6 27.3 16.8 31.4 7 9 Alarm State:  0
Thu Nov 16 20:21:22 PST 2017 ON: 19.99 +20.0 20.05 -15.5 27.4 16.7 31.4 7 9 Alarm State:  0
Thu Nov 16 20:20:21 PST 2017 ON: 19.99 +20.0 20.06 -15.7 27.1 16.9 31.3 8 9 Alarm State:  0
Thu Nov 16 20:19:19 PST 2017 ON: 19.99 +20.0 20.04 -15.5 27.5 16.6 31.4 8 10 Alarm State:  0
Thu Nov 16 20:18:18 PST 2017 ON: 20.00 +20.0 20.04 -15.5 27.5 16.6 31.4 7 9 Alarm State:  0
Thu Nov 16 20:17:16 PST 2017 ON: 20.00 +20.0 20.07 -15.7 27.2 16.8 31.3 8 8 Alarm State:  0
Thu Nov 16 20:16:15 PST 2017 ON: 19.99 +20.0 20.06 -15.5 27.4 16.7 31.4 7 10 Alarm State:  0
Thu Nov 16 20:15:13 PST 2017 ON: 19.99 +20.0 20.05 -15.3 27.8 16.4 31.5 7 9 Alarm State:  0
Thu Nov 16 20:14:12 PST 2017 ON: 20.00 +20.0 20.05 -15.5 27.4 16.7 31.4 7 9 Alarm State:  0
Thu Nov 16 20:13:10 PST 2017 ON: 20.00 +20.0 20.07 -15.5 27.4 16.7 31.4 7 9 Alarm State:  0
Thu Nov 16 20:12:09 PST 2017 ON: 19.99 +20.0 20.05 -15.3 27.7 16.5 31.5 8 10 Alarm State:  0
Thu Nov 16 20:11:07 PST 2017 ON: 19.99 +20.0 20.04 -15.4 27.6 16.5 31.5 7 10 Alarm State:  0
Thu Nov 16 20:10:06 PST 2017 ON: 20.00 +20.0 20.05 -15.4 27.6 16.5 31.4 8 10 Alarm State:  0
Thu Nov 16 20:09:04 PST 2017 ON: 19.99 +20.0 20.05 -15.2 27.9 16.3 31.5 7 9 Alarm State:  0
Thu Nov 16 20:08:03 PST 2017 ON: 20.00 +20.0 20.06 -15.4 27.6 16.5 31.4 7 9 Alarm State:  0
Thu Nov 16 20:07:01 PST 2017 ON: 19.99 +20.0 20.04 -15.4 27.6 16.5 31.5 7 10 Alarm State:  0
Thu Nov 16 20:06:00 PST 2017 ON: 20.00 +20.0 20.05 -15.3 27.8 16.4 31.5 7 10 Alarm State:  0
Thu Nov 16 20:04:58 PST 2017 ON: 19.99 +20.0 20.05 -15.5 27.5 16.6 31.4 7 10 Alarm State:  0
Thu Nov 16 20:03:57 PST 2017 ON: 19.99 +20.0 20.05 -15.5 27.5 16.6 31.4 8 9 Alarm State:  0
Thu Nov 16 20:02:55 PST 2017 ON: 20.00 +20.0 20.05 -15.3 27.8 16.4 31.5 7 9 Alarm State:  0
Thu Nov 16 20:01:54 PST 2017 ON: 19.99 +20.0 20.05 -15.5 27.4 16.7 31.3 7 10 Alarm State:  0
Thu Nov 16 20:00:52 PST 2017 ON: 19.99 +20.0 20.04 -15.5 27.4 16.7 31.3 8 9 Alarm State:  0
Thu Nov 16 19:59:51 PST 2017 ON: 20.00 +20.0 20.05 -15.3 27.8 16.4 31.5 7 9 Alarm State:  0
Thu Nov 16 19:58:49 PST 2017 ON: 20.00 +20.0 20.06 -15.3 27.7 16.5 31.4 8 9 Alarm State:  0
Thu Nov 16 19:57:48 PST 2017 ON: 19.99 +20.0 20.04 -15.2 27.9 16.3 31.5 7 10 Alarm State:  0
Thu Nov 16 19:56:46 PST 2017 ON: 20.00 +20.0 20.05 -15.6 27.3 16.8 31.4 7 9 Alarm State:  0
Thu Nov 16 19:55:45 PST 2017 ON: 19.99 +20.0 20.05 -15.3 27.7 16.5 31.5 7 9 Alarm State:  0
Thu Nov 16 19:54:43 PST 2017 ON: 20.00 +20.0 20.05 -15.5 27.4 16.7 31.4 8 9 Alarm State:  0
Thu Nov 16 19:53:42 PST 2017 ON: 19.99 +20.0 20.04 -15.2 27.9 16.3 31.5 7 11 Alarm State:  0
Thu Nov 16 19:52:40 PST 2017 ON: 19.99 +20.0 20.05 -15.3 27.7 16.5 31.5 8 9 Alarm State:  0
Thu Nov 16 19:51:39 PST 2017 ON: 20.00 +20.0 20.05 -15.3 27.7 16.5 31.4 7 10 Alarm State:  0
Thu Nov 16 19:50:38 PST 2017 ON: 19.99 +20.0 20.05 -15.2 27.9 16.3 31.5 7 10 Alarm State:  0
Thu Nov 16 19:49:36 PST 2017 ON: 19.99 +20.0 20.04 -15.4 27.6 16.5 31.5 7 10 Alarm State:  0
Thu Nov 16 19:48:35 PST 2017 ON: 19.99 +20.0 20.03 -15.3 27.8 16.4 31.5 7 10 Alarm State:  0
Thu Nov 16 19:47:33 PST 2017 ON: 20.00 +20.0 20.06 -15.7 27.2 16.8 31.3 8 9 Alarm State:  0
Thu Nov 16 19:46:32 PST 2017 ON: 20.00 +20.0 20.05 -15.4 27.6 16.5 31.4 7 10 Alarm State:  0
Thu Nov 16 19:45:30 PST 2017 ON: 19.99 +20.0 20.05 -15.4 27.6 16.5 31.5 7 10 Alarm State:  0
Thu Nov 16 19:44:29 PST 2017 ON: 20.00 +20.0 20.05 -15.5 27.4 16.7 31.3 8 9 Alarm State:  0
Thu Nov 16 19:43:27 PST 2017 ON: 20.00 +20.0 20.05 -15.4 27.6 16.5 31.4 7 10 Alarm State:  0
Thu Nov 16 19:42:26 PST 2017 ON: 20.00 +20.0 20.04 -15.3 27.8 16.4 31.5 7 10 Alarm State:  0
Thu Nov 16 19:41:24 PST 2017 ON: 19.99 +20.0 20.04 -15.3 27.7 16.5 31.5 8 10 Alarm State:  0
Thu Nov 16 19:40:23 PST 2017 ON: 20.00 +20.0 20.04 -15.6 27.3 16.8 31.4 7 9 Alarm State:  0
Thu Nov 16 19:39:21 PST 2017 ON: 20.00 +20.0 20.06 -15.5 27.4 16.7 31.4 8 9 Alarm State:  0
Thu Nov 16 19:38:20 PST 2017 ON: 19.99 +20.0 20.05 -15.4 27.6 16.5 31.5 7 10 Alarm State:  0
Thu Nov 16 19:37:18 PST 2017 ON: 19.99 +20.0 20.05 -15.3 27.8 16.4 31.4 7 9 Alarm State:  0
Thu Nov 16 19:36:17 PST 2017 ON: 20.00 +20.0 20.05 -15.5 27.4 16.7 31.4 8 10 Alarm State:  0
Thu Nov 16 19:35:15 PST 2017 ON: 19.99 +20.0 20.05 -15.5 27.5 16.6 31.4 7 9 Alarm State:  0
Thu Nov 16 19:34:14 PST 2017 ON: 19.99 +20.0 20.04 -15.5 27.5 16.6 31.4 7 9 Alarm State:  0
Thu Nov 16 19:33:12 PST 2017 ON: 20.00 +20.0 20.06 -15.6 27.3 16.8 31.4 8 9 Alarm State:  0
Thu Nov 16 19:32:11 PST 2017 ON: 20.00 +20.0 20.08 -15.7 27.2 16.8 31.4 7 9 Alarm State:  0
Thu Nov 16 19:31:09 PST 2017 ON: 19.99 +20.0 20.05 -15.3 27.7 16.5 31.5 7 10 Alarm State:  0
Thu Nov 16 19:30:08 PST 2017 ON: 19.98 +20.0 20.03 -15.3 27.7 16.5 31.4 7 10 Alarm State:  0
Thu Nov 16 19:29:06 PST 2017 ON: 20.00 +20.0 20.06 -15.6 27.3 16.8 31.3 7 8 Alarm State:  0
Thu Nov 16 19:28:05 PST 2017 ON: 20.00 +20.0 20.05 -15.2 27.9 16.3 31.5 7 10 Alarm State:  0
Thu Nov 16 19:27:03 PST 2017 ON: 19.99 +20.0 20.06 -15.3 27.8 16.4 31.5 7 10 Alarm State:  0
Thu Nov 16 19:26:02 PST 2017 ON: 19.99 +20.0 20.05 -15.4 27.6 16.5 31.4 8 10 Alarm State:  0
Thu Nov 16 19:25:00 PST 2017 ON: 20.00 +20.0 20.05 -15.4 27.6 16.5 31.4 8 9 Alarm State:  0
Thu Nov 16 19:23:59 PST 2017 ON: 20.00 +20.0 20.05 -15.5 27.5 16.6 31.5 7 10 Alarm State:  0
Thu Nov 16 19:22:57 PST 2017 ON: 19.99 +20.0 20.05 -15.5 27.5 16.6 31.4 7 10 Alarm State:  0
Thu Nov 16 19:21:56 PST 2017 ON: 19.98 +20.0 20.04 -15.5 27.5 16.6 31.4 7 10 Alarm State:  0
Thu Nov 16 19:20:54 PST 2017 ON: 20.00 +20.0 20.04 -15.6 27.3 16.8 31.4 7 10 Alarm State:  0
Thu Nov 16 19:19:53 PST 2017 ON: 20.00 +20.0 20.06 -15.4 27.6 16.5 31.5 8 9 Alarm State:  0
Thu Nov 16 19:18:51 PST 2017 ON: 20.00 +20.0 20.06 -15.5 27.4 16.7 31.4 7 9 Alarm State:  0
Thu Nov 16 19:17:50 PST 2017 ON: 20.00 +20.0 20.04 -15.4 27.6 16.5 31.4 7 10 Alarm State:  0
Thu Nov 16 19:16:48 PST 2017 ON: 19.99 +20.0 20.04 -15.3 27.7 16.5 31.4 7 10 Alarm State:  0
Thu Nov 16 19:15:47 PST 2017 ON: 20.00 +20.0 20.06 -15.7 27.2 16.9 31.3 7 9 Alarm State:  0
Thu Nov 16 19:14:45 PST 2017 ON: 20.00 +20.0 20.06 -15.5 27.5 16.6 31.5 7 9 Alarm State:  0
Thu Nov 16 19:13:44 PST 2017 ON: 19.99 +20.0 20.04 -15.2 27.9 16.3 31.5 7 10 Alarm State:  0
Thu Nov 16 19:12:42 PST 2017 ON: 20.00 +20.0 20.05 -15.5 27.4 16.7 31.4 7 9 Alarm State:  0
Thu Nov 16 19:11:41 PST 2017 ON: 19.99 +20.0 20.06 -15.6 27.3 16.8 31.4 8 9 Alarm State:  0
Thu Nov 16 19:10:39 PST 2017 ON: 20.00 +20.0 20.05 -15.5 27.5 16.6 31.4 7 10 Alarm State:  0
Thu Nov 16 19:09:38 PST 2017 ON: 19.99 +20.0 20.05 -15.5 27.5 16.6 31.4 7 9 Alarm State:  0
Thu Nov 16 19:08:36 PST 2017 ON: 20.00 +20.0 20.06 -15.7 27.1 16.9 31.3 8 9 Alarm State:  0
Thu Nov 16 19:07:35 PST 2017 ON: 19.99 +20.0 20.04 -15.3 27.7 16.5 31.5 7 10 Alarm State:  0
Thu Nov 16 19:06:33 PST 2017 ON: 20.00 +20.0 20.05 -15.4 27.6 16.5 31.5 7 10 Alarm State:  0
Thu Nov 16 19:05:32 PST 2017 ON: 19.98 +20.0 20.04 -15.2 27.9 16.3 31.5 7 10 Alarm State:  0
Thu Nov 16 19:04:30 PST 2017 ON: 20.00 +20.0 20.05 -15.4 27.6 16.5 31.4 7 9 Alarm State:  0
Thu Nov 16 19:03:29 PST 2017 ON: 19.99 +20.0 20.06 -15.5 27.4 16.7 31.4 7 9 Alarm State:  0
Thu Nov 16 19:02:27 PST 2017 ON: 20.00 +20.0 20.05 -15.2 27.9 16.3 31.5 7 10 Alarm State:  0
Thu Nov 16 19:01:25 PST 2017 ON: 19.99 +20.0 20.05 -15.3 27.7 16.5 31.5 7 10 Alarm State:  0
Thu Nov 16 19:00:24 PST 2017 ON: 19.99 +20.0 20.05 -15.4 27.6 16.5 31.5 7 9 Alarm State:  0
Thu Nov 16 18:59:23 PST 2017 ON: 19.99 +20.0 20.06 -15.8 27.0 16.9 31.4 7 9 Alarm State:  0
Thu Nov 16 18:58:21 PST 2017 ON: 20.00 +20.0 20.06 -15.7 27.2 16.8 31.3 8 9 Alarm State:  0
Thu Nov 16 18:57:20 PST 2017 ON: 19.99 +20.0 20.04 -15.3 27.7 16.5 31.4 7 10 Alarm State:  0
Thu Nov 16 18:56:18 PST 2017 ON: 20.00 +20.0 20.05 -15.2 27.9 16.3 31.5 7 9 Alarm State:  0
Thu Nov 16 18:55:17 PST 2017 ON: 20.00 +20.0 20.06 -15.3 27.7 16.5 31.5 8 10 Alarm State:  0
Thu Nov 16 18:54:15 PST 2017 ON: 19.99 +20.0 20.03 -15.1 28.0 16.3 31.5 7 11 Alarm State:  0
Thu Nov 16 18:53:14 PST 2017 ON: 19.99 +20.0 20.05 -15.9 26.9 17.0 31.2 8 9 Alarm State:  0
Thu Nov 16 18:52:12 PST 2017 ON: 19.99 +20.0 20.04 -15.0 28.2 16.1 31.6 7 10 Alarm State:  0
Thu Nov 16 18:51:11 PST 2017 ON: 19.99 +20.0 20.05 -15.5 27.5 16.6 31.4 7 9 Alarm State:  0
Thu Nov 16 18:50:09 PST 2017 ON: 20.00 +20.0 20.05 -15.4 27.6 16.5 31.5 8 10 Alarm State:  0
Thu Nov 16 18:49:08 PST 2017 ON: 20.00 +20.0 20.04 -15.3 27.8 16.4 31.5 7 10 Alarm State:  0
Thu Nov 16 18:48:06 PST 2017 ON: 19.99 +20.0 20.04 -15.4 27.6 16.5 31.5 7 10 Alarm State:  0
Thu Nov 16 18:47:05 PST 2017 ON: 19.99 +20.0 20.05 -15.5 27.4 16.7 31.5 8 9 Alarm State:  0
Thu Nov 16 18:46:03 PST 2017 ON: 20.00 +20.0 20.04 -15.1 28.0 16.3 31.5 7 10 Alarm State:  0
Thu Nov 16 18:45:02 PST 2017 ON: 20.00 +20.0 20.05 -15.3 27.8 16.4 31.5 7 10 Alarm State:  0
Thu Nov 16 18:44:00 PST 2017 ON: 19.99 +20.0 20.07 -15.7 27.1 16.9 31.3 8 9 Alarm State:  0
Thu Nov 16 18:42:59 PST 2017 ON: 20.00 +20.0 20.06 -15.5 27.4 16.7 31.4 7 9 Alarm State:  0
Thu Nov 16 18:41:57 PST 2017 ON: 19.99 +20.0 20.06 -15.4 27.6 16.5 31.5 7 9 Alarm State:  0
Thu Nov 16 18:40:56 PST 2017 ON: 19.99 +20.0 20.04 -15.4 27.6 16.5 31.4 7 10 Alarm State:  0
Thu Nov 16 18:39:54 PST 2017 ON: 20.00 +20.0 20.04 -15.4 27.6 16.5 31.4 7 9 Alarm State:  0
Thu Nov 16 18:38:53 PST 2017 ON: 20.00 +20.0 20.05 -15.3 27.7 16.5 31.5 8 10 Alarm State:  0
Thu Nov 16 18:37:51 PST 2017 ON: 19.99 +20.0 20.05 -15.4 27.6 16.5 31.5 7 10 Alarm State:  0
Thu Nov 16 18:36:50 PST 2017 ON: 19.99 +20.0 20.05 -15.5 27.5 16.6 31.4 8 9 Alarm State:  0
Thu Nov 16 18:35:48 PST 2017 ON: 20.00 +20.0 20.05 -15.3 27.7 16.5 31.5 8 10 Alarm State:  0
Thu Nov 16 18:34:47 PST 2017 ON: 19.99 +20.0 20.05 -15.3 27.8 16.4 31.5 7 10 Alarm State:  0
Thu Nov 16 18:33:45 PST 2017 ON: 20.00 +20.0 20.04 -15.4 27.6 16.5 31.5 7 10 Alarm State:  0
Thu Nov 16 18:32:44 PST 2017 ON: 20.00 +20.0 20.06 -15.3 27.8 16.4 31.4 7 10 Alarm State:  0
Thu Nov 16 18:31:42 PST 2017 ON: 20.00 +20.0 20.06 -15.5 27.5 16.6 31.4 7 9 Alarm State:  0
Thu Nov 16 18:30:41 PST 2017 ON: 19.99 +20.0 20.05 -15.5 27.5 16.6 31.4 8 9 Alarm State:  0
Thu Nov 16 18:29:39 PST 2017 ON: 20.00 +20.0 20.05 -15.3 27.8 16.4 31.5 7 10 Alarm State:  0
Thu Nov 16 18:28:38 PST 2017 ON: 20.00 +20.0 20.06 -15.4 27.6 16.5 31.4 8 9 Alarm State:  0
Thu Nov 16 18:27:36 PST 2017 ON: 19.99 +20.0 20.05 -15.6 27.3 16.8 31.4 8 10 Alarm State:  0
Thu Nov 16 18:26:35 PST 2017 ON: 20.00 +20.0 20.05 -15.3 27.7 16.5 31.5 7 9 Alarm State:  0
Thu Nov 16 18:25:33 PST 2017 ON: 20.00 +20.0 20.07 -15.7 27.2 16.8 31.3 7 9 Alarm State:  0
Thu Nov 16 18:24:32 PST 2017 ON: 20.00 +20.0 20.05 -15.3 27.7 16.5 31.5 7 10 Alarm State:  0
Thu Nov 16 18:23:30 PST 2017 ON: 19.99 +20.0 20.05 -15.5 27.4 16.7 31.4 7 9 Alarm State:  0
Thu Nov 16 18:22:29 PST 2017 ON: 20.00 +20.0 20.05 -15.7 27.2 16.8 31.4 8 9 Alarm State:  0
Thu Nov 16 18:21:27 PST 2017 ON: 20.00 +20.0 20.05 -15.3 27.7 16.5 31.5 7 10 Alarm State:  0
Thu Nov 16 18:20:16 PST 2017  Alarm State: 0
Thu Nov 16 18:20:16 PST 2017 Chiller did not report ON, got this reading: 
Thu Nov 16 18:19:15 PST 2017 ON: 20.00 +20.0 20.05 -15.3 27.7 16.5 31.5 7 9 Alarm State:  0
Thu Nov 16 18:18:13 PST 2017 ON: 20.00 +20.0 20.05 -15.2 27.9 16.3 31.6 7 10 Alarm State:  0
Thu Nov 16 18:17:12 PST 2017 ON: 19.99 +20.0 20.05 -15.5 27.4 16.7 31.3 7 10 Alarm State:  0
Thu Nov 16 18:16:10 PST 2017 ON: 20.00 +20.0 20.05 -15.5 27.5 16.6 31.4 7 9 Alarm State:  0
Thu Nov 16 18:15:09 PST 2017 ON: 20.00 +20.0 20.06 -15.6 27.3 16.8 31.4 8 9 Alarm State:  0
Thu Nov 16 18:14:07 PST 2017 ON: 19.99 +20.0 20.04 -15.0 28.2 16.1 31.6 7 10 Alarm State:  0
Thu Nov 16 18:13:06 PST 2017 ON: 20.00 +20.0 20.05 -15.4 27.6 16.5 31.4 8 10 Alarm State:  0
Thu Nov 16 18:12:04 PST 2017 ON: 19.99 +20.0 20.06 -15.5 27.5 16.6 31.4 8 10 Alarm State:  0
Thu Nov 16 18:11:03 PST 2017 ON: 19.99 +20.0 20.05 -15.3 27.7 16.5 31.5 7 9 Alarm State:  0
Thu Nov 16 18:10:01 PST 2017 ON: 20.00 +20.0 20.05 -15.3 27.8 16.4 31.5 7 10 Alarm State:  0
Thu Nov 16 18:09:00 PST 2017 ON: 19.99 +20.0 20.05 -15.5 27.4 16.7 31.3 7 10 Alarm State:  0
Thu Nov 16 18:07:58 PST 2017 ON: 19.99 +20.0 20.06 -15.5 27.4 16.7 31.4 7 9 Alarm State:  0
Thu Nov 16 18:06:57 PST 2017 ON: 20.00 +20.0 20.05 -15.6 27.3 16.8 31.4 8 9 Alarm State:  0
Thu Nov 16 18:05:55 PST 2017 ON: 19.99 +20.0 20.05 -15.3 27.7 16.5 31.5 7 10 Alarm State:  0
Thu Nov 16 18:04:54 PST 2017 ON: 19.99 +20.0 20.05 -15.4 27.6 16.5 31.4 7 10 Alarm State:  0
Thu Nov 16 18:03:52 PST 2017 ON: 19.99 +20.0 20.05 -15.5 27.5 16.6 31.4 7 9 Alarm State:  0
Thu Nov 16 18:02:51 PST 2017 ON: 20.00 +20.0 20.06 -15.5 27.4 16.7 31.4 7 9 Alarm State:  0
Thu Nov 16 18:01:49 PST 2017 ON: 19.99 +20.0 20.03 -15.3 27.7 16.5 31.4 7 10 Alarm State:  0
Thu Nov 16 18:00:48 PST 2017 ON: 19.99 +20.0 20.05 -15.3 27.7 16.5 31.4 7 9 Alarm State:  0
Thu Nov 16 17:59:46 PST 2017 ON: 20.00 +20.0 20.05 -15.3 27.8 16.4 31.5 7 10 Alarm State:  0
Thu Nov 16 17:58:45 PST 2017 ON: 20.00 +20.0 20.07 -15.7 27.2 16.8 31.3 8 9 Alarm State:  0
Thu Nov 16 17:57:43 PST 2017 ON: 19.99 +20.0 20.04 -15.3 27.7 16.5 31.5 7 10 Alarm State:  0
Thu Nov 16 17:56:42 PST 2017 ON: 19.99 +20.0 20.05 -15.5 27.5 16.6 31.4 8 10 Alarm State:  0
Thu Nov 16 17:55:40 PST 2017 ON: 20.00 +20.0 20.05 -15.4 27.6 16.5 31.4 8 9 Alarm State:  0
Thu Nov 16 17:54:39 PST 2017 ON: 19.99 +20.0 20.05 -15.5 27.5 16.6 31.4 7 10 Alarm State:  0
Thu Nov 16 17:53:37 PST 2017 ON: 20.00 +20.0 20.05 -15.1 28.0 16.3 31.5 7 10 Alarm State:  0
Thu Nov 16 17:52:36 PST 2017 ON: 20.00 +20.0 20.06 -15.3 27.7 16.5 31.4 7 10 Alarm State:  0
Thu Nov 16 17:51:34 PST 2017 ON: 19.99 +20.0 20.05 -15.3 27.7 16.5 31.5 7 10 Alarm State:  0
Thu Nov 16 17:50:33 PST 2017 ON: 19.99 +20.0 20.04 -15.5 27.5 16.6 31.4 7 10 Alarm State:  0
Thu Nov 16 17:49:31 PST 2017 ON: 20.00 +20.0 20.05 -15.5 27.4 16.7 31.4 7 9 Alarm State:  0
Thu Nov 16 17:48:30 PST 2017 ON: 20.00 +20.0 20.05 -15.5 27.4 16.7 31.3 7 10 Alarm State:  0
Thu Nov 16 17:47:28 PST 2017 ON: 19.99 +20.0 20.06 -15.4 27.6 16.5 31.5 8 9 Alarm State:  0
Thu Nov 16 17:46:27 PST 2017 ON: 20.00 +20.0 20.07 -15.5 27.4 16.7 31.4 7 9 Alarm State:  0
Thu Nov 16 17:45:25 PST 2017 ON: 19.99 +20.0 20.05 -15.5 27.5 16.6 31.4 8 9 Alarm State:  0
Thu Nov 16 17:44:24 PST 2017 ON: 19.99 +20.0 20.04 -15.4 27.6 16.5 31.5 7 10 Alarm State:  0
Thu Nov 16 17:43:22 PST 2017 ON: 20.00 +20.0 20.04 -15.3 27.7 16.5 31.5 7 10 Alarm State:  0
Thu Nov 16 17:42:21 PST 2017 ON: 20.00 +20.0 20.06 -15.6 27.3 16.8 31.4 8 10 Alarm State:  0
Thu Nov 16 17:41:19 PST 2017 ON: 19.99 +20.0 20.05 -15.5 27.5 16.6 31.4 7 9 Alarm State:  0
Thu Nov 16 17:40:18 PST 2017 ON: 20.00 +20.0 20.03 -15.3 27.7 16.5 31.5 7 10 Alarm State:  0
Thu Nov 16 17:39:16 PST 2017 ON: 20.01 +20.0 20.06 -15.5 27.4 16.7 31.5 8 9 Alarm State:  0
Thu Nov 16 17:38:15 PST 2017 ON: 20.00 +20.0 20.06 -15.7 27.2 16.8 31.2 7 10 Alarm State:  0
Thu Nov 16 17:37:13 PST 2017 ON: 19.99 +20.0 20.06 -15.5 27.5 16.6 31.4 7 9 Alarm State:  0
Thu Nov 16 17:36:12 PST 2017 ON: 20.00 +20.0 20.05 -15.2 27.9 16.3 31.5 7 9 Alarm State:  0
Thu Nov 16 17:35:10 PST 2017 ON: 20.01 +20.0 20.06 -15.7 27.1 16.9 31.3 7 9 Alarm State:  0
Thu Nov 16 17:34:09 PST 2017 ON: 19.99 +20.0 20.05 -15.3 27.8 16.4 31.5 7 10 Alarm State:  0
Thu Nov 16 17:33:07 PST 2017 ON: 19.99 +20.0 20.04 -15.5 27.5 16.6 31.4 8 10 Alarm State:  0
Thu Nov 16 17:32:06 PST 2017 ON: 20.00 +20.0 20.05 -15.5 27.5 16.6 31.4 7 9 Alarm State:  0
Thu Nov 16 17:31:04 PST 2017 ON: 20.01 +20.0 20.07 -15.8 27.0 16.9 31.3 8 9 Alarm State:  0
Thu Nov 16 17:30:03 PST 2017 ON: 19.99 +20.0 20.06 -15.5 27.5 16.6 31.4 7 10 Alarm State:  0
Thu Nov 16 17:29:01 PST 2017 ON: 19.98 +20.0 20.04 -15.2 27.9 16.3 31.6 7 10 Alarm State:  0
Thu Nov 16 17:28:00 PST 2017 ON: 19.99 +20.0 20.05 -15.3 27.8 16.4 31.5 7 9 Alarm State:  0
Thu Nov 16 17:26:58 PST 2017 ON: 20.00 +20.0 20.06 -15.4 27.6 16.5 31.5 7 9 Alarm State:  0
Thu Nov 16 17:25:57 PST 2017 ON: 19.99 +20.0 20.06 -15.5 27.4 16.7 31.4 7 10 Alarm State:  0
Thu Nov 16 17:24:55 PST 2017 ON: 19.99 +20.0 20.06 -15.5 27.4 16.7 31.5 7 9 Alarm State:  0
Thu Nov 16 17:23:54 PST 2017 ON: 20.00 +20.0 20.04 -15.3 27.8 16.4 31.5 7 10 Alarm State:  0
Thu Nov 16 17:22:52 PST 2017 ON: 20.00 +20.0 20.06 -15.6 27.3 16.8 31.3 7 9 Alarm State:  0
Thu Nov 16 17:21:51 PST 2017 ON: 20.00 +20.0 20.05 -15.3 27.7 16.5 31.5 7 9 Alarm State:  0
Thu Nov 16 17:20:49 PST 2017 ON: 19.99 +20.0 20.05 -15.3 27.8 16.4 31.5 7 10 Alarm State:  0
Thu Nov 16 17:19:48 PST 2017 ON: 19.99 +20.0 20.05 -15.5 27.5 16.6 31.4 8 10 Alarm State:  0
Thu Nov 16 17:18:46 PST 2017 ON: 20.00 +20.0 20.05 -15.5 27.5 16.6 31.4 7 9 Alarm State:  0
Thu Nov 16 17:17:45 PST 2017 ON: 20.00 +20.0 20.07 -15.7 27.2 16.8 31.5 7 9 Alarm State:  0
Thu Nov 16 17:16:43 PST 2017 ON: 19.98 +20.0 20.06 -15.5 27.5 16.6 31.4 7 9 Alarm State:  0
Thu Nov 16 17:15:42 PST 2017 ON: 19.99 +20.0 20.04 -15.1 28.1 16.2 31.6 7 9 Alarm State:  0
Thu Nov 16 17:14:40 PST 2017 ON: 20.00 +20.0 20.05 -15.6 27.3 16.8 31.4 8 9 Alarm State:  0
Thu Nov 16 17:13:39 PST 2017 ON: 20.00 +20.0 20.07 -15.6 27.3 16.8 31.4 7 9 Alarm State:  0
Thu Nov 16 17:12:37 PST 2017 ON: 19.99 +20.0 20.06 -15.5 27.5 16.6 31.4 7 9 Alarm State:  0
Thu Nov 16 17:11:36 PST 2017 ON: 20.00 +20.0 20.05 -15.5 27.4 16.7 31.4 8 9 Alarm State:  0
Thu Nov 16 17:10:34 PST 2017 ON: 20.00 +20.0 20.08 -15.7 27.1 16.9 31.3 7 8 Alarm State:  0
Thu Nov 16 17:09:33 PST 2017 ON: 19.99 +20.0 20.05 -15.5 27.4 16.7 31.5 7 10 Alarm State:  0
Thu Nov 16 17:08:31 PST 2017 ON: 20.00 +20.0 20.05 -15.5 27.4 16.7 31.4 8 9 Alarm State:  0
Thu Nov 16 17:07:30 PST 2017 ON: 20.00 +20.0 20.07 -15.5 27.4 16.7 31.4 7 9 Alarm State:  0
Thu Nov 16 17:06:29 PST 2017 ON: 19.99 +20.0 20.04 -15.3 27.8 16.4 31.5 8 10 Alarm State:  0
Thu Nov 16 17:05:27 PST 2017 ON: 20.00 +20.0 20.06 -15.5 27.5 16.6 31.4 8 9 Alarm State:  0
Thu Nov 16 17:04:26 PST 2017 ON: 19.99 +20.0 20.04 -15.2 27.9 16.3 31.5 7 10 Alarm State:  0
Thu Nov 16 17:03:24 PST 2017 ON: 20.00 +20.0 20.06 -15.3 27.8 16.4 31.5 8 9 Alarm State:  0
Thu Nov 16 17:02:23 PST 2017 ON: 19.99 +20.0 20.05 -15.2 27.9 16.3 31.5 7 10 Alarm State:  0
Thu Nov 16 17:01:21 PST 2017 ON: 19.99 +20.0 20.05 -15.1 28.0 16.3 31.6 7 9 Alarm State:  0
Thu Nov 16 17:00:20 PST 2017 ON: 20.00 +20.0 20.05 -15.5 27.5 16.6 31.4 7 9 Alarm State:  0
Thu Nov 16 16:59:18 PST 2017 ON: 19.99 +20.0 20.06 -15.8 27.0 16.9 31.3 7 9 Alarm State:  0
Thu Nov 16 16:58:17 PST 2017 ON: 20.00 +20.0 20.05 -15.1 28.1 16.2 31.6 8 9 Alarm State:  0
Thu Nov 16 16:57:15 PST 2017 ON: 20.00 +20.0 20.05 -15.5 27.5 16.6 31.4 7 10 Alarm State:  0
Thu Nov 16 16:56:14 PST 2017 ON: 19.99 +20.0 20.04 -15.1 28.0 16.3 31.6 7 10 Alarm State:  0
Thu Nov 16 16:55:12 PST 2017 ON: 20.00 +20.0 20.06 -15.7 27.2 16.8 31.3 8 9 Alarm State:  0
Thu Nov 16 16:54:11 PST 2017 ON: 19.99 +20.0 20.05 -15.5 27.5 16.6 31.4 7 10 Alarm State:  0
Thu Nov 16 16:53:09 PST 2017 ON: 19.99 +20.0 20.04 -15.3 27.7 16.5 31.4 8 9 Alarm State:  0
Thu Nov 16 16:52:08 PST 2017 ON: 20.00 +20.0 20.06 -15.5 27.4 16.7 31.4 7 9 Alarm State:  0
Thu Nov 16 16:51:06 PST 2017 ON: 20.01 +20.0 20.07 -15.7 27.2 16.8 31.2 7 9 Alarm State:  0
Thu Nov 16 16:50:05 PST 2017 ON: 19.99 +20.0 20.05 -15.3 27.7 16.5 31.5 7 10 Alarm State:  0
Thu Nov 16 16:49:03 PST 2017 ON: 20.00 +20.0 20.04 -15.3 27.7 16.5 31.5 7 10 Alarm State:  0
Thu Nov 16 16:48:02 PST 2017 ON: 20.00 +20.0 20.05 -15.5 27.4 16.7 31.4 7 10 Alarm State:  0
Thu Nov 16 16:47:00 PST 2017 ON: 19.99 +20.0 20.06 -15.3 27.7 16.5 31.5 8 9 Alarm State:  0
Thu Nov 16 16:45:59 PST 2017 ON: 20.00 +20.0 20.05 -15.1 28.0 16.3 31.5 7 9 Alarm State:  0
Thu Nov 16 16:44:57 PST 2017 ON: 20.00 +20.0 20.06 -15.5 27.5 16.6 31.4 8 9 Alarm State:  0
Thu Nov 16 16:43:56 PST 2017 ON: 19.99 +20.0 20.05 -14.9 28.3 16.1 31.6 7 10 Alarm State:  0
Thu Nov 16 16:42:54 PST 2017 ON: 19.99 +20.0 20.05 -15.5 27.5 16.6 31.5 7 10 Alarm State:  0
Thu Nov 16 16:41:53 PST 2017 ON: 20.00 +20.0 20.04 -15.5 27.5 16.7 31.5 8 9 Alarm State:  0
Thu Nov 16 16:40:51 PST 2017 ON: 20.00 +20.0 20.05 -15.6 27.3 16.8 31.3 7 9 Alarm State:  0
Thu Nov 16 16:39:50 PST 2017 ON: 20.00 +20.0 20.04 -15.4 27.6 16.5 31.4 7 10 Alarm State:  0
Thu Nov 16 16:38:48 PST 2017 ON: 19.99 +20.0 20.05 -15.7 27.1 16.9 31.3 8 9 Alarm State:  0
Thu Nov 16 16:37:47 PST 2017 ON: 20.00 +20.0 20.05 -15.5 27.4 16.7 31.5 7 9 Alarm State:  0
Thu Nov 16 16:36:45 PST 2017 ON: 20.00 +20.0 20.06 -15.6 27.3 16.8 31.3 7 9 Alarm State:  0
Thu Nov 16 16:35:44 PST 2017 ON: 19.99 +20.0 20.04 -15.2 27.9 16.3 31.5 7 10 Alarm State:  0
Thu Nov 16 16:34:42 PST 2017 ON: 20.00 +20.0 20.06 -15.7 27.2 16.8 31.4 7 9 Alarm State:  0
Thu Nov 16 16:33:41 PST 2017 ON: 19.99 +20.0 20.04 -15.5 27.5 16.6 31.4 7 10 Alarm State:  0
Thu Nov 16 16:32:39 PST 2017 ON: 20.00 +20.0 20.05 -15.6 27.3 16.8 31.3 8 9 Alarm State:  0
Thu Nov 16 16:31:38 PST 2017 ON: 20.00 +20.0 20.05 -15.3 27.7 16.5 31.4 8 9 Alarm State:  0
Thu Nov 16 16:30:36 PST 2017 ON: 19.99 +20.0 20.04 -15.3 27.8 16.4 31.5 7 10 Alarm State:  0
Thu Nov 16 16:29:35 PST 2017 ON: 20.00 +20.0 20.04 -15.3 27.8 16.4 31.4 7 10 Alarm State:  0
Thu Nov 16 16:28:33 PST 2017 ON: 19.99 +20.0 20.04 -15.3 27.8 16.4 31.5 7 10 Alarm State:  0
Thu Nov 16 16:27:32 PST 2017 ON: 20.00 +20.0 20.06 -15.5 27.4 16.7 31.4 8 9 Alarm State:  0
Thu Nov 16 16:26:30 PST 2017 ON: 20.00 +20.0 20.05 -15.4 27.6 16.5 31.4 7 10 Alarm State:  0
Thu Nov 16 16:25:29 PST 2017 ON: 19.99 +20.0 20.04 -15.3 27.8 16.4 31.5 7 10 Alarm State:  0
Thu Nov 16 16:24:27 PST 2017 ON: 20.00 +20.0 20.05 -15.6 27.3 16.8 31.3 7 9 Alarm State:  0
Thu Nov 16 16:23:26 PST 2017 ON: 20.00 +20.0 20.06 -15.5 27.5 16.6 31.5 7 9 Alarm State:  0
Thu Nov 16 16:22:24 PST 2017 ON: 19.99 +20.0 20.06 -15.4 27.6 16.5 31.5 8 9 Alarm State:  0
Thu Nov 16 16:21:23 PST 2017 ON: 19.99 +20.0 20.04 -15.2 27.9 16.3 31.5 7 10 Alarm State:  0
Thu Nov 16 16:20:21 PST 2017 ON: 19.99 +20.0 20.03 -15.3 27.7 16.5 31.5 7 10 Alarm State:  0
Thu Nov 16 16:19:20 PST 2017 ON: 20.00 +20.0 20.05 -15.3 27.8 16.4 31.5 7 9 Alarm State:  0
Thu Nov 16 16:18:18 PST 2017 ON: 19.99 +20.0 20.05 -15.6 27.3 16.8 31.3 7 10 Alarm State:  0
Thu Nov 16 16:17:17 PST 2017 ON: 19.98 +20.0 20.04 -15.3 27.7 16.5 31.5 7 10 Alarm State:  0
Thu Nov 16 16:16:15 PST 2017 ON: 20.00 +20.0 20.05 -15.6 27.3 16.8 31.3 7 9 Alarm State:  0
Thu Nov 16 16:15:14 PST 2017 ON: 20.00 +20.0 20.06 -15.3 27.7 16.5 31.5 7 9 Alarm State:  0
Thu Nov 16 16:14:12 PST 2017 ON: 19.99 +20.0 20.05 -15.2 27.9 16.3 31.5 7 10 Alarm State:  0
Thu Nov 16 16:13:11 PST 2017 ON: 19.98 +20.0 20.05 -15.5 27.4 16.7 31.5 7 9 Alarm State:  0
Thu Nov 16 16:12:09 PST 2017 ON: 20.00 +20.0 20.05 -15.3 27.8 16.4 31.5 7 9 Alarm State:  0
Thu Nov 16 16:11:08 PST 2017 ON: 19.99 +20.0 20.06 -15.7 27.2 16.8 31.4 8 9 Alarm State:  0
Thu Nov 16 16:10:06 PST 2017 ON: 19.99 +20.0 20.04 -15.3 27.8 16.4 31.5 7 10 Alarm State:  0
Thu Nov 16 16:09:05 PST 2017 ON: 19.99 +20.0 20.05 -15.4 27.6 16.5 31.4 8 9 Alarm State:  0
Thu Nov 16 16:08:03 PST 2017 ON: 20.00 +20.0 20.05 -15.2 27.9 16.3 31.5 7 10 Alarm State:  0
Thu Nov 16 16:07:02 PST 2017 ON: 19.99 +20.0 20.05 -15.5 27.5 16.6 31.4 7 10 Alarm State:  0
Thu Nov 16 16:06:00 PST 2017 ON: 19.99 +20.0 20.05 -15.4 27.6 16.5 31.4 8 9 Alarm State:  0
Thu Nov 16 16:04:59 PST 2017 ON: 20.00 +20.0 20.05 -15.3 27.7 16.5 31.5 7 9 Alarm State:  0
Thu Nov 16 16:03:57 PST 2017 ON: 19.99 +20.0 20.05 -15.5 27.4 16.7 31.4 7 10 Alarm State:  0
Thu Nov 16 16:02:56 PST 2017 ON: 19.99 +20.0 20.05 -15.3 27.7 16.5 31.4 8 9 Alarm State:  0
Thu Nov 16 16:01:54 PST 2017 ON: 19.99 +20.0 20.05 -15.5 27.4 16.7 31.4 7 9 Alarm State:  0
Thu Nov 16 16:00:53 PST 2017 ON: 20.00 +20.0 20.05 -15.3 27.8 16.4 31.5 7 9 Alarm State:  0
Thu Nov 16 15:59:51 PST 2017 ON: 19.99 +20.0 20.05 -15.6 27.3 16.8 31.3 8 9 Alarm State:  0
Thu Nov 16 15:58:50 PST 2017 ON: 19.99 +20.0 20.06 -15.4 27.6 16.5 31.4 7 9 Alarm State:  0
Thu Nov 16 15:57:48 PST 2017 ON: 19.99 +20.0 20.06 -15.5 27.5 16.6 31.5 8 9 Alarm State:  0
Thu Nov 16 15:56:47 PST 2017 ON: 20.00 +20.0 20.06 -15.7 27.2 16.8 31.3 8 9 Alarm State:  0
Thu Nov 16 15:55:45 PST 2017 ON: 19.99 +20.0 20.06 -15.6 27.3 16.8 31.3 7 9 Alarm State:  0
Thu Nov 16 15:54:44 PST 2017 ON: 19.99 +20.0 20.05 -15.2 27.9 16.3 31.5 7 9 Alarm State:  0
Thu Nov 16 15:53:42 PST 2017 ON: 20.00 +20.0 20.06 -15.5 27.4 16.7 31.4 7 9 Alarm State:  0
Thu Nov 16 15:52:41 PST 2017 ON: 20.00 +20.0 20.04 -15.4 27.6 16.5 31.5 7 10 Alarm State:  0
Thu Nov 16 15:51:39 PST 2017 ON: 20.00 +20.0 20.06 -15.5 27.5 16.6 31.3 7 9 Alarm State:  0
Thu Nov 16 15:50:38 PST 2017 ON: 19.99 +20.0 20.05 -15.5 27.4 16.7 31.4 7 9 Alarm State:  0
Thu Nov 16 15:49:36 PST 2017 ON: 20.00 +20.0 20.05 -15.4 27.6 16.5 31.5 8 9 Alarm State:  0
Thu Nov 16 15:48:35 PST 2017 ON: 20.00 +20.0 20.05 -15.6 27.3 16.8 31.3 7 10 Alarm State:  0
Thu Nov 16 15:47:33 PST 2017 ON: 19.99 +20.0 20.05 -15.5 27.5 16.6 31.5 7 10 Alarm State:  0
Thu Nov 16 15:46:32 PST 2017 ON: 20.00 +20.0 20.05 -15.4 27.6 16.5 31.4 8 9 Alarm State:  0
Thu Nov 16 15:45:30 PST 2017 ON: 20.00 +20.0 20.06 -15.7 27.1 16.9 31.3 7 9 Alarm State:  0
Thu Nov 16 15:44:29 PST 2017 ON: 19.99 +20.0 20.05 -15.4 27.6 16.5 31.5 7 9 Alarm State:  0
Thu Nov 16 15:43:27 PST 2017 ON: 20.00 +20.0 20.04 -15.5 27.4 16.7 31.3 8 10 Alarm State:  0
Thu Nov 16 15:42:26 PST 2017 ON: 20.00 +20.0 20.06 -15.5 27.5 16.6 31.3 7 9 Alarm State:  0
Thu Nov 16 15:41:25 PST 2017 ON: 19.99 +20.0 20.05 -15.3 27.7 16.5 31.5 8 9 Alarm State:  0
Thu Nov 16 15:40:23 PST 2017 ON: 19.99 +20.0 20.04 -15.1 28.0 16.3 31.6 7 10 Alarm State:  0
Thu Nov 16 15:39:22 PST 2017 ON: 19.99 +20.0 20.04 -15.5 27.5 16.6 31.4 7 10 Alarm State:  0
Thu Nov 16 15:38:20 PST 2017 ON: 20.00 +20.0 20.05 -15.4 27.6 16.5 31.4 8 9 Alarm State:  0
Thu Nov 16 15:37:18 PST 2017 ON: 20.00 +20.0 20.05 -15.5 27.5 16.6 31.4 7 10 Alarm State:  0
Thu Nov 16 15:36:17 PST 2017 ON: 19.99 +20.0 20.05 -15.5 27.4 16.7 31.5 8 10 Alarm State:  0
Thu Nov 16 15:35:15 PST 2017 ON: 19.99 +20.0 20.05 -15.7 27.2 16.8 31.3 7 9 Alarm State:  0
Thu Nov 16 15:34:14 PST 2017 ON: 20.00 +20.0 20.06 -15.6 27.3 16.8 31.3 7 9 Alarm State:  0
Thu Nov 16 15:33:12 PST 2017 ON: 19.99 +20.0 20.04 -15.0 28.2 16.1 31.6 7 10 Alarm State:  0
Thu Nov 16 15:32:11 PST 2017 ON: 20.00 +20.0 20.04 -15.5 27.5 16.6 31.4 7 10 Alarm State:  0
Thu Nov 16 15:30:59 PST 2017 ON: 20.00 +20.0 20.05 -15.4 27.6 16.5 31.4 7 9 Alarm State:  0
Thu Nov 16 15:29:58 PST 2017 ON: 19.99 +20.0 20.05 -15.4 27.6 16.5 31.5 7 9 Alarm State:  0
Thu Nov 16 15:28:56 PST 2017 ON: 20.00 +20.0 20.05 -15.4 27.6 16.5 31.4 8 10 Alarm State:  0
Thu Nov 16 15:27:55 PST 2017 ON: 19.99 +20.0 20.05 -15.3 27.8 16.4 31.5 7 10 Alarm State:  0
Thu Nov 16 15:26:53 PST 2017 ON: 19.99 +20.0 20.04 -15.3 27.7 16.5 31.5 7 9 Alarm State:  0
Thu Nov 16 15:25:52 PST 2017 ON: 20.00 +20.0 20.04 -15.3 27.8 16.4 31.6 7 10 Alarm State:  0
Thu Nov 16 15:24:50 PST 2017 ON: 19.99 +20.0 20.05 -15.3 27.8 16.4 31.5 7 10 Alarm State:  0
Thu Nov 16 15:23:49 PST 2017 ON: 19.99 +20.0 20.05 -15.5 27.4 16.7 31.4 7 9 Alarm State:  0
Thu Nov 16 15:22:47 PST 2017 ON: 20.00 +20.0 20.05 -15.5 27.5 16.6 31.4 7 9 Alarm State:  0
Thu Nov 16 15:21:46 PST 2017 ON: 20.00 +20.0 20.07 -15.8 27.0 16.9 31.1 7 9 Alarm State:  0
Thu Nov 16 15:20:44 PST 2017 ON: 20.00 +20.0 20.05 -15.4 27.6 16.5 31.4 8 9 Alarm State:  0
Thu Nov 16 15:19:43 PST 2017 ON: 19.99 +20.0 20.04 -15.5 27.4 16.7 31.3 7 10 Alarm State:  0
Thu Nov 16 15:18:41 PST 2017 ON: 19.99 +20.0 20.03 -15.2 27.9 16.3 31.5 7 10 Alarm State:  0
Thu Nov 16 15:17:40 PST 2017 ON: 20.00 +20.0 20.05 -15.4 27.6 16.5 31.4 8 9 Alarm State:  0
Thu Nov 16 15:16:38 PST 2017 ON: 20.00 +20.0 20.06 -15.3 27.7 16.5 31.5 7 9 Alarm State:  0
Thu Nov 16 15:15:37 PST 2017 ON: 19.99 +20.0 20.05 -15.5 27.5 16.6 31.4 7 9 Alarm State:  0
Thu Nov 16 15:14:35 PST 2017 ON: 20.00 +20.0 20.05 -15.6 27.3 16.8 31.4 7 9 Alarm State:  0
Thu Nov 16 15:13:34 PST 2017 ON: 20.00 +20.0 20.05 -15.6 27.3 16.8 31.4 7 9 Alarm State:  0
Thu Nov 16 15:12:32 PST 2017 ON: 20.00 +20.0 20.06 -15.4 27.6 16.5 31.5 8 9 Alarm State:  0
Thu Nov 16 15:11:31 PST 2017 ON: 19.99 +20.0 20.05 -15.4 27.6 16.5 31.5 7 9 Alarm State:  0
Thu Nov 16 15:10:29 PST 2017 ON: 20.00 +20.0 20.05 -15.5 27.4 16.7 31.4 7 9 Alarm State:  0
Thu Nov 16 15:09:28 PST 2017 ON: 19.99 +20.0 20.05 -15.4 27.6 16.5 31.5 7 9 Alarm State:  0
Thu Nov 16 15:08:27 PST 2017 ON: 20.00 +20.0 20.05 -15.5 27.5 16.6 31.5 7 9 Alarm State:  0
Thu Nov 16 15:07:25 PST 2017 ON: 20.00 +20.0 20.04 -15.3 27.7 16.5 31.5 7 10 Alarm State:  0
Thu Nov 16 15:06:23 PST 2017 ON: 19.99 +20.0 20.06 -15.4 27.6 16.5 31.4 8 9 Alarm State:  0
Thu Nov 16 15:05:22 PST 2017 ON: 19.99 +20.0 20.04 -15.4 27.6 16.5 31.5 7 10 Alarm State:  0
Thu Nov 16 15:04:20 PST 2017 ON: 20.00 +20.0 20.05 -15.5 27.5 16.6 31.4 8 10 Alarm State:  0
Thu Nov 16 15:03:19 PST 2017 ON: 19.99 +20.0 20.04 -15.0 28.2 16.1 31.5 7 10 Alarm State:  0
Thu Nov 16 15:02:18 PST 2017 ON: 20.00 +20.0 20.05 -15.2 27.9 16.3 31.5 7 9 Alarm State:  0
Thu Nov 16 15:01:16 PST 2017 ON: 20.00 +20.0 20.05 -15.2 27.9 16.3 31.5 7 10 Alarm State:  0
Thu Nov 16 15:00:15 PST 2017 ON: 20.00 +20.0 20.06 -15.7 27.2 16.8 31.3 7 9 Alarm State:  0
Thu Nov 16 14:59:13 PST 2017 ON: 20.00 +20.0 20.05 -15.5 27.5 16.6 31.4 7 10 Alarm State:  0
Thu Nov 16 14:58:12 PST 2017 ON: 19.99 +20.0 20.04 -15.4 27.6 16.5 31.4 7 10 Alarm State:  0
Thu Nov 16 14:57:10 PST 2017 ON: 20.00 +20.0 20.05 -15.3 27.7 16.5 31.5 7 9 Alarm State:  0
Thu Nov 16 14:56:09 PST 2017 ON: 20.00 +20.0 20.07 -15.5 27.5 16.6 31.4 7 9 Alarm State:  0
Thu Nov 16 14:55:07 PST 2017 ON: 19.99 +20.0 20.06 -15.4 27.6 16.5 31.4 7 9 Alarm State:  0
Thu Nov 16 14:54:06 PST 2017 ON: 20.00 +20.0 20.05 -15.5 27.5 16.6 31.3 7 9 Alarm State:  0
Thu Nov 16 14:53:04 PST 2017 ON: 20.00 +20.0 20.06 -15.5 27.5 16.6 31.5 8 9 Alarm State:  0
Thu Nov 16 14:52:03 PST 2017 ON: 19.99 +20.0 20.05 -15.5 27.4 16.7 31.5 7 9 Alarm State:  0
Thu Nov 16 14:51:01 PST 2017 ON: 19.99 +20.0 20.04 -15.3 27.7 16.5 31.5 7 9 Alarm State:  0
Thu Nov 16 14:50:00 PST 2017 ON: 20.01 +20.0 20.06 -15.7 27.2 16.8 31.3 8 9 Alarm State:  0
Thu Nov 16 14:48:58 PST 2017 ON: 19.99 +20.0 20.07 -15.3 27.7 16.5 31.5 7 9 Alarm State:  0
Thu Nov 16 14:47:57 PST 2017 ON: 19.99 +20.0 20.04 -15.3 27.7 16.5 31.5 7 10 Alarm State:  0
Thu Nov 16 14:46:55 PST 2017 ON: 19.99 +20.0 20.04 -15.5 27.5 16.6 31.4 8 10 Alarm State:  0
Thu Nov 16 14:45:54 PST 2017 ON: 20.00 +20.0 20.05 -15.6 27.3 16.8 31.4 7 9 Alarm State:  0
Thu Nov 16 14:44:52 PST 2017 ON: 20.00 +20.0 20.06 -15.4 27.6 16.5 31.4 7 9 Alarm State:  0
Thu Nov 16 14:43:51 PST 2017 ON: 20.00 +20.0 20.05 -15.4 27.6 16.5 31.5 7 10 Alarm State:  0
Thu Nov 16 14:42:49 PST 2017 ON: 19.99 +20.0 20.05 -15.3 27.7 16.5 31.5 7 9 Alarm State:  0
Thu Nov 16 14:41:48 PST 2017 ON: 20.00 +20.0 20.05 -15.5 27.5 16.6 31.4 8 9 Alarm State:  0
Thu Nov 16 14:40:46 PST 2017 ON: 19.99 +20.0 20.07 -15.6 27.3 16.8 31.5 7 9 Alarm State:  0
Thu Nov 16 14:39:45 PST 2017 ON: 19.99 +20.0 20.05 -15.5 27.4 16.7 31.4 7 10 Alarm State:  0
Thu Nov 16 14:38:43 PST 2017 ON: 19.99 +20.0 20.05 -15.4 27.6 16.5 31.4 8 9 Alarm State:  0
Thu Nov 16 14:37:42 PST 2017 ON: 19.99 +20.0 20.05 -15.5 27.4 16.7 31.4 7 9 Alarm State:  0
Thu Nov 16 14:36:40 PST 2017 ON: 20.00 +20.0 20.06 -15.6 27.3 16.8 31.4 8 9 Alarm State:  0
Thu Nov 16 14:35:39 PST 2017 ON: 19.99 +20.0 20.05 -15.2 27.9 16.3 31.5 7 10 Alarm State:  0
Thu Nov 16 14:34:37 PST 2017 ON: 19.99 +20.0 20.04 -15.4 27.6 16.5 31.5 7 10 Alarm State:  0
Thu Nov 16 14:33:36 PST 2017 ON: 19.99 +20.0 20.05 -15.8 27.0 16.9 31.3 8 10 Alarm State:  0
Thu Nov 16 14:32:34 PST 2017 ON: 19.99 +20.0 20.04 -15.3 27.8 16.4 31.5 7 9 Alarm State:  0
Thu Nov 16 14:31:33 PST 2017 ON: 20.00 +20.0 20.05 -15.3 27.8 16.4 31.5 7 10 Alarm State:  0
Thu Nov 16 14:30:31 PST 2017 ON: 19.99 +20.0 20.06 -15.3 27.7 16.5 31.4 7 9 Alarm State:  0
Thu Nov 16 14:29:30 PST 2017 ON: 19.99 +20.0 20.05 -15.5 27.5 16.6 31.5 7 9 Alarm State:  0
Thu Nov 16 14:28:28 PST 2017 ON: 20.00 +20.0 20.08 -15.7 27.1 16.9 31.3 8 8 Alarm State:  0
Thu Nov 16 14:27:27 PST 2017 ON: 19.99 +20.0 20.04 -15.3 27.7 16.5 31.5 7 10 Alarm State:  0
Thu Nov 16 14:26:25 PST 2017 ON: 20.00 +20.0 20.05 -15.5 27.4 16.7 31.4 8 9 Alarm State:  0
Thu Nov 16 14:25:24 PST 2017 ON: 20.00 +20.0 20.05 -15.6 27.3 16.8 31.4 8 9 Alarm State:  0
Thu Nov 16 14:24:22 PST 2017 ON: 19.99 +20.0 20.06 -15.5 27.5 16.6 31.4 7 9 Alarm State:  0
Thu Nov 16 14:23:21 PST 2017 ON: 20.00 +20.0 20.04 -15.4 27.6 16.5 31.4 7 9 Alarm State:  0
Thu Nov 16 14:22:19 PST 2017 ON: 20.00 +20.0 20.06 -15.7 27.2 16.8 31.3 8 9 Alarm State:  0
Thu Nov 16 14:21:18 PST 2017 ON: 19.99 +20.0 20.04 -15.6 27.3 16.8 31.4 7 10 Alarm State:  0
Thu Nov 16 14:20:16 PST 2017 ON: 19.99 +20.0 20.04 -15.5 27.5 16.6 31.4 8 9 Alarm State:  0
Thu Nov 16 14:19:15 PST 2017 ON: 20.00 +20.0 20.05 -15.3 27.7 16.5 31.5 7 9 Alarm State:  0
Thu Nov 16 14:18:13 PST 2017 ON: 20.00 +20.0 20.06 -15.5 27.5 16.6 31.4 7 10 Alarm State:  0
Thu Nov 16 14:17:12 PST 2017 ON: 19.99 +20.0 20.05 -15.5 27.5 16.6 31.4 8 10 Alarm State:  0
Thu Nov 16 14:16:10 PST 2017 ON: 20.00 +20.0 20.05 -15.3 27.7 16.5 31.5 7 9 Alarm State:  0
Thu Nov 16 14:15:09 PST 2017 ON: 20.00 +20.0 20.05 -15.5 27.4 16.7 31.4 8 10 Alarm State:  0
Thu Nov 16 14:14:07 PST 2017 ON: 20.00 +20.0 20.05 -15.3 27.7 16.5 31.4 7 9 Alarm State:  0
Thu Nov 16 14:13:06 PST 2017 ON: 19.99 +20.0 20.05 -15.5 27.5 16.6 31.5 7 9 Alarm State:  0
Thu Nov 16 14:12:04 PST 2017 ON: 19.99 +20.0 20.04 -15.3 27.7 16.5 31.5 7 10 Alarm State:  0
Thu Nov 16 14:11:03 PST 2017 ON: 20.00 +20.0 20.05 -15.3 27.7 16.5 31.4 7 10 Alarm State:  0
Thu Nov 16 14:10:01 PST 2017 ON: 20.00 +20.0 20.05 -15.3 27.7 16.5 31.5 7 10 Alarm State:  0
Thu Nov 16 14:09:00 PST 2017 ON: 19.98 +20.0 20.04 -15.2 27.9 16.3 31.5 7 10 Alarm State:  0
Thu Nov 16 14:07:58 PST 2017 ON: 19.99 +20.0 20.03 -15.3 27.7 16.5 31.5 7 9 Alarm State:  0
Thu Nov 16 14:06:57 PST 2017 ON: 20.00 +20.0 20.05 -15.7 27.2 16.8 31.3 7 9 Alarm State:  0
Thu Nov 16 14:05:55 PST 2017 ON: 20.00 +20.0 20.04 -15.2 27.9 16.3 31.5 7 10 Alarm State:  0
Thu Nov 16 14:04:54 PST 2017 ON: 19.99 +20.0 20.05 -15.2 27.9 16.3 31.5 7 10 Alarm State:  0
Thu Nov 16 14:03:52 PST 2017 ON: 19.99 +20.0 20.05 -15.5 27.5 16.6 31.3 7 9 Alarm State:  0
Thu Nov 16 14:02:51 PST 2017 ON: 19.99 +20.0 20.03 -15.3 27.8 16.4 31.5 8 10 Alarm State:  0
Thu Nov 16 14:01:49 PST 2017 ON: 20.00 +20.0 20.06 -15.7 27.1 16.9 31.3 8 9 Alarm State:  0
Thu Nov 16 14:00:48 PST 2017 ON: 19.99 +20.0 20.06 -15.7 27.1 16.9 31.4 8 9 Alarm State:  0
Thu Nov 16 13:59:46 PST 2017 ON: 19.99 +20.0 20.05 -15.6 27.3 16.8 31.4 7 9 Alarm State:  0
Thu Nov 16 13:58:45 PST 2017 ON: 20.00 +20.0 20.05 -15.9 26.9 17.0 31.2 8 9 Alarm State:  0
Thu Nov 16 13:57:43 PST 2017 ON: 19.99 +20.0 20.05 -15.5 27.5 16.6 31.5 7 9 Alarm State:  0
Thu Nov 16 13:56:42 PST 2017 ON: 20.00 +20.0 20.07 -15.7 27.1 16.9 31.4 7 9 Alarm State:  0
Thu Nov 16 13:55:40 PST 2017 ON: 19.99 +20.0 20.06 -15.5 27.4 16.7 31.5 8 9 Alarm State:  0
Thu Nov 16 13:54:39 PST 2017 ON: 19.99 +20.0 20.05 -15.4 27.6 16.5 31.5 7 9 Alarm State:  0
Thu Nov 16 13:53:37 PST 2017 ON: 20.00 +20.0 20.06 -15.9 26.9 17.0 31.1 8 9 Alarm State:  0
Thu Nov 16 13:52:36 PST 2017 ON: 19.99 +20.0 20.04 -15.4 27.6 16.5 31.5 7 9 Alarm State:  0
Thu Nov 16 13:51:34 PST 2017 ON: 20.00 +20.0 20.06 -15.8 27.0 16.9 31.2 7 9 Alarm State:  0
Thu Nov 16 13:50:33 PST 2017 ON: 20.00 +20.0 20.07 -15.2 27.9 16.3 31.5 7 9 Alarm State:  0
Thu Nov 16 13:49:31 PST 2017 ON: 19.99 +20.0 20.05 -15.1 28.0 16.3 31.6 7 10 Alarm State:  0
Thu Nov 16 13:48:30 PST 2017 ON: 19.99 +20.0 20.04 -15.5 27.5 16.6 31.4 7 10 Alarm State:  0
Thu Nov 16 13:47:28 PST 2017 ON: 20.00 +20.0 20.06 -15.7 27.2 16.8 31.3 8 9 Alarm State:  0
Thu Nov 16 13:46:27 PST 2017 ON: 19.99 +20.0 20.06 -15.4 27.6 16.5 31.5 7 9 Alarm State:  0
Thu Nov 16 13:45:25 PST 2017 ON: 20.00 +20.0 20.04 -15.3 27.8 16.4 31.5 7 10 Alarm State:  0
Thu Nov 16 13:44:24 PST 2017 ON: 19.99 +20.0 20.05 -15.3 27.7 16.5 31.5 7 10 Alarm State:  0
Thu Nov 16 13:43:22 PST 2017 ON: 19.99 +20.0 20.06 -15.5 27.5 16.6 31.4 7 9 Alarm State:  0
Thu Nov 16 13:42:21 PST 2017 ON: 20.00 +20.0 20.05 -15.5 27.5 16.6 31.4 7 9 Alarm State:  0
Thu Nov 16 13:41:19 PST 2017 ON: 20.00 +20.0 20.05 -15.2 27.9 16.3 31.5 7 9 Alarm State:  0
Thu Nov 16 13:40:18 PST 2017 ON: 20.00 +20.0 20.06 -15.5 27.4 16.7 31.4 7 9 Alarm State:  0
Thu Nov 16 13:39:16 PST 2017 ON: 19.99 +20.0 20.05 -15.1 28.0 16.3 31.6 8 10 Alarm State:  0
Thu Nov 16 13:38:15 PST 2017 ON: 19.99 +20.0 20.04 -15.3 27.7 16.5 31.5 7 10 Alarm State:  0
Thu Nov 16 13:37:13 PST 2017 ON: 20.00 +20.0 20.05 -15.7 27.2 16.8 31.3 7 9 Alarm State:  0
Thu Nov 16 13:36:12 PST 2017 ON: 20.00 +20.0 20.06 -15.6 27.3 16.8 31.3 8 9 Alarm State:  0
Thu Nov 16 13:35:10 PST 2017 ON: 20.00 +20.0 20.06 -15.5 27.5 16.6 31.4 7 10 Alarm State:  0
Thu Nov 16 13:34:09 PST 2017 ON: 19.99 +20.0 20.04 -15.3 27.8 16.4 31.6 7 10 Alarm State:  0
Thu Nov 16 13:33:07 PST 2017 ON: 20.00 +20.0 20.04 -15.3 27.7 16.5 31.5 7 10 Alarm State:  0
Thu Nov 16 13:32:06 PST 2017 ON: 20.00 +20.0 20.07 -15.5 27.5 16.6 31.4 7 9 Alarm State:  0
Thu Nov 16 13:31:04 PST 2017 ON: 19.99 +20.0 20.04 -15.5 27.5 16.6 31.4 8 10 Alarm State:  0
Thu Nov 16 13:30:03 PST 2017 ON: 20.00 +20.0 20.05 -15.4 27.6 16.5 31.4 7 9 Alarm State:  0
Thu Nov 16 13:29:01 PST 2017 ON: 20.00 +20.0 20.06 -15.5 27.5 16.6 31.4 7 9 Alarm State:  0
Thu Nov 16 13:28:00 PST 2017 ON: 19.99 +20.0 20.05 -15.5 27.5 16.6 31.4 7 9 Alarm State:  0
Thu Nov 16 13:26:58 PST 2017 ON: 20.00 +20.0 20.05 -15.5 27.5 16.6 31.4 7 9 Alarm State:  0
Thu Nov 16 13:25:57 PST 2017 ON: 20.00 +20.0 20.05 -15.5 27.4 16.7 31.3 7 10 Alarm State:  0
Thu Nov 16 13:24:55 PST 2017 ON: 19.99 +20.0 20.05 -15.4 27.6 16.5 31.4 8 10 Alarm State:  0
Thu Nov 16 13:23:54 PST 2017 ON: 20.00 +20.0 20.05 -15.3 27.8 16.4 31.5 7 9 Alarm State:  0
Thu Nov 16 13:22:52 PST 2017 ON: 20.00 +20.0 20.05 -15.4 27.6 16.5 31.5 7 10 Alarm State:  0
Thu Nov 16 13:21:51 PST 2017 ON: 19.99 +20.0 20.05 -15.3 27.8 16.4 31.5 7 10 Alarm State:  0
Thu Nov 16 13:20:49 PST 2017 ON: 19.99 +20.0 20.05 -15.5 27.5 16.6 31.4 7 9 Alarm State:  0
Thu Nov 16 13:19:48 PST 2017 ON: 20.00 +20.0 20.07 -15.4 27.6 16.5 31.4 8 9 Alarm State:  0
Thu Nov 16 13:18:46 PST 2017 ON: 19.99 +20.0 20.06 -15.3 27.8 16.4 31.5 7 10 Alarm State:  0
Thu Nov 16 13:17:45 PST 2017 ON: 20.00 +20.0 20.06 -15.4 27.6 16.5 31.5 7 9 Alarm State:  0
Thu Nov 16 13:16:43 PST 2017 ON: 19.99 +20.0 20.05 -15.3 27.7 16.5 31.4 7 10 Alarm State:  0
Thu Nov 16 13:15:42 PST 2017 ON: 19.99 +20.0 20.05 -15.3 27.8 16.4 31.5 7 9 Alarm State:  0
Thu Nov 16 13:14:40 PST 2017 ON: 20.00 +20.0 20.06 -15.6 27.3 16.8 31.3 8 9 Alarm State:  0
Thu Nov 16 13:13:39 PST 2017 ON: 20.00 +20.0 20.05 -15.2 27.9 16.3 31.5 7 10 Alarm State:  0
Thu Nov 16 13:12:37 PST 2017 ON: 19.99 +20.0 20.04 -15.3 27.8 16.4 31.5 7 11 Alarm State:  0
Thu Nov 16 13:11:36 PST 2017 ON: 19.99 +20.0 20.06 -15.5 27.5 16.6 31.4 8 9 Alarm State:  0
Thu Nov 16 13:10:34 PST 2017 ON: 20.00 +20.0 20.06 -15.6 27.3 16.8 31.4 7 9 Alarm State:  0
Thu Nov 16 13:09:33 PST 2017 ON: 19.99 +20.0 20.05 -15.1 28.1 16.2 31.6 7 10 Alarm State:  0
Thu Nov 16 13:08:31 PST 2017 ON: 19.99 +20.0 20.05 -15.5 27.5 16.6 31.4 8 10 Alarm State:  0
Thu Nov 16 13:07:30 PST 2017 ON: 19.99 +20.0 20.04 -15.3 27.7 16.5 31.4 7 10 Alarm State:  0
Thu Nov 16 13:06:29 PST 2017 ON: 20.00 +20.0 20.05 -15.7 27.2 16.8 31.3 8 9 Alarm State:  0
Thu Nov 16 13:05:27 PST 2017 ON: 20.00 +20.0 20.05 -15.3 27.7 16.5 31.4 7 10 Alarm State:  0
Thu Nov 16 13:04:26 PST 2017 ON: 19.99 +20.0 20.04 -15.0 28.2 16.1 31.6 7 10 Alarm State:  0
Thu Nov 16 13:03:24 PST 2017 ON: 19.99 +20.0 20.06 -15.5 27.4 16.7 31.4 8 9 Alarm State:  0
Thu Nov 16 13:02:23 PST 2017 ON: 20.00 +20.0 20.04 -15.1 28.0 16.3 31.6 7 10 Alarm State:  0
Thu Nov 16 13:01:21 PST 2017 ON: 20.00 +20.0 20.06 -15.5 27.4 16.7 31.3 7 10 Alarm State:  0
Thu Nov 16 13:00:20 PST 2017 ON: 19.99 +20.0 20.05 -15.1 28.1 16.2 31.6 7 10 Alarm State:  0
Thu Nov 16 12:59:18 PST 2017 ON: 20.00 +20.0 20.05 -15.5 27.5 16.6 31.4 7 9 Alarm State:  0
Thu Nov 16 12:58:07 PST 2017  Alarm State: 0
Thu Nov 16 12:58:07 PST 2017 Chiller did not report ON, got this reading: 
Thu Nov 16 12:57:05 PST 2017 ON: 20.00 +20.0 20.04 -15.3 27.8 16.4 31.4 7 10 Alarm State:  0
Thu Nov 16 12:56:04 PST 2017 ON: 19.99 +20.0 20.07 -15.5 27.5 16.6 31.5 8 9 Alarm State:  0
Thu Nov 16 12:55:02 PST 2017 ON: 20.00 +20.0 20.05 -15.3 27.7 16.5 31.5 7 10 Alarm State:  0
Thu Nov 16 12:54:01 PST 2017 ON: 19.99 +20.0 20.05 -15.3 27.7 16.5 31.5 7 9 Alarm State:  0
Thu Nov 16 12:52:59 PST 2017 ON: 20.00 +20.0 20.06 -15.7 27.2 16.8 31.3 7 9 Alarm State:  0
Thu Nov 16 12:51:58 PST 2017 ON: 19.99 +20.0 20.06 -15.5 27.5 16.6 31.4 7 9 Alarm State:  0
Thu Nov 16 12:50:56 PST 2017 ON: 20.00 +20.0 20.06 -15.5 27.5 16.6 31.4 8 9 Alarm State:  0
Thu Nov 16 12:49:55 PST 2017 ON: 19.99 +20.0 20.04 -15.3 27.8 16.4 31.5 7 10 Alarm State:  0
Thu Nov 16 12:48:53 PST 2017 ON: 20.00 +20.0 20.06 -15.3 27.7 16.5 31.4 7 9 Alarm State:  0
Thu Nov 16 12:47:52 PST 2017 ON: 20.01 +20.0 20.07 -15.5 27.5 16.6 31.4 8 9 Alarm State:  0
Thu Nov 16 12:46:50 PST 2017 ON: 19.99 +20.0 20.06 -15.2 27.9 16.3 31.5 7 10 Alarm State:  0
Thu Nov 16 12:45:49 PST 2017 ON: 19.98 +20.0 20.04 -15.0 28.2 16.1 31.6 7 10 Alarm State:  0
Thu Nov 16 12:44:47 PST 2017 ON: 20.00 +20.0 20.05 -15.5 27.5 16.6 31.4 7 9 Alarm State:  0
Thu Nov 16 12:43:36 PST 2017  Alarm State: 0
Thu Nov 16 12:43:36 PST 2017 Chiller did not report ON, got this reading: 
Thu Nov 16 12:42:34 PST 2017 ON: 20.00 +20.0 20.06 -15.4 27.6 16.5 31.4 7 9 Alarm State:  0
Thu Nov 16 12:41:33 PST 2017 ON: 19.99 +20.0 20.04 -15.3 27.7 16.5 31.5 7 10 Alarm State:  0
Thu Nov 16 12:40:31 PST 2017 ON: 20.00 +20.0 20.05 -15.3 27.7 16.5 31.4 7 9 Alarm State:  0
Thu Nov 16 12:39:30 PST 2017 ON: 20.00 +20.0 20.06 -15.6 27.3 16.8 31.3 7 9 Alarm State:  0
Thu Nov 16 12:38:28 PST 2017 ON: 20.00 +20.0 20.06 -15.5 27.5 16.6 31.4 8 9 Alarm State:  0
Thu Nov 16 12:37:27 PST 2017 ON: 19.99 +20.0 20.05 -15.5 27.5 16.6 31.4 7 9 Alarm State:  0
Thu Nov 16 12:36:25 PST 2017 ON: 20.00 +20.0 20.05 -15.5 27.4 16.7 31.4 7 10 Alarm State:  0
Thu Nov 16 12:35:24 PST 2017 ON: 19.99 +20.0 20.05 -15.5 27.5 16.6 31.5 8 9 Alarm State:  0
Thu Nov 16 12:34:22 PST 2017 ON: 20.00 +20.0 20.06 -15.8 27.0 16.9 31.2 7 9 Alarm State:  0
Thu Nov 16 12:33:21 PST 2017 ON: 20.00 +20.0 20.06 -15.5 27.4 16.7 31.3 7 9 Alarm State:  0
Thu Nov 16 12:32:19 PST 2017 ON: 19.99 +20.0 20.05 -15.3 27.7 16.5 31.4 7 10 Alarm State:  0
Thu Nov 16 12:31:18 PST 2017 ON: 20.00 +20.0 20.05 -15.5 27.4 16.7 31.4 7 9 Alarm State:  0
Thu Nov 16 12:30:16 PST 2017 ON: 20.00 +20.0 20.06 -15.2 27.9 16.3 31.6 7 9 Alarm State:  0
Thu Nov 16 12:29:15 PST 2017 ON: 19.99 +20.0 20.04 -15.3 27.7 16.5 31.4 7 10 Alarm State:  0
Thu Nov 16 12:28:13 PST 2017 ON: 20.00 +20.0 20.06 -15.2 27.9 16.3 31.5 7 9 Alarm State:  0
Thu Nov 16 12:27:12 PST 2017 ON: 19.99 +20.0 20.06 -15.7 27.2 16.8 31.4 8 9 Alarm State:  0
Thu Nov 16 12:26:10 PST 2017 ON: 20.00 +20.0 20.05 -15.6 27.3 16.8 31.3 7 10 Alarm State:  0
Thu Nov 16 12:25:09 PST 2017 ON: 19.99 +20.0 20.04 -15.3 27.7 16.5 31.5 7 10 Alarm State:  0
Thu Nov 16 12:24:07 PST 2017 ON: 20.00 +20.0 20.06 -15.3 27.7 16.5 31.5 7 9 Alarm State:  0
Thu Nov 16 12:23:06 PST 2017 ON: 19.99 +20.0 20.06 -15.5 27.4 16.7 31.3 7 9 Alarm State:  0
Thu Nov 16 12:22:04 PST 2017 ON: 19.99 +20.0 20.05 -15.5 27.4 16.7 31.5 8 9 Alarm State:  0
Thu Nov 16 12:21:03 PST 2017 ON: 20.00 +20.0 20.05 -15.8 27.0 16.9 31.2 8 10 Alarm State:  0
Thu Nov 16 12:20:01 PST 2017 ON: 19.99 +20.0 20.04 -15.3 27.7 16.5 31.5 7 10 Alarm State:  0
Thu Nov 16 12:19:00 PST 2017 ON: 20.00 +20.0 20.06 -15.4 27.6 16.5 31.5 8 9 Alarm State:  0
Thu Nov 16 12:17:58 PST 2017 ON: 19.99 +20.0 20.06 -15.5 27.5 16.6 31.4 7 10 Alarm State:  0
Thu Nov 16 12:16:57 PST 2017 ON: 19.99 +20.0 20.05 -15.2 27.9 16.3 31.5 7 10 Alarm State:  0
Thu Nov 16 12:15:55 PST 2017 ON: 20.00 +20.0 20.05 -15.3 27.7 16.5 31.5 7 9 Alarm State:  0
Thu Nov 16 12:14:54 PST 2017 ON: 20.00 +20.0 20.06 -15.4 27.6 16.5 31.5 7 10 Alarm State:  0
Thu Nov 16 12:13:52 PST 2017 ON: 19.99 +20.0 20.06 -15.6 27.3 16.8 31.4 8 9 Alarm State:  0
Thu Nov 16 12:12:51 PST 2017 ON: 20.00 +20.0 20.04 -15.3 27.7 16.5 31.4 7 10 Alarm State:  0
Thu Nov 16 12:11:49 PST 2017 ON: 20.00 +20.0 20.06 -15.3 27.8 16.4 31.5 7 9 Alarm State:  0
Thu Nov 16 12:10:48 PST 2017 ON: 19.99 +20.0 20.05 -15.0 28.2 16.1 31.7 7 10 Alarm State:  0
Thu Nov 16 12:09:46 PST 2017 ON: 19.99 +20.0 20.05 -15.5 27.5 16.6 31.4 7 9 Alarm State:  0
Thu Nov 16 12:08:45 PST 2017 ON: 20.00 +20.0 20.05 -15.5 27.5 16.6 31.4 7 9 Alarm State:  0
Thu Nov 16 12:07:43 PST 2017 ON: 20.00 +20.0 20.05 -15.2 27.9 16.3 31.5 7 9 Alarm State:  0
Thu Nov 16 12:06:42 PST 2017 ON: 19.99 +20.0 20.05 -15.1 28.0 16.3 31.6 7 10 Alarm State:  0
Thu Nov 16 12:05:40 PST 2017 ON: 19.99 +20.0 20.05 -15.5 27.4 16.7 31.4 8 9 Alarm State:  0
Thu Nov 16 12:04:39 PST 2017 ON: 19.99 +20.0 20.04 -15.3 27.7 16.5 31.5 7 9 Alarm State:  0
Thu Nov 16 12:03:37 PST 2017 ON: 20.00 +20.0 20.06 -15.5 27.4 16.7 31.4 7 9 Alarm State:  0
Thu Nov 16 12:02:36 PST 2017 ON: 19.99 +20.0 20.05 -15.3 27.7 16.5 31.5 7 10 Alarm State:  0
Thu Nov 16 12:01:34 PST 2017 ON: 19.99 +20.0 20.05 -15.4 27.6 16.5 31.5 7 9 Alarm State:  0
Thu Nov 16 12:00:33 PST 2017 ON: 20.00 +20.0 20.05 -15.5 27.5 16.6 31.4 7 9 Alarm State:  0
Thu Nov 16 11:59:31 PST 2017 ON: 20.01 +20.0 20.07 -15.7 27.1 16.9 31.3 8 9 Alarm State:  0
Thu Nov 16 11:58:30 PST 2017 ON: 19.99 +20.0 20.06 -15.5 27.4 16.7 31.4 7 9 Alarm State:  0
Thu Nov 16 11:57:28 PST 2017 ON: 19.99 +20.0 20.04 -15.5 27.5 16.6 31.4 7 10 Alarm State:  0
Thu Nov 16 11:56:27 PST 2017 ON: 20.00 +20.0 20.04 -15.3 27.7 16.5 31.4 7 10 Alarm State:  0
Thu Nov 16 11:55:25 PST 2017 ON: 20.00 +20.0 20.06 -15.5 27.4 16.7 31.4 7 9 Alarm State:  0
Thu Nov 16 11:54:24 PST 2017 ON: 19.99 +20.0 20.06 -15.3 27.7 16.5 31.4 7 9 Alarm State:  0
Thu Nov 16 11:53:22 PST 2017 ON: 19.99 +20.0 20.04 -15.6 27.3 16.8 31.4 8 10 Alarm State:  0
Thu Nov 16 11:52:21 PST 2017 ON: 20.00 +20.0 20.05 -15.7 27.2 16.8 31.3 7 9 Alarm State:  0
Thu Nov 16 11:51:19 PST 2017 ON: 20.00 +20.0 20.06 -15.3 27.8 16.4 31.6 8 9 Alarm State:  0
Thu Nov 16 11:50:18 PST 2017 ON: 20.00 +20.0 20.06 -15.3 27.8 16.4 31.5 7 9 Alarm State:  0
Thu Nov 16 11:49:16 PST 2017 ON: 19.99 +20.0 20.06 -15.5 27.5 16.6 31.4 7 9 Alarm State:  0
Thu Nov 16 11:48:15 PST 2017 ON: 20.00 +20.0 20.04 -15.1 28.0 16.3 31.6 7 10 Alarm State:  0
Thu Nov 16 11:47:13 PST 2017 ON: 20.00 +20.0 20.05 -15.5 27.5 16.6 31.4 7 10 Alarm State:  0
Thu Nov 16 11:46:12 PST 2017 ON: 19.99 +20.0 20.06 -15.3 27.8 16.4 31.5 7 9 Alarm State:  0
Thu Nov 16 11:45:11 PST 2017 ON: 19.99 +20.0 20.04 -15.6 27.3 16.8 31.4 8 10 Alarm State:  0
Thu Nov 16 11:44:09 PST 2017 ON: 19.99 +20.0 20.05 -15.5 27.4 16.7 31.5 7 9 Alarm State:  0
Thu Nov 16 11:43:08 PST 2017 ON: 20.00 +20.0 20.06 -15.3 27.8 16.4 31.5 8 9 Alarm State:  0
Thu Nov 16 11:42:06 PST 2017 ON: 20.00 +20.0 20.07 -15.3 27.8 16.4 31.5 7 9 Alarm State:  0
Thu Nov 16 11:41:05 PST 2017 ON: 19.99 +20.0 20.04 -15.1 28.0 16.3 31.5 7 10 Alarm State:  0
Thu Nov 16 11:40:03 PST 2017 ON: 20.00 +20.0 20.04 -15.5 27.5 16.6 31.4 7 9 Alarm State:  0
Thu Nov 16 11:39:02 PST 2017 ON: 19.99 +20.0 20.05 -15.4 27.6 16.5 31.4 7 9 Alarm State:  0
Thu Nov 16 11:38:00 PST 2017 ON: 20.00 +20.0 20.07 -15.5 27.4 16.7 31.4 8 9 Alarm State:  0
Thu Nov 16 11:36:59 PST 2017 ON: 20.00 +20.0 20.05 -15.4 27.6 16.5 31.4 7 9 Alarm State:  0
Thu Nov 16 11:35:57 PST 2017 ON: 20.00 +20.0 20.05 -15.9 26.9 17.0 31.2 7 9 Alarm State:  0
Thu Nov 16 11:34:56 PST 2017 ON: 20.00 +20.0 20.06 -15.4 27.6 16.5 31.4 8 9 Alarm State:  0
Thu Nov 16 11:33:54 PST 2017 ON: 19.99 +20.0 20.04 -15.3 27.8 16.4 31.5 7 10 Alarm State:  0
Thu Nov 16 11:32:53 PST 2017 ON: 19.99 +20.0 20.04 -15.2 27.9 16.3 31.5 7 10 Alarm State:  0
Thu Nov 16 11:31:51 PST 2017 ON: 20.01 +20.0 20.06 -15.5 27.4 16.7 31.4 8 9 Alarm State:  0
Thu Nov 16 11:30:50 PST 2017 ON: 19.99 +20.0 20.05 -15.3 27.8 16.4 31.5 7 10 Alarm State:  0
Thu Nov 16 11:29:48 PST 2017 ON: 20.00 +20.0 20.05 -15.5 27.5 16.6 31.4 8 9 Alarm State:  0
Thu Nov 16 11:28:47 PST 2017 ON: 20.00 +20.0 20.05 -15.4 27.6 16.5 31.4 7 10 Alarm State:  0
Thu Nov 16 11:27:45 PST 2017 ON: 19.99 +20.0 20.04 -15.4 27.6 16.5 31.4 7 10 Alarm State:  0
Thu Nov 16 11:26:44 PST 2017 ON: 20.00 +20.0 20.05 -15.3 27.7 16.5 31.5 7 9 Alarm State:  0
Thu Nov 16 11:25:42 PST 2017 ON: 20.00 +20.0 20.07 -15.5 27.4 16.7 31.4 7 9 Alarm State:  0
Thu Nov 16 11:24:41 PST 2017 ON: 19.99 +20.0 20.05 -15.5 27.5 16.6 31.5 7 10 Alarm State:  0
Thu Nov 16 11:23:39 PST 2017 ON: 19.99 +20.0 20.05 -15.2 27.9 16.3 31.5 7 9 Alarm State:  0
Thu Nov 16 11:22:38 PST 2017 ON: 20.00 +20.0 20.05 -15.7 27.2 16.8 31.3 7 9 Alarm State:  0
Thu Nov 16 11:21:36 PST 2017 ON: 20.00 +20.0 20.06 -15.3 27.7 16.5 31.5 8 9 Alarm State:  0
Thu Nov 16 11:20:35 PST 2017 ON: 19.98 +20.0 20.06 -15.4 27.6 16.5 31.4 7 9 Alarm State:  0
Thu Nov 16 11:19:33 PST 2017 ON: 20.00 +20.0 20.05 -15.4 27.6 16.5 31.5 8 9 Alarm State:  0
Thu Nov 16 11:18:32 PST 2017 ON: 20.00 +20.0 20.07 -15.6 27.3 16.8 31.3 8 9 Alarm State:  0
Thu Nov 16 11:17:30 PST 2017 ON: 19.99 +20.0 20.06 -15.3 27.7 16.5 31.5 7 9 Alarm State:  0
Thu Nov 16 11:16:29 PST 2017 ON: 20.00 +20.0 20.06 -15.5 27.5 16.6 31.5 7 9 Alarm State:  0
Thu Nov 16 11:15:27 PST 2017 ON: 19.99 +20.0 20.05 -15.3 27.7 16.5 31.4 8 10 Alarm State:  0
Thu Nov 16 11:14:26 PST 2017 ON: 20.00 +20.0 20.05 -15.3 27.7 16.5 31.5 7 9 Alarm State:  0
Thu Nov 16 11:13:24 PST 2017 ON: 19.99 +20.0 20.05 -15.5 27.4 16.7 31.5 7 10 Alarm State:  0
Thu Nov 16 11:12:23 PST 2017 ON: 19.99 +20.0 20.04 -15.2 27.9 16.3 31.5 7 10 Alarm State:  0
Thu Nov 16 11:11:21 PST 2017 ON: 20.00 +20.0 20.05 -15.7 27.2 16.8 31.3 7 10 Alarm State:  0
Thu Nov 16 11:10:20 PST 2017 ON: 19.99 +20.0 20.05 -15.5 27.5 16.6 31.4 8 10 Alarm State:  0
Thu Nov 16 11:09:18 PST 2017 ON: 20.00 +20.0 20.05 -15.4 27.6 16.5 31.5 7 9 Alarm State:  0
Thu Nov 16 11:08:17 PST 2017 ON: 20.00 +20.0 20.06 -15.5 27.4 16.7 31.4 7 9 Alarm State:  0
Thu Nov 16 11:07:15 PST 2017 ON: 19.99 +20.0 20.05 -15.3 27.8 16.4 31.5 7 10 Alarm State:  0
Thu Nov 16 11:06:14 PST 2017 ON: 20.00 +20.0 20.06 -15.4 27.6 16.5 31.5 7 9 Alarm State:  0
Thu Nov 16 11:05:12 PST 2017 ON: 19.99 +20.0 20.05 -15.2 27.9 16.3 31.5 7 10 Alarm State:  0
Thu Nov 16 11:04:11 PST 2017 ON: 20.00 +20.0 20.06 -15.5 27.4 16.7 31.3 7 9 Alarm State:  0
Thu Nov 16 11:03:09 PST 2017 ON: 20.00 +20.0 20.06 -15.5 27.4 16.7 31.4 7 9 Alarm State:  0
Thu Nov 16 11:02:08 PST 2017 ON: 19.99 +20.0 20.04 -15.3 27.7 16.5 31.5 7 10 Alarm State:  0
Thu Nov 16 11:01:06 PST 2017 ON: 19.99 +20.0 20.04 -15.5 27.4 16.7 31.4 7 10 Alarm State:  0
Thu Nov 16 11:00:05 PST 2017 ON: 20.00 +20.0 20.06 -15.3 27.8 16.4 31.5 7 9 Alarm State:  0
Thu Nov 16 10:59:03 PST 2017 ON: 19.99 +20.0 20.06 -15.5 27.5 16.6 31.4 8 9 Alarm State:  0
Thu Nov 16 10:58:02 PST 2017 ON: 19.99 +20.0 20.04 -15.3 27.8 16.4 31.6 7 10 Alarm State:  0
Thu Nov 16 10:57:00 PST 2017 ON: 20.00 +20.0 20.05 -15.4 27.6 16.5 31.4 7 10 Alarm State:  0
Thu Nov 16 10:55:59 PST 2017 ON: 19.99 +20.0 20.06 -15.3 27.7 16.5 31.5 7 9 Alarm State:  0
Thu Nov 16 10:54:57 PST 2017 ON: 20.00 +20.0 20.05 -15.4 27.6 16.5 31.5 7 9 Alarm State:  0
Thu Nov 16 10:53:56 PST 2017 ON: 20.00 +20.0 20.07 -15.5 27.4 16.7 31.4 8 9 Alarm State:  0
Thu Nov 16 10:52:54 PST 2017 ON: 19.99 +20.0 20.05 -15.5 27.5 16.6 31.4 7 9 Alarm State:  0
Thu Nov 16 10:51:53 PST 2017 ON: 20.00 +20.0 20.06 -15.5 27.4 16.7 31.4 7 9 Alarm State:  0
Thu Nov 16 10:50:51 PST 2017 ON: 20.00 +20.0 20.05 -15.3 27.7 16.5 31.5 8 9 Alarm State:  0
Thu Nov 16 10:49:50 PST 2017 ON: 19.99 +20.0 20.06 -15.5 27.5 16.6 31.5 7 9 Alarm State:  0
Thu Nov 16 10:48:48 PST 2017 ON: 19.99 +20.0 20.04 -15.7 27.2 16.8 31.3 7 10 Alarm State:  0
Thu Nov 16 10:47:47 PST 2017 ON: 20.00 +20.0 20.04 -15.3 27.8 16.4 31.5 7 10 Alarm State:  0
Thu Nov 16 10:46:45 PST 2017 ON: 19.99 +20.0 20.05 -15.3 27.7 16.5 31.4 7 9 Alarm State:  0
Thu Nov 16 10:45:44 PST 2017 ON: 19.99 +20.0 20.04 -15.2 27.9 16.3 31.5 8 10 Alarm State:  0
Thu Nov 16 10:44:42 PST 2017 ON: 19.99 +20.0 20.05 -15.2 27.9 16.3 31.5 7 10 Alarm State:  0
Thu Nov 16 10:43:41 PST 2017 ON: 19.99 +20.0 20.04 -15.3 27.8 16.4 31.5 7 10 Alarm State:  0
Thu Nov 16 10:42:39 PST 2017 ON: 20.00 +20.0 20.06 -15.7 27.2 16.8 31.4 8 9 Alarm State:  0
Thu Nov 16 10:41:38 PST 2017 ON: 20.00 +20.0 20.06 -15.4 27.6 16.5 31.5 7 10 Alarm State:  0
Thu Nov 16 10:40:36 PST 2017 ON: 19.99 +20.0 20.04 -15.1 28.1 16.2 31.6 7 10 Alarm State:  0
Thu Nov 16 10:39:35 PST 2017 ON: 20.00 +20.0 20.05 -15.3 27.7 16.5 31.4 7 10 Alarm State:  0
Thu Nov 16 10:38:33 PST 2017 ON: 20.00 +20.0 20.06 -15.5 27.5 16.6 31.4 7 10 Alarm State:  0
Thu Nov 16 10:37:32 PST 2017 ON: 19.99 +20.0 20.05 -15.3 27.7 16.5 31.4 8 10 Alarm State:  0
Thu Nov 16 10:36:30 PST 2017 ON: 20.00 +20.0 20.06 -15.3 27.8 16.4 31.5 7 9 Alarm State:  0
Thu Nov 16 10:35:29 PST 2017 ON: 20.00 +20.0 20.05 -15.5 27.4 16.7 31.4 7 10 Alarm State:  0
Thu Nov 16 10:34:27 PST 2017 ON: 20.00 +20.0 20.05 -15.4 27.6 16.5 31.5 8 10 Alarm State:  0
Thu Nov 16 10:33:26 PST 2017 ON: 19.99 +20.0 20.05 -15.4 27.6 16.5 31.4 7 10 Alarm State:  0
Thu Nov 16 10:32:24 PST 2017 ON: 20.00 +20.0 20.04 -15.4 27.6 16.5 31.5 7 10 Alarm State:  0
Thu Nov 16 10:31:23 PST 2017 ON: 20.00 +20.0 20.04 -15.1 28.0 16.3 31.5 7 10 Alarm State:  0
Thu Nov 16 10:30:21 PST 2017 ON: 20.00 +20.0 20.08 -15.8 27.0 16.9 31.3 7 9 Alarm State:  0
Thu Nov 16 10:29:20 PST 2017 ON: 19.99 +20.0 20.05 -15.2 27.9 16.3 31.6 8 10 Alarm State:  0
Thu Nov 16 10:28:18 PST 2017 ON: 20.00 +20.0 20.05 -15.3 27.8 16.4 31.5 7 10 Alarm State:  0
Thu Nov 16 10:27:17 PST 2017 ON: 19.99 +20.0 20.05 -15.3 27.8 16.4 31.5 7 10 Alarm State:  0
Thu Nov 16 10:26:15 PST 2017 ON: 20.00 +20.0 20.05 -15.5 27.4 16.7 31.5 8 10 Alarm State:  0
Thu Nov 16 10:25:14 PST 2017 ON: 19.99 +20.0 20.07 -15.5 27.4 16.7 31.4 7 9 Alarm State:  0
Thu Nov 16 10:24:13 PST 2017 ON: 19.99 +20.0 20.05 -15.1 28.1 16.2 31.6 7 10 Alarm State:  0
Thu Nov 16 10:23:11 PST 2017 ON: 19.99 +20.0 20.06 -15.5 27.5 16.6 31.4 7 10 Alarm State:  0
Thu Nov 16 10:22:10 PST 2017 ON: 19.99 +20.0 20.05 -15.4 27.6 16.5 31.4 7 10 Alarm State:  0
Thu Nov 16 10:21:08 PST 2017 ON: 20.00 +20.0 20.05 -15.4 27.6 16.5 31.4 7 10 Alarm State:  0
Thu Nov 16 10:20:07 PST 2017 ON: 19.99 +20.0 20.05 -15.4 27.6 16.5 31.5 7 10 Alarm State:  0
Thu Nov 16 10:19:05 PST 2017 ON: 19.99 +20.0 20.03 -15.5 27.5 16.6 31.4 7 11 Alarm State:  0
Thu Nov 16 10:18:04 PST 2017 ON: 20.00 +20.0 20.05 -15.4 27.6 16.5 31.5 8 10 Alarm State:  0
Thu Nov 16 10:17:02 PST 2017 ON: 19.99 +20.0 20.05 -15.5 27.5 16.6 31.5 7 10 Alarm State:  0
Thu Nov 16 10:16:01 PST 2017 ON: 20.00 +20.0 20.06 -15.5 27.5 16.6 31.4 7 9 Alarm State:  0
Thu Nov 16 10:14:59 PST 2017 ON: 20.00 +20.0 20.06 -15.4 27.6 16.5 31.4 7 10 Alarm State:  0
Thu Nov 16 10:13:58 PST 2017 ON: 19.99 +20.0 20.04 -15.2 27.9 16.3 31.6 7 11 Alarm State:  0
Thu Nov 16 10:12:56 PST 2017 ON: 20.00 +20.0 20.06 -15.7 27.2 16.8 31.4 8 9 Alarm State:  0
Thu Nov 16 10:11:55 PST 2017 ON: 19.99 +20.0 20.04 -15.3 27.8 16.4 31.5 7 10 Alarm State:  0
Thu Nov 16 10:10:53 PST 2017 ON: 19.99 +20.0 20.05 -15.4 27.6 16.5 31.4 7 10 Alarm State:  0
Thu Nov 16 10:09:52 PST 2017 ON: 19.99 +20.0 20.05 -15.5 27.5 16.6 31.4 8 10 Alarm State:  0
Thu Nov 16 10:08:50 PST 2017 ON: 20.00 +20.0 20.07 -15.7 27.2 16.8 31.3 7 9 Alarm State:  0
Thu Nov 16 10:07:49 PST 2017 ON: 20.00 +20.0 20.06 -15.4 27.6 16.5 31.4 7 9 Alarm State:  0
Thu Nov 16 10:06:47 PST 2017 ON: 19.99 +20.0 20.06 -15.2 27.9 16.3 31.5 7 10 Alarm State:  0
Thu Nov 16 10:05:46 PST 2017 ON: 19.99 +20.0 20.05 -15.5 27.5 16.6 31.4 7 10 Alarm State:  0
Thu Nov 16 10:04:44 PST 2017 ON: 20.00 +20.0 20.06 -15.5 27.4 16.7 31.4 8 9 Alarm State:  0
Thu Nov 16 10:03:43 PST 2017 ON: 20.00 +20.0 20.06 -15.5 27.5 16.6 31.4 7 10 Alarm State:  0
Thu Nov 16 10:02:41 PST 2017 ON: 19.99 +20.0 20.05 -15.3 27.7 16.5 31.4 7 10 Alarm State:  0
Thu Nov 16 10:01:40 PST 2017 ON: 20.00 +20.0 20.06 -15.5 27.4 16.7 31.4 8 9 Alarm State:  0
Thu Nov 16 10:00:38 PST 2017 ON: 20.00 +20.0 20.06 -15.4 27.6 16.5 31.4 7 10 Alarm State:  0
Thu Nov 16 09:59:37 PST 2017 ON: 19.99 +20.0 20.05 -15.5 27.4 16.7 31.4 7 10 Alarm State:  0
Thu Nov 16 09:58:35 PST 2017 ON: 20.00 +20.0 20.06 -15.6 27.3 16.8 31.3 8 9 Alarm State:  0
Thu Nov 16 09:57:34 PST 2017 ON: 20.00 +20.0 20.06 -15.5 27.4 16.7 31.3 7 10 Alarm State:  0
Thu Nov 16 09:56:32 PST 2017 ON: 19.99 +20.0 20.05 -15.3 27.7 16.5 31.5 7 10 Alarm State:  0
Thu Nov 16 09:55:31 PST 2017 ON: 19.99 +20.0 20.04 -15.3 27.7 16.5 31.4 7 10 Alarm State:  0
Thu Nov 16 09:54:29 PST 2017 ON: 20.00 +20.0 20.06 -15.5 27.5 16.6 31.4 7 10 Alarm State:  0
Thu Nov 16 09:53:28 PST 2017 ON: 19.99 +20.0 20.06 -15.4 27.6 16.5 31.4 8 10 Alarm State:  0
Thu Nov 16 09:52:26 PST 2017 ON: 19.99 +20.0 20.04 -15.3 27.7 16.5 31.5 7 10 Alarm State:  0
Thu Nov 16 09:51:25 PST 2017 ON: 19.99 +20.0 20.05 -15.4 27.6 16.5 31.4 7 10 Alarm State:  0
Thu Nov 16 09:50:23 PST 2017 ON: 20.00 +20.0 20.04 -15.5 27.5 16.6 31.4 8 10 Alarm State:  0
Thu Nov 16 09:49:22 PST 2017 ON: 20.00 +20.0 20.05 -15.3 27.7 16.5 31.5 7 10 Alarm State:  0
Thu Nov 16 09:48:20 PST 2017 ON: 19.99 +20.0 20.05 -15.3 27.8 16.4 31.5 7 10 Alarm State:  0
Thu Nov 16 09:47:19 PST 2017 ON: 20.00 +20.0 20.05 -15.5 27.5 16.6 31.4 7 10 Alarm State:  0
Thu Nov 16 09:46:17 PST 2017 ON: 20.00 +20.0 20.05 -15.1 28.0 16.3 31.5 7 10 Alarm State:  0
Thu Nov 16 09:45:16 PST 2017 ON: 19.99 +20.0 20.06 -15.7 27.2 16.8 31.3 8 10 Alarm State:  0
Thu Nov 16 09:44:14 PST 2017 ON: 19.99 +20.0 20.05 -15.4 27.6 16.5 31.4 7 10 Alarm State:  0
Thu Nov 16 09:43:13 PST 2017 ON: 20.00 +20.0 20.05 -15.4 27.6 16.5 31.4 7 10 Alarm State:  0
Thu Nov 16 09:42:11 PST 2017 ON: 20.00 +20.0 20.06 -15.4 27.6 16.5 31.4 8 10 Alarm State:  0
Thu Nov 16 09:41:10 PST 2017 ON: 19.99 +20.0 20.05 -15.5 27.5 16.6 31.4 7 10 Alarm State:  0
Thu Nov 16 09:40:08 PST 2017 ON: 19.99 +20.0 20.05 -15.3 27.8 16.4 31.5 7 10 Alarm State:  0
Thu Nov 16 09:39:07 PST 2017 ON: 20.00 +20.0 20.05 -15.3 27.8 16.4 31.5 7 10 Alarm State:  0
Thu Nov 16 09:38:05 PST 2017 ON: 19.99 +20.0 20.06 -15.5 27.5 16.6 31.4 7 10 Alarm State:  0
Thu Nov 16 09:37:04 PST 2017 ON: 20.00 +20.0 20.05 -15.2 27.9 16.3 31.6 7 10 Alarm State:  0
Thu Nov 16 09:36:02 PST 2017 ON: 20.00 +20.0 20.05 -15.5 27.5 16.6 31.4 8 10 Alarm State:  0
Thu Nov 16 09:35:01 PST 2017 ON: 19.99 +20.0 20.05 -15.3 27.8 16.4 31.4 7 10 Alarm State:  0
Thu Nov 16 09:33:59 PST 2017 ON: 19.99 +20.0 20.05 -15.4 27.6 16.5 31.5 8 10 Alarm State:  0
Thu Nov 16 09:32:58 PST 2017 ON: 19.99 +20.0 20.06 -15.6 27.3 16.8 31.4 7 10 Alarm State:  0
Thu Nov 16 09:31:56 PST 2017 ON: 19.99 +20.0 20.04 -15.1 28.0 16.3 31.5 7 10 Alarm State:  0
Thu Nov 16 09:30:55 PST 2017 ON: 20.00 +20.0 20.04 -15.5 27.5 16.6 31.4 7 10 Alarm State:  0
Thu Nov 16 09:29:53 PST 2017 ON: 19.99 +20.0 20.05 -15.4 27.6 16.5 31.5 7 10 Alarm State:  0
Thu Nov 16 09:28:52 PST 2017 ON: 19.99 +20.0 20.05 -15.4 27.6 16.5 31.5 8 10 Alarm State:  0
Thu Nov 16 09:27:51 PST 2017 ON: 20.00 +20.0 20.06 -15.5 27.5 16.6 31.4 8 9 Alarm State:  0
Thu Nov 16 09:26:49 PST 2017 ON: 20.00 +20.0 20.06 -15.7 27.2 16.8 31.3 8 9 Alarm State:  0
Thu Nov 16 09:25:48 PST 2017 ON: 19.99 +20.0 20.07 -15.6 27.3 16.8 31.4 8 9 Alarm State:  0
Thu Nov 16 09:24:46 PST 2017 ON: 19.99 +20.0 20.04 -15.4 27.6 16.5 31.4 7 10 Alarm State:  0
Thu Nov 16 09:23:45 PST 2017 ON: 20.00 +20.0 20.06 -15.3 27.7 16.5 31.4 7 9 Alarm State:  0
Thu Nov 16 09:22:43 PST 2017 ON: 20.00 +20.0 20.06 -15.2 27.9 16.3 31.5 7 10 Alarm State:  0
Thu Nov 16 09:21:42 PST 2017 ON: 19.99 +20.0 20.05 -15.3 27.7 16.5 31.5 7 10 Alarm State:  0
Thu Nov 16 09:20:40 PST 2017 ON: 20.00 +20.0 20.05 -15.2 27.9 16.3 31.5 7 9 Alarm State:  0
Thu Nov 16 09:19:39 PST 2017 ON: 20.00 +20.0 20.07 -15.6 27.3 16.8 31.2 7 9 Alarm State:  0
Thu Nov 16 09:18:37 PST 2017 ON: 19.99 +20.0 20.04 -15.1 28.1 16.2 31.6 7 10 Alarm State:  0
Thu Nov 16 09:17:36 PST 2017 ON: 19.99 +20.0 20.05 -15.3 27.8 16.4 31.5 8 9 Alarm State:  0
Thu Nov 16 09:16:34 PST 2017 ON: 19.99 +20.0 20.05 -15.5 27.4 16.7 31.3 7 10 Alarm State:  0
Thu Nov 16 09:15:33 PST 2017 ON: 20.00 +20.0 20.05 -15.5 27.4 16.7 31.4 7 10 Alarm State:  0
Thu Nov 16 09:14:31 PST 2017 ON: 19.99 +20.0 20.05 -15.3 27.7 16.5 31.5 8 10 Alarm State:  0
Thu Nov 16 09:13:30 PST 2017 ON: 19.99 +20.0 20.06 -15.5 27.4 16.7 31.4 7 9 Alarm State:  0
Thu Nov 16 09:12:28 PST 2017 ON: 19.99 +20.0 20.04 -15.6 27.3 16.8 31.4 7 9 Alarm State:  0
Thu Nov 16 09:11:27 PST 2017 ON: 19.99 +20.0 20.06 -15.7 27.2 16.8 31.4 7 9 Alarm State:  0
Thu Nov 16 09:10:25 PST 2017 ON: 20.00 +20.0 20.07 -15.5 27.4 16.7 31.4 7 9 Alarm State:  0
Thu Nov 16 09:09:24 PST 2017 ON: 19.99 +20.0 20.05 -15.1 28.0 16.3 31.6 7 10 Alarm State:  0
Thu Nov 16 09:08:22 PST 2017 ON: 19.99 +20.0 20.04 -15.3 27.8 16.4 31.5 7 10 Alarm State:  0
Thu Nov 16 09:07:21 PST 2017 ON: 20.00 +20.0 20.05 -15.6 27.3 16.8 31.3 7 10 Alarm State:  0
Thu Nov 16 09:06:19 PST 2017 ON: 19.99 +20.0 20.05 -15.4 27.6 16.5 31.5 8 10 Alarm State:  0
Thu Nov 16 09:05:18 PST 2017 ON: 19.99 +20.0 20.04 -15.2 27.9 16.3 31.5 7 10 Alarm State:  0
Thu Nov 16 09:04:16 PST 2017 ON: 20.00 +20.0 20.06 -15.9 26.8 17.1 31.2 8 9 Alarm State:  0
Thu Nov 16 09:03:15 PST 2017 ON: 19.99 +20.0 20.05 -15.3 27.7 16.5 31.4 7 10 Alarm State:  0
Thu Nov 16 09:02:13 PST 2017 ON: 20.00 +20.0 20.05 -15.5 27.5 16.6 31.4 7 9 Alarm State:  0
Thu Nov 16 09:01:12 PST 2017 ON: 20.00 +20.0 20.06 -15.1 28.1 16.2 31.6 8 10 Alarm State:  0
Thu Nov 16 09:00:10 PST 2017 ON: 19.99 +20.0 20.04 -15.1 28.1 16.2 31.6 7 10 Alarm State:  0
Thu Nov 16 08:59:09 PST 2017 ON: 20.00 +20.0 20.05 -15.4 27.6 16.5 31.4 7 10 Alarm State:  0
Thu Nov 16 08:58:07 PST 2017 ON: 20.00 +20.0 20.07 -15.5 27.5 16.6 31.4 8 9 Alarm State:  0
Thu Nov 16 08:57:06 PST 2017 ON: 19.99 +20.0 20.04 -15.4 27.6 16.5 31.4 7 10 Alarm State:  0
Thu Nov 16 08:56:04 PST 2017 ON: 20.00 +20.0 20.04 -15.5 27.4 16.7 31.4 7 10 Alarm State:  0
Thu Nov 16 08:55:03 PST 2017 ON: 20.00 +20.0 20.05 -15.6 27.3 16.8 31.3 7 10 Alarm State:  0
Thu Nov 16 08:54:01 PST 2017 ON: 19.99 +20.0 20.06 -15.3 27.8 16.4 31.6 7 10 Alarm State:  0
Thu Nov 16 08:53:00 PST 2017 ON: 19.99 +20.0 20.05 -15.5 27.5 16.6 31.5 8 9 Alarm State:  0
Thu Nov 16 08:51:58 PST 2017 ON: 20.00 +20.0 20.04 -15.5 27.5 16.6 31.4 7 9 Alarm State:  0
Thu Nov 16 08:50:57 PST 2017 ON: 20.00 +20.0 20.05 -15.7 27.2 16.8 31.3 7 10 Alarm State:  0
Thu Nov 16 08:49:55 PST 2017 ON: 20.00 +20.0 20.06 -15.3 27.7 16.5 31.5 7 9 Alarm State:  0
Thu Nov 16 08:48:54 PST 2017 ON: 19.99 +20.0 20.06 -15.5 27.4 16.7 31.4 7 9 Alarm State:  0
Thu Nov 16 08:47:52 PST 2017 ON: 20.00 +20.0 20.04 -15.5 27.4 16.7 31.4 7 10 Alarm State:  0
Thu Nov 16 08:46:51 PST 2017 ON: 20.01 +20.0 20.06 -15.6 27.3 16.8 31.3 7 9 Alarm State:  0
Thu Nov 16 08:45:49 PST 2017 ON: 19.99 +20.0 20.05 -15.3 27.8 16.4 31.5 7 10 Alarm State:  0
Thu Nov 16 08:44:48 PST 2017 ON: 20.00 +20.0 20.05 -15.4 27.6 16.5 31.4 8 9 Alarm State:  0
Thu Nov 16 08:43:47 PST 2017 ON: 20.00 +20.0 20.06 -15.5 27.4 16.7 31.3 7 10 Alarm State:  0
Thu Nov 16 08:42:45 PST 2017 ON: 19.99 +20.0 20.05 -15.4 27.6 16.5 31.4 7 10 Alarm State:  0
Thu Nov 16 08:41:44 PST 2017 ON: 20.00 +20.0 20.06 -15.3 27.7 16.5 31.5 7 9 Alarm State:  0
Thu Nov 16 08:40:42 PST 2017 ON: 20.00 +20.0 20.07 -15.7 27.2 16.8 31.4 7 9 Alarm State:  0
Thu Nov 16 08:39:41 PST 2017 ON: 19.99 +20.0 20.05 -15.5 27.4 16.7 31.5 7 9 Alarm State:  0
Thu Nov 16 08:38:39 PST 2017 ON: 20.00 +20.0 20.06 -15.4 27.6 16.5 31.4 7 9 Alarm State:  0
Thu Nov 16 08:37:38 PST 2017 ON: 19.99 +20.0 20.06 -15.5 27.5 16.6 31.5 7 9 Alarm State:  0
Thu Nov 16 08:36:36 PST 2017 ON: 20.00 +20.0 20.06 -15.7 27.2 16.8 31.4 7 9 Alarm State:  0
Thu Nov 16 08:35:35 PST 2017 ON: 20.00 +20.0 20.06 -15.5 27.4 16.7 31.3 7 10 Alarm State:  0
Thu Nov 16 08:34:33 PST 2017 ON: 19.99 +20.0 20.04 -15.3 27.7 16.5 31.5 7 10 Alarm State:  0
Thu Nov 16 08:33:32 PST 2017 ON: 20.00 +20.0 20.05 -15.5 27.4 16.7 31.4 8 9 Alarm State:  0
Thu Nov 16 08:32:30 PST 2017 ON: 20.00 +20.0 20.06 -15.7 27.2 16.8 31.4 7 9 Alarm State:  0
Thu Nov 16 08:31:29 PST 2017 ON: 20.00 +20.0 20.06 -15.4 27.6 16.5 31.4 7 10 Alarm State:  0
Thu Nov 16 08:30:27 PST 2017 ON: 19.99 +20.0 20.06 -15.3 27.7 16.5 31.5 8 10 Alarm State:  0
Thu Nov 16 08:29:26 PST 2017 ON: 19.99 +20.0 20.05 -15.3 27.7 16.5 31.4 7 9 Alarm State:  0
Thu Nov 16 08:28:24 PST 2017 ON: 20.00 +20.0 20.05 -15.1 28.1 16.2 31.6 7 9 Alarm State:  0
Thu Nov 16 08:27:23 PST 2017 ON: 20.00 +20.0 20.06 -15.3 27.7 16.5 31.4 7 10 Alarm State:  0
Thu Nov 16 08:26:21 PST 2017 ON: 19.99 +20.0 20.05 -15.3 27.7 16.5 31.5 7 10 Alarm State:  0
Thu Nov 16 08:25:20 PST 2017 ON: 20.00 +20.0 20.05 -15.4 27.6 16.5 31.4 8 9 Alarm State:  0
Thu Nov 16 08:24:18 PST 2017 ON: 19.99 +20.0 20.05 -15.5 27.5 16.6 31.5 7 10 Alarm State:  0
Thu Nov 16 08:23:17 PST 2017 ON: 20.00 +20.0 20.06 -15.3 27.7 16.5 31.4 7 9 Alarm State:  0
Thu Nov 16 08:22:15 PST 2017 ON: 20.00 +20.0 20.05 -15.4 27.6 16.5 31.4 8 10 Alarm State:  0
Thu Nov 16 08:21:14 PST 2017 ON: 19.99 +20.0 20.05 -15.2 27.9 16.3 31.5 7 10 Alarm State:  0
Thu Nov 16 08:20:12 PST 2017 ON: 19.99 +20.0 20.04 -15.5 27.5 16.6 31.4 7 10 Alarm State:  0
Thu Nov 16 08:19:11 PST 2017 ON: 20.00 +20.0 20.05 -15.3 27.8 16.4 31.5 7 9 Alarm State:  0
Thu Nov 16 08:18:09 PST 2017 ON: 20.00 +20.0 20.05 -15.3 27.7 16.5 31.4 7 10 Alarm State:  0
Thu Nov 16 08:17:08 PST 2017 ON: 19.99 +20.0 20.06 -15.3 27.8 16.4 31.5 8 9 Alarm State:  0
Thu Nov 16 08:16:06 PST 2017 ON: 20.00 +20.0 20.06 -15.5 27.5 16.6 31.4 7 9 Alarm State:  0
Thu Nov 16 08:15:05 PST 2017 ON: 19.99 +20.0 20.04 -15.5 27.4 16.7 31.3 7 10 Alarm State:  0
Thu Nov 16 08:14:03 PST 2017 ON: 19.99 +20.0 20.06 -15.6 27.3 16.8 31.4 8 9 Alarm State:  0
Thu Nov 16 08:13:02 PST 2017 ON: 20.00 +20.0 20.04 -15.1 28.1 16.2 31.6 7 10 Alarm State:  0
Thu Nov 16 08:12:00 PST 2017 ON: 19.99 +20.0 20.05 -15.6 27.3 16.8 31.4 7 10 Alarm State:  0
Thu Nov 16 08:10:59 PST 2017 ON: 20.00 +20.0 20.05 -15.5 27.4 16.7 31.4 8 10 Alarm State:  0
Thu Nov 16 08:09:57 PST 2017 ON: 20.00 +20.0 20.05 -15.1 28.0 16.3 31.6 7 9 Alarm State:  0
Thu Nov 16 08:08:56 PST 2017 ON: 19.99 +20.0 20.06 -15.7 27.2 16.8 31.3 8 10 Alarm State:  0
Thu Nov 16 08:07:54 PST 2017 ON: 19.99 +20.0 20.04 -15.3 27.8 16.4 31.5 7 10 Alarm State:  0
Thu Nov 16 08:06:53 PST 2017 ON: 20.00 +20.0 20.04 -15.7 27.2 16.8 31.3 7 10 Alarm State:  0
Thu Nov 16 08:05:51 PST 2017 ON: 20.01 +20.0 20.06 -15.5 27.4 16.7 31.4 8 9 Alarm State:  0
Thu Nov 16 08:04:50 PST 2017 ON: 19.99 +20.0 20.06 -15.5 27.4 16.7 31.3 7 9 Alarm State:  0
Thu Nov 16 08:03:48 PST 2017 ON: 19.99 +20.0 20.04 -15.3 27.7 16.5 31.5 7 10 Alarm State:  0
Thu Nov 16 08:02:47 PST 2017 ON: 20.00 +20.0 20.06 -15.7 27.1 16.9 31.2 8 9 Alarm State:  0
Thu Nov 16 08:01:45 PST 2017 ON: 19.99 +20.0 20.05 -15.3 27.8 16.4 31.5 7 10 Alarm State:  0
Thu Nov 16 08:00:44 PST 2017 ON: 19.99 +20.0 20.05 -15.4 27.6 16.5 31.5 7 10 Alarm State:  0
Thu Nov 16 07:59:42 PST 2017 ON: 20.00 +20.0 20.06 -15.6 27.3 16.8 31.3 7 9 Alarm State:  0
Thu Nov 16 07:58:41 PST 2017 ON: 20.00 +20.0 20.06 -15.3 27.7 16.5 31.5 7 9 Alarm State:  0
Thu Nov 16 07:57:39 PST 2017 ON: 19.99 +20.0 20.06 -15.7 27.2 16.8 31.4 8 9 Alarm State:  0
Thu Nov 16 07:56:38 PST 2017 ON: 19.99 +20.0 20.04 -15.3 27.7 16.5 31.5 8 10 Alarm State:  0
Thu Nov 16 07:55:36 PST 2017 ON: 19.99 +20.0 20.05 -15.6 27.3 16.8 31.4 7 9 Alarm State:  0
Thu Nov 16 07:54:35 PST 2017 ON: 20.00 +20.0 20.05 -15.3 27.7 16.5 31.5 7 10 Alarm State:  0
Thu Nov 16 07:53:34 PST 2017 ON: 19.99 +20.0 20.05 -15.5 27.5 16.6 31.5 7 10 Alarm State:  0
Thu Nov 16 07:52:32 PST 2017 ON: 19.99 +20.0 20.06 -15.3 27.7 16.5 31.5 7 9 Alarm State:  0
Thu Nov 16 07:51:31 PST 2017 ON: 19.99 +20.0 20.06 -15.5 27.4 16.7 31.4 7 9 Alarm State:  0
Thu Nov 16 07:50:29 PST 2017 ON: 20.00 +20.0 20.06 -15.5 27.5 16.6 31.4 7 9 Alarm State:  0
Thu Nov 16 07:49:28 PST 2017 ON: 20.00 +20.0 20.06 -15.5 27.5 16.6 31.5 8 9 Alarm State:  0
Thu Nov 16 07:48:26 PST 2017 ON: 19.99 +20.0 20.04 -15.4 27.6 16.5 31.4 7 10 Alarm State:  0
Thu Nov 16 07:47:25 PST 2017 ON: 19.99 +20.0 20.04 -15.2 27.9 16.3 31.5 7 10 Alarm State:  0
Thu Nov 16 07:46:23 PST 2017 ON: 20.00 +20.0 20.07 -15.4 27.6 16.5 31.4 8 9 Alarm State:  0
Thu Nov 16 07:45:22 PST 2017 ON: 19.99 +20.0 20.04 -15.3 27.8 16.4 31.6 7 10 Alarm State:  0
Thu Nov 16 07:44:20 PST 2017 ON: 20.00 +20.0 20.05 -15.3 27.8 16.4 31.5 7 9 Alarm State:  0
Thu Nov 16 07:43:19 PST 2017 ON: 19.99 +20.0 20.06 -15.7 27.1 16.9 31.3 7 9 Alarm State:  0
Thu Nov 16 07:42:17 PST 2017 ON: 19.99 +20.0 20.05 -15.5 27.5 16.6 31.4 7 9 Alarm State:  0
Thu Nov 16 07:41:16 PST 2017 ON: 20.00 +20.0 20.07 -15.6 27.3 16.8 31.5 8 9 Alarm State:  0
Thu Nov 16 07:40:14 PST 2017 ON: 19.99 +20.0 20.05 -15.6 27.3 16.8 31.4 7 10 Alarm State:  0
Thu Nov 16 07:39:13 PST 2017 ON: 20.00 +20.0 20.05 -15.5 27.4 16.7 31.4 8 9 Alarm State:  0
Thu Nov 16 07:38:11 PST 2017 ON: 19.99 +20.0 20.06 -15.5 27.4 16.7 31.4 8 9 Alarm State:  0
Thu Nov 16 07:37:00 PST 2017  Alarm State: 0
Thu Nov 16 07:37:00 PST 2017 Chiller did not report ON, got this reading: 
Thu Nov 16 07:35:58 PST 2017 ON: 19.99 +20.0 20.05 -15.3 27.8 16.4 31.5 7 10 Alarm State:  0
Thu Nov 16 07:34:57 PST 2017 ON: 19.99 +20.0 20.06 -15.6 27.3 16.8 31.4 7 9 Alarm State:  0
Thu Nov 16 07:33:55 PST 2017 ON: 20.00 +20.0 20.05 -15.5 27.4 16.7 31.4 8 9 Alarm State:  0
Thu Nov 16 07:32:54 PST 2017 ON: 20.00 +20.0 20.07 -15.3 27.8 16.4 31.5 7 9 Alarm State:  0
Thu Nov 16 07:31:52 PST 2017 ON: 19.99 +20.0 20.06 -15.5 27.4 16.7 31.4 7 9 Alarm State:  0
Thu Nov 16 07:30:51 PST 2017 ON: 19.99 +20.0 20.04 -15.1 28.0 16.3 31.6 7 10 Alarm State:  0
Thu Nov 16 07:29:49 PST 2017 ON: 20.01 +20.0 20.06 -15.5 27.4 16.7 31.4 7 9 Alarm State:  0
Thu Nov 16 07:28:48 PST 2017 ON: 19.99 +20.0 20.06 -15.3 27.7 16.5 31.5 8 10 Alarm State:  0
Thu Nov 16 07:27:46 PST 2017 ON: 19.99 +20.0 20.05 -15.2 27.9 16.3 31.5 7 10 Alarm State:  0
Thu Nov 16 07:26:45 PST 2017 ON: 19.99 +20.0 20.04 -15.3 27.7 16.5 31.5 7 10 Alarm State:  0
Thu Nov 16 07:25:43 PST 2017 ON: 20.00 +20.0 20.06 -15.5 27.5 16.6 31.5 7 9 Alarm State:  0
Thu Nov 16 07:24:42 PST 2017 ON: 19.99 +20.0 20.06 -15.4 27.6 16.5 31.4 7 9 Alarm State:  0
Thu Nov 16 07:23:40 PST 2017 ON: 20.00 +20.0 20.04 -15.4 27.6 16.5 31.4 7 10 Alarm State:  0
Thu Nov 16 07:22:39 PST 2017 ON: 19.99 +20.0 20.05 -15.3 27.7 16.5 31.5 7 10 Alarm State:  0
Thu Nov 16 07:21:37 PST 2017 ON: 20.00 +20.0 20.05 -15.7 27.2 16.8 31.3 7 9 Alarm State:  0
Thu Nov 16 07:20:36 PST 2017 ON: 20.00 +20.0 20.05 -15.3 27.8 16.4 31.5 7 10 Alarm State:  0
Thu Nov 16 07:19:34 PST 2017 ON: 19.99 +20.0 20.06 -15.3 27.7 16.5 31.5 7 9 Alarm State:  0
Thu Nov 16 07:18:33 PST 2017 ON: 20.00 +20.0 20.05 -15.4 27.6 16.5 31.4 8 9 Alarm State:  0
Thu Nov 16 07:17:31 PST 2017 ON: 20.00 +20.0 20.06 -15.7 27.2 16.8 31.3 8 9 Alarm State:  0
Thu Nov 16 07:16:30 PST 2017 ON: 19.99 +20.0 20.06 -15.4 27.6 16.5 31.4 7 9 Alarm State:  0
Thu Nov 16 07:15:28 PST 2017 ON: 20.00 +20.0 20.05 -15.5 27.5 16.6 31.5 7 10 Alarm State:  0
Thu Nov 16 07:14:27 PST 2017 ON: 19.99 +20.0 20.06 -15.4 27.6 16.5 31.4 7 9 Alarm State:  0
Thu Nov 16 07:13:25 PST 2017 ON: 20.00 +20.0 20.05 -15.4 27.6 16.5 31.4 7 10 Alarm State:  0
Thu Nov 16 07:12:24 PST 2017 ON: 20.00 +20.0 20.06 -15.3 27.7 16.5 31.4 7 10 Alarm State:  0
Thu Nov 16 07:11:22 PST 2017 ON: 19.99 +20.0 20.04 -15.2 27.9 16.3 31.5 7 10 Alarm State:  0
Thu Nov 16 07:10:21 PST 2017 ON: 20.00 +20.0 20.06 -15.7 27.1 16.9 31.3 7 9 Alarm State:  0
Thu Nov 16 07:09:19 PST 2017 ON: 19.99 +20.0 20.04 -15.3 27.7 16.5 31.5 8 10 Alarm State:  0
Thu Nov 16 07:08:18 PST 2017 ON: 20.00 +20.0 20.07 -15.7 27.2 16.8 31.4 7 9 Alarm State:  0
Thu Nov 16 07:07:16 PST 2017 ON: 19.99 +20.0 20.04 -15.4 27.6 16.5 31.4 7 10 Alarm State:  0
Thu Nov 16 07:06:15 PST 2017 ON: 20.00 +20.0 20.05 -15.6 27.3 16.8 31.3 8 9 Alarm State:  0
Thu Nov 16 07:05:13 PST 2017 ON: 19.99 +20.0 20.04 -15.3 27.7 16.5 31.6 7 10 Alarm State:  0
Thu Nov 16 07:04:12 PST 2017 ON: 20.00 +20.0 20.05 -15.2 27.9 16.3 31.5 7 10 Alarm State:  0
Thu Nov 16 07:03:11 PST 2017 ON: 20.00 +20.0 20.04 -15.5 27.5 16.6 31.4 7 10 Alarm State:  0
Thu Nov 16 07:02:09 PST 2017 ON: 19.99 +20.0 20.03 -15.4 27.6 16.5 31.4 7 11 Alarm State:  0
Thu Nov 16 07:01:08 PST 2017 ON: 20.00 +20.0 20.06 -15.3 27.7 16.5 31.5 8 9 Alarm State:  0
Thu Nov 16 07:00:06 PST 2017 ON: 20.00 +20.0 20.06 -15.7 27.2 16.8 31.4 7 10 Alarm State:  0
Thu Nov 16 06:59:05 PST 2017 ON: 19.99 +20.0 20.05 -15.1 28.0 16.3 31.5 7 10 Alarm State:  0
Thu Nov 16 06:58:03 PST 2017 ON: 19.99 +20.0 20.06 -15.5 27.4 16.7 31.4 8 9 Alarm State:  0
Thu Nov 16 06:57:01 PST 2017 ON: 20.00 +20.0 20.05 -15.5 27.4 16.7 31.4 7 10 Alarm State:  0
Thu Nov 16 06:56:00 PST 2017 ON: 19.99 +20.0 20.06 -15.5 27.4 16.7 31.4 7 10 Alarm State:  0
Thu Nov 16 06:54:58 PST 2017 ON: 19.99 +20.0 20.05 -15.2 27.9 16.3 31.5 7 10 Alarm State:  0
Thu Nov 16 06:53:57 PST 2017 ON: 20.00 +20.0 20.05 -15.3 27.8 16.4 31.5 7 9 Alarm State:  0
Thu Nov 16 06:52:55 PST 2017 ON: 20.00 +20.0 20.05 -15.3 27.7 16.5 31.5 8 10 Alarm State:  0
Thu Nov 16 06:51:54 PST 2017 ON: 19.99 +20.0 20.06 -15.7 27.2 16.8 31.4 7 10 Alarm State:  0
Thu Nov 16 06:50:52 PST 2017 ON: 19.99 +20.0 20.04 -15.0 28.2 16.1 31.6 7 10 Alarm State:  0
Thu Nov 16 06:49:51 PST 2017 ON: 20.00 +20.0 20.06 -15.5 27.5 16.6 31.4 8 9 Alarm State:  0
Thu Nov 16 06:48:49 PST 2017 ON: 20.00 +20.0 20.05 -15.5 27.5 16.6 31.4 7 10 Alarm State:  0
Thu Nov 16 06:47:48 PST 2017 ON: 19.99 +20.0 20.04 -15.6 27.3 16.8 31.3 7 10 Alarm State:  0
Thu Nov 16 06:46:46 PST 2017 ON: 20.00 +20.0 20.06 -15.5 27.5 16.6 31.4 8 9 Alarm State:  0
Thu Nov 16 06:45:45 PST 2017 ON: 20.00 +20.0 20.06 -15.6 27.3 16.8 31.5 7 9 Alarm State:  0
Thu Nov 16 06:44:43 PST 2017 ON: 19.99 +20.0 20.06 -15.7 27.2 16.8 31.3 8 9 Alarm State:  0
Thu Nov 16 06:43:42 PST 2017 ON: 20.00 +20.0 20.04 -15.1 28.1 16.2 31.5 7 10 Alarm State:  0
Thu Nov 16 06:42:40 PST 2017 ON: 19.99 +20.0 20.06 -15.5 27.4 16.7 31.3 8 10 Alarm State:  0
Thu Nov 16 06:41:39 PST 2017 ON: 19.99 +20.0 20.04 -15.3 27.7 16.5 31.5 8 10 Alarm State:  0
Thu Nov 16 06:40:38 PST 2017 ON: 20.00 +20.0 20.06 -15.8 27.0 16.9 31.4 7 9 Alarm State:  0
Thu Nov 16 06:39:36 PST 2017 ON: 20.00 +20.0 20.06 -15.7 27.2 16.8 31.3 7 9 Alarm State:  0
Thu Nov 16 06:38:35 PST 2017 ON: 20.00 +20.0 20.05 -15.3 27.7 16.5 31.4 7 10 Alarm State:  0
Thu Nov 16 06:37:33 PST 2017 ON: 19.99 +20.0 20.05 -15.4 27.6 16.5 31.5 7 10 Alarm State:  0
Thu Nov 16 06:36:31 PST 2017 ON: 19.99 +20.0 20.04 -15.2 27.9 16.3 31.5 7 10 Alarm State:  0
Thu Nov 16 06:35:30 PST 2017 ON: 20.00 +20.0 20.06 -15.6 27.3 16.8 31.3 7 9 Alarm State:  0
Thu Nov 16 06:34:29 PST 2017 ON: 19.99 +20.0 20.06 -15.6 27.3 16.8 31.4 7 9 Alarm State:  0
Thu Nov 16 06:33:27 PST 2017 ON: 19.99 +20.0 20.06 -15.6 27.3 16.8 31.3 8 9 Alarm State:  0
Thu Nov 16 06:32:26 PST 2017 ON: 20.00 +20.0 20.05 -15.1 28.1 16.2 31.6 7 10 Alarm State:  0
Thu Nov 16 06:31:24 PST 2017 ON: 19.99 +20.0 20.06 -15.7 27.2 16.8 31.5 7 10 Alarm State:  0
Thu Nov 16 06:30:23 PST 2017 ON: 19.99 +20.0 20.04 -15.4 27.6 16.5 31.5 7 10 Alarm State:  0
Thu Nov 16 06:29:21 PST 2017 ON: 19.99 +20.0 20.06 -15.3 27.8 16.4 31.5 7 9 Alarm State:  0
Thu Nov 16 06:28:20 PST 2017 ON: 19.99 +20.0 20.05 -15.5 27.4 16.7 31.4 7 10 Alarm State:  0
Thu Nov 16 06:27:18 PST 2017 ON: 20.00 +20.0 20.05 -15.5 27.5 16.6 31.4 7 9 Alarm State:  0
Thu Nov 16 06:26:17 PST 2017 ON: 20.00 +20.0 20.06 -15.7 27.1 16.9 31.3 7 9 Alarm State:  0
Thu Nov 16 06:25:15 PST 2017 ON: 19.99 +20.0 20.06 -15.5 27.4 16.7 31.4 8 9 Alarm State:  0
Thu Nov 16 06:24:14 PST 2017 ON: 20.00 +20.0 20.03 -15.3 27.8 16.4 31.5 7 10 Alarm State:  0
Thu Nov 16 06:23:12 PST 2017 ON: 20.00 +20.0 20.08 -15.7 27.2 16.8 31.3 7 8 Alarm State:  0
Thu Nov 16 06:22:11 PST 2017 ON: 19.99 +20.0 20.05 -15.5 27.5 16.6 31.4 7 10 Alarm State:  0
Thu Nov 16 06:21:09 PST 2017 ON: 19.99 +20.0 20.04 -15.3 27.7 16.5 31.5 7 10 Alarm State:  0
Thu Nov 16 06:20:08 PST 2017 ON: 20.00 +20.0 20.06 -15.7 27.1 16.9 31.3 8 9 Alarm State:  0
Thu Nov 16 06:19:06 PST 2017 ON: 20.00 +20.0 20.06 -15.4 27.6 16.5 31.5 7 9 Alarm State:  0
Thu Nov 16 06:18:05 PST 2017 ON: 19.99 +20.0 20.04 -15.3 27.8 16.4 31.5 7 10 Alarm State:  0
Thu Nov 16 06:17:03 PST 2017 ON: 19.99 +20.0 20.04 -15.3 27.8 16.4 31.5 7 10 Alarm State:  0
Thu Nov 16 06:16:02 PST 2017 ON: 20.00 +20.0 20.06 -15.6 27.3 16.8 31.4 7 9 Alarm State:  0
Thu Nov 16 06:15:00 PST 2017 ON: 19.99 +20.0 20.05 -15.3 27.7 16.5 31.5 7 10 Alarm State:  0
Thu Nov 16 06:13:59 PST 2017 ON: 19.99 +20.0 20.06 -15.5 27.4 16.7 31.3 7 9 Alarm State:  0
Thu Nov 16 06:12:57 PST 2017 ON: 20.00 +20.0 20.04 -15.3 27.8 16.4 31.5 7 10 Alarm State:  0
Thu Nov 16 06:11:56 PST 2017 ON: 20.00 +20.0 20.06 -15.7 27.1 16.9 31.3 8 9 Alarm State:  0
Thu Nov 16 06:10:54 PST 2017 ON: 20.00 +20.0 20.05 -15.3 27.7 16.5 31.4 7 9 Alarm State:  0
Thu Nov 16 06:09:53 PST 2017 ON: 20.00 +20.0 20.06 -15.7 27.2 16.8 31.3 7 10 Alarm State:  0
Thu Nov 16 06:08:51 PST 2017 ON: 19.99 +20.0 20.04 -15.2 27.9 16.3 31.6 8 10 Alarm State:  0
Thu Nov 16 06:07:50 PST 2017 ON: 20.00 +20.0 20.06 -15.4 27.6 16.5 31.4 7 9 Alarm State:  0
Thu Nov 16 06:06:48 PST 2017 ON: 19.99 +20.0 20.06 -15.4 27.6 16.5 31.5 7 9 Alarm State:  0
Thu Nov 16 06:05:47 PST 2017 ON: 20.00 +20.0 20.05 -15.5 27.4 16.7 31.4 7 9 Alarm State:  0
Thu Nov 16 06:04:45 PST 2017 ON: 19.99 +20.0 20.06 -15.5 27.4 16.7 31.4 7 9 Alarm State:  0
Thu Nov 16 06:03:44 PST 2017 ON: 20.00 +20.0 20.06 -15.3 27.7 16.5 31.5 8 9 Alarm State:  0
Thu Nov 16 06:02:42 PST 2017 ON: 19.99 +20.0 20.06 -15.7 27.2 16.8 31.4 7 9 Alarm State:  0
Thu Nov 16 06:01:41 PST 2017 ON: 19.99 +20.0 20.04 -15.5 27.5 16.6 31.4 7 10 Alarm State:  0
Thu Nov 16 06:00:39 PST 2017 ON: 19.99 +20.0 20.05 -15.5 27.4 16.7 31.3 7 10 Alarm State:  0
Thu Nov 16 05:59:38 PST 2017 ON: 20.00 +20.0 20.05 -15.4 27.6 16.5 31.5 7 10 Alarm State:  0
Thu Nov 16 05:58:36 PST 2017 ON: 19.99 +20.0 20.04 -15.4 27.6 16.5 31.4 7 11 Alarm State:  0
Thu Nov 16 05:57:35 PST 2017 ON: 19.99 +20.0 20.06 -15.7 27.2 16.8 31.2 7 9 Alarm State:  0
Thu Nov 16 05:56:33 PST 2017 ON: 20.00 +20.0 20.06 -15.5 27.4 16.7 31.4 7 9 Alarm State:  0
Thu Nov 16 05:55:32 PST 2017 ON: 19.99 +20.0 20.07 -15.7 27.2 16.8 31.3 7 9 Alarm State:  0
Thu Nov 16 05:54:30 PST 2017 ON: 19.99 +20.0 20.05 -15.6 27.3 16.8 31.3 7 9 Alarm State:  0
Thu Nov 16 05:53:29 PST 2017 ON: 20.00 +20.0 20.06 -15.3 27.7 16.5 31.4 7 9 Alarm State:  0
Thu Nov 16 05:52:27 PST 2017 ON: 19.99 +20.0 20.05 -15.3 27.7 16.5 31.4 8 10 Alarm State:  0
Thu Nov 16 05:51:26 PST 2017 ON: 20.00 +20.0 20.06 -15.5 27.4 16.7 31.4 7 9 Alarm State:  0
Thu Nov 16 05:50:24 PST 2017 ON: 20.00 +20.0 20.06 -15.4 27.6 16.5 31.3 7 10 Alarm State:  0
Thu Nov 16 05:49:23 PST 2017 ON: 19.99 +20.0 20.04 -15.0 28.2 16.1 31.6 7 10 Alarm State:  0
Thu Nov 16 05:48:21 PST 2017 ON: 19.99 +20.0 20.05 -15.3 27.8 16.4 31.5 7 9 Alarm State:  0
Thu Nov 16 05:47:20 PST 2017 ON: 19.99 +20.0 20.05 -15.3 27.8 16.4 31.5 7 10 Alarm State:  0
Thu Nov 16 05:46:18 PST 2017 ON: 19.99 +20.0 20.05 -15.3 27.8 16.4 31.5 7 9 Alarm State:  0
Thu Nov 16 05:45:17 PST 2017 ON: 20.00 +20.0 20.05 -15.5 27.5 16.6 31.4 7 9 Alarm State:  0
Thu Nov 16 05:44:15 PST 2017 ON: 20.00 +20.0 20.06 -15.5 27.4 16.7 31.5 8 9 Alarm State:  0
Thu Nov 16 05:43:14 PST 2017 ON: 19.99 +20.0 20.05 -15.5 27.4 16.7 31.3 7 10 Alarm State:  0
Thu Nov 16 05:42:12 PST 2017 ON: 20.00 +20.0 20.04 -15.3 27.7 16.5 31.4 7 10 Alarm State:  0
Thu Nov 16 05:41:11 PST 2017 ON: 20.00 +20.0 20.06 -15.6 27.3 16.8 31.3 8 9 Alarm State:  0
Thu Nov 16 05:40:09 PST 2017 ON: 20.00 +20.0 20.08 -15.5 27.4 16.7 31.3 7 9 Alarm State:  0
Thu Nov 16 05:39:08 PST 2017 ON: 19.99 +20.0 20.04 -15.1 28.1 16.2 31.6 7 10 Alarm State:  0
Thu Nov 16 05:38:06 PST 2017 ON: 20.00 +20.0 20.06 -15.3 27.7 16.5 31.4 7 9 Alarm State:  0
Thu Nov 16 05:37:05 PST 2017 ON: 19.99 +20.0 20.06 -15.6 27.3 16.8 31.4 7 9 Alarm State:  0
Thu Nov 16 05:36:03 PST 2017 ON: 20.00 +20.0 20.05 -15.3 27.7 16.5 31.5 7 9 Alarm State:  0
Thu Nov 16 05:35:02 PST 2017 ON: 20.00 +20.0 20.06 -15.5 27.5 16.6 31.4 8 9 Alarm State:  0
Thu Nov 16 05:34:00 PST 2017 ON: 19.99 +20.0 20.07 -15.4 27.6 16.5 31.4 7 9 Alarm State:  0
Thu Nov 16 05:32:59 PST 2017 ON: 19.98 +20.0 20.05 -15.3 27.7 16.5 31.4 7 9 Alarm State:  0
Thu Nov 16 05:31:57 PST 2017 ON: 20.00 +20.0 20.05 -15.5 27.5 16.6 31.4 7 9 Alarm State:  0
Thu Nov 16 05:30:56 PST 2017 ON: 20.00 +20.0 20.07 -15.4 27.6 16.5 31.4 7 9 Alarm State:  0
Thu Nov 16 05:29:54 PST 2017 ON: 19.99 +20.0 20.05 -15.2 27.9 16.3 31.5 7 10 Alarm State:  0
Thu Nov 16 05:28:53 PST 2017 ON: 19.99 +20.0 20.07 -15.6 27.3 16.8 31.3 7 9 Alarm State:  0
Thu Nov 16 05:27:51 PST 2017 ON: 20.00 +20.0 20.05 -15.3 27.7 16.5 31.5 8 9 Alarm State:  0
Thu Nov 16 05:26:50 PST 2017 ON: 20.00 +20.0 20.06 -15.5 27.4 16.7 31.3 7 9 Alarm State:  0
Thu Nov 16 05:25:48 PST 2017 ON: 19.99 +20.0 20.06 -15.6 27.3 16.8 31.3 7 9 Alarm State:  0
Thu Nov 16 05:24:47 PST 2017 ON: 19.99 +20.0 20.05 -15.6 27.3 16.8 31.4 8 9 Alarm State:  0
Thu Nov 16 05:23:45 PST 2017 ON: 20.00 +20.0 20.05 -15.7 27.1 16.9 31.3 7 9 Alarm State:  0
Thu Nov 16 05:22:44 PST 2017 ON: 20.00 +20.0 20.06 -15.5 27.5 16.6 31.4 7 9 Alarm State:  0
Thu Nov 16 05:21:43 PST 2017 ON: 19.99 +20.0 20.04 -15.4 27.6 16.5 31.4 7 10 Alarm State:  0
Thu Nov 16 05:20:41 PST 2017 ON: 20.00 +20.0 20.06 -15.6 27.3 16.8 31.3 7 9 Alarm State:  0
Thu Nov 16 05:19:40 PST 2017 ON: 20.00 +20.0 20.06 -15.3 27.7 16.5 31.5 8 9 Alarm State:  0
Thu Nov 16 05:18:38 PST 2017 ON: 20.00 +20.0 20.06 -15.3 27.7 16.5 31.4 7 9 Alarm State:  0
Thu Nov 16 05:17:37 PST 2017 ON: 19.99 +20.0 20.05 -15.5 27.4 16.7 31.4 7 10 Alarm State:  0
Thu Nov 16 05:16:35 PST 2017 ON: 20.00 +20.0 20.05 -15.2 27.9 16.3 31.5 7 9 Alarm State:  0
Thu Nov 16 05:15:34 PST 2017 ON: 20.00 +20.0 20.06 -15.5 27.5 16.6 31.4 7 10 Alarm State:  0
Thu Nov 16 05:14:32 PST 2017 ON: 19.99 +20.0 20.05 -15.2 27.9 16.3 31.5 7 10 Alarm State:  0
Thu Nov 16 05:13:31 PST 2017 ON: 20.00 +20.0 20.05 -15.5 27.5 16.6 31.4 7 9 Alarm State:  0
Thu Nov 16 05:12:29 PST 2017 ON: 20.00 +20.0 20.06 -15.5 27.4 16.7 31.4 7 9 Alarm State:  0
Thu Nov 16 05:11:28 PST 2017 ON: 19.98 +20.0 20.06 -15.7 27.2 16.8 31.3 8 9 Alarm State:  0
Thu Nov 16 05:10:26 PST 2017 ON: 19.99 +20.0 20.04 -15.4 27.6 16.5 31.5 7 10 Alarm State:  0
Thu Nov 16 05:09:25 PST 2017 ON: 20.00 +20.0 20.06 -15.6 27.3 16.8 31.4 7 9 Alarm State:  0
Thu Nov 16 05:08:23 PST 2017 ON: 20.00 +20.0 20.06 -15.5 27.4 16.7 31.4 8 9 Alarm State:  0
Thu Nov 16 05:07:22 PST 2017 ON: 19.99 +20.0 20.08 -15.7 27.2 16.8 31.3 7 9 Alarm State:  0
Thu Nov 16 05:06:20 PST 2017 ON: 19.99 +20.0 20.05 -15.2 27.9 16.3 31.5 7 10 Alarm State:  0
Thu Nov 16 05:05:19 PST 2017 ON: 20.00 +20.0 20.05 -15.5 27.5 16.6 31.4 7 9 Alarm State:  0
Thu Nov 16 05:04:17 PST 2017 ON: 20.00 +20.0 20.05 -15.4 27.6 16.5 31.5 7 9 Alarm State:  0
Thu Nov 16 05:03:16 PST 2017 ON: 20.00 +20.0 20.07 -15.5 27.4 16.7 31.3 8 9 Alarm State:  0
Thu Nov 16 05:02:14 PST 2017 ON: 19.99 +20.0 20.05 -15.5 27.5 16.6 31.4 7 10 Alarm State:  0
Thu Nov 16 05:01:13 PST 2017 ON: 19.99 +20.0 20.04 -15.4 27.6 16.5 31.4 7 10 Alarm State:  0
Thu Nov 16 05:00:11 PST 2017 ON: 20.00 +20.0 20.06 -15.7 27.1 16.9 31.3 8 9 Alarm State:  0
Thu Nov 16 04:59:10 PST 2017 ON: 19.99 +20.0 20.05 -15.3 27.8 16.4 31.5 7 9 Alarm State:  0
Thu Nov 16 04:58:08 PST 2017 ON: 20.00 +20.0 20.05 -15.5 27.5 16.6 31.4 8 10 Alarm State:  0
Thu Nov 16 04:57:07 PST 2017 ON: 19.99 +20.0 20.06 -15.2 27.9 16.3 31.5 7 10 Alarm State:  0
Thu Nov 16 04:56:05 PST 2017 ON: 19.99 +20.0 20.05 -15.3 27.8 16.4 31.5 7 9 Alarm State:  0
Thu Nov 16 04:55:04 PST 2017 ON: 20.00 +20.0 20.05 -15.4 27.6 16.5 31.4 7 10 Alarm State:  0
Thu Nov 16 04:54:02 PST 2017 ON: 19.99 +20.0 20.05 -15.2 27.9 16.3 31.5 7 10 Alarm State:  0
Thu Nov 16 04:53:01 PST 2017 ON: 19.99 +20.0 20.06 -15.5 27.4 16.7 31.4 7 9 Alarm State:  0
Thu Nov 16 04:51:59 PST 2017 ON: 20.00 +20.0 20.06 -15.4 27.6 16.5 31.4 8 9 Alarm State:  0
Thu Nov 16 04:50:58 PST 2017 ON: 19.99 +20.0 20.04 -15.4 27.6 16.5 31.5 7 10 Alarm State:  0
Thu Nov 16 04:49:56 PST 2017 ON: 20.00 +20.0 20.06 -15.6 27.3 16.8 31.3 7 9 Alarm State:  0
Thu Nov 16 04:48:55 PST 2017 ON: 19.99 +20.0 20.06 -15.4 27.6 16.5 31.4 8 10 Alarm State:  0
Thu Nov 16 04:47:53 PST 2017 ON: 19.99 +20.0 20.06 -15.4 27.6 16.5 31.5 7 9 Alarm State:  0
Thu Nov 16 04:46:52 PST 2017 ON: 19.99 +20.0 20.05 -15.4 27.6 16.5 31.5 7 9 Alarm State:  0
Thu Nov 16 04:45:50 PST 2017 ON: 20.01 +20.0 20.05 -15.6 27.3 16.8 31.3 8 9 Alarm State:  0
Thu Nov 16 04:44:49 PST 2017 ON: 20.00 +20.0 20.07 -15.6 27.3 16.8 31.4 7 9 Alarm State:  0
Thu Nov 16 04:43:47 PST 2017 ON: 19.99 +20.0 20.06 -15.0 28.2 16.1 31.6 7 10 Alarm State:  0
Thu Nov 16 04:42:46 PST 2017 ON: 19.99 +20.0 20.04 -15.2 27.9 16.3 31.6 7 10 Alarm State:  0
Thu Nov 16 04:41:44 PST 2017 ON: 20.00 +20.0 20.05 -15.5 27.4 16.7 31.3 7 9 Alarm State:  0
Thu Nov 16 04:40:43 PST 2017 ON: 20.00 +20.0 20.06 -15.5 27.4 16.7 31.4 8 9 Alarm State:  0
Thu Nov 16 04:39:42 PST 2017 ON: 20.00 +20.0 20.05 -15.3 27.7 16.5 31.5 7 9 Alarm State:  0
Thu Nov 16 04:38:40 PST 2017 ON: 20.00 +20.0 20.06 -15.5 27.5 16.6 31.4 8 9 Alarm State:  0
Thu Nov 16 04:37:39 PST 2017 ON: 19.99 +20.0 20.04 -15.3 27.7 16.5 31.4 7 10 Alarm State:  0
Thu Nov 16 04:36:37 PST 2017 ON: 19.99 +20.0 20.05 -15.4 27.6 16.5 31.4 7 10 Alarm State:  0
Thu Nov 16 04:35:36 PST 2017 ON: 20.00 +20.0 20.06 -15.4 27.6 16.5 31.5 7 9 Alarm State:  0
Thu Nov 16 04:34:34 PST 2017 ON: 19.99 +20.0 20.05 -15.5 27.5 16.6 31.4 7 10 Alarm State:  0
Thu Nov 16 04:33:33 PST 2017 ON: 20.00 +20.0 20.05 -15.4 27.6 16.5 31.4 7 9 Alarm State:  0
Thu Nov 16 04:32:31 PST 2017 ON: 19.99 +20.0 20.06 -15.5 27.4 16.7 31.4 8 9 Alarm State:  0
Thu Nov 16 04:31:30 PST 2017 ON: 19.99 +20.0 20.05 -15.5 27.4 16.7 31.5 7 9 Alarm State:  0
Thu Nov 16 04:30:28 PST 2017 ON: 19.99 +20.0 20.05 -15.3 27.7 16.5 31.5 7 9 Alarm State:  0
Thu Nov 16 04:29:27 PST 2017 ON: 20.00 +20.0 20.06 -15.6 27.3 16.8 31.3 8 9 Alarm State:  0
Thu Nov 16 04:28:25 PST 2017 ON: 19.99 +20.0 20.05 -15.1 28.1 16.2 31.6 7 10 Alarm State:  0
Thu Nov 16 04:27:24 PST 2017 ON: 20.00 +20.0 20.05 -15.5 27.4 16.7 31.4 8 9 Alarm State:  0
Thu Nov 16 04:26:22 PST 2017 ON: 20.00 +20.0 20.06 -15.5 27.5 16.6 31.4 7 9 Alarm State:  0
Thu Nov 16 04:25:21 PST 2017 ON: 20.00 +20.0 20.04 -15.4 27.6 16.5 31.4 7 10 Alarm State:  0
Thu Nov 16 04:24:19 PST 2017 ON: 19.99 +20.0 20.07 -15.7 27.1 16.9 31.4 8 9 Alarm State:  0
Thu Nov 16 04:23:18 PST 2017 ON: 19.99 +20.0 20.04 -15.4 27.6 16.5 31.5 7 10 Alarm State:  0
Thu Nov 16 04:22:06 PST 2017  Alarm State: 0
Thu Nov 16 04:22:06 PST 2017 Chiller did not report ON, got this reading: 
Thu Nov 16 04:21:05 PST 2017 ON: 19.99 +20.0 20.05 -15.3 27.8 16.4 31.5 7 10 Alarm State:  0
Thu Nov 16 04:20:03 PST 2017 ON: 19.99 +20.0 20.05 -15.5 27.5 16.6 31.4 8 9 Alarm State:  0
Thu Nov 16 04:19:02 PST 2017 ON: 20.00 +20.0 20.06 -15.4 27.6 16.5 31.4 7 9 Alarm State:  0
Thu Nov 16 04:18:00 PST 2017 ON: 20.00 +20.0 20.05 -15.4 27.6 16.5 31.4 7 10 Alarm State:  0
Thu Nov 16 04:16:59 PST 2017 ON: 19.99 +20.0 20.05 -15.4 27.6 16.5 31.4 8 9 Alarm State:  0
Thu Nov 16 04:15:57 PST 2017 ON: 20.00 +20.0 20.06 -15.6 27.3 16.8 31.4 7 9 Alarm State:  0
Thu Nov 16 04:14:56 PST 2017 ON: 20.00 +20.0 20.07 -15.3 27.7 16.5 31.4 7 9 Alarm State:  0
Thu Nov 16 04:13:54 PST 2017 ON: 19.99 +20.0 20.04 -15.1 28.0 16.3 31.5 7 10 Alarm State:  0
Thu Nov 16 04:12:53 PST 2017 ON: 20.00 +20.0 20.06 -15.5 27.5 16.6 31.4 7 9 Alarm State:  0
Thu Nov 16 04:11:51 PST 2017 ON: 19.99 +20.0 20.04 -15.2 27.9 16.3 31.6 8 10 Alarm State:  0
Thu Nov 16 04:10:50 PST 2017 ON: 20.00 +20.0 20.06 -15.5 27.4 16.7 31.3 7 9 Alarm State:  0
Thu Nov 16 04:09:48 PST 2017 ON: 19.98 +20.0 20.04 -15.2 27.9 16.3 31.5 7 10 Alarm State:  0
Thu Nov 16 04:08:47 PST 2017 ON: 19.99 +20.0 20.06 -15.7 27.1 16.9 31.3 8 9 Alarm State:  0
Thu Nov 16 04:07:46 PST 2017 ON: 20.00 +20.0 20.06 -15.6 27.3 16.8 31.3 7 9 Alarm State:  0
Thu Nov 16 04:06:44 PST 2017 ON: 19.99 +20.0 20.05 -15.3 27.7 16.5 31.5 7 10 Alarm State:  0
Thu Nov 16 04:05:43 PST 2017 ON: 19.99 +20.0 20.05 -15.3 27.7 16.5 31.5 7 10 Alarm State:  0
Thu Nov 16 04:04:41 PST 2017 ON: 19.99 +20.0 20.06 -15.7 27.1 16.9 31.3 7 9 Alarm State:  0
Thu Nov 16 04:03:40 PST 2017 ON: 20.00 +20.0 20.05 -15.3 27.7 16.5 31.5 7 9 Alarm State:  0
Thu Nov 16 04:02:38 PST 2017 ON: 19.99 +20.0 20.06 -15.7 27.1 16.9 31.3 7 10 Alarm State:  0
Thu Nov 16 04:01:37 PST 2017 ON: 19.99 +20.0 20.04 -15.1 28.1 16.2 31.6 7 10 Alarm State:  0
Thu Nov 16 04:00:35 PST 2017 ON: 20.00 +20.0 20.06 -15.4 27.6 16.5 31.4 8 9 Alarm State:  0
Thu Nov 16 03:59:34 PST 2017 ON: 20.00 +20.0 20.06 -15.7 27.1 16.9 31.2 7 9 Alarm State:  0
Thu Nov 16 03:58:32 PST 2017 ON: 19.99 +20.0 20.04 -15.2 27.9 16.3 31.5 7 10 Alarm State:  0
Thu Nov 16 03:57:31 PST 2017 ON: 20.00 +20.0 20.05 -15.5 27.4 16.7 31.4 7 9 Alarm State:  0
Thu Nov 16 03:56:29 PST 2017 ON: 20.00 +20.0 20.06 -15.3 27.7 16.5 31.5 7 9 Alarm State:  0
Thu Nov 16 03:55:28 PST 2017 ON: 19.99 +20.0 20.05 -15.3 27.8 16.4 31.5 7 10 Alarm State:  0
Thu Nov 16 03:54:26 PST 2017 ON: 19.99 +20.0 20.05 -15.6 27.3 16.8 31.4 7 9 Alarm State:  0
Thu Nov 16 03:53:25 PST 2017 ON: 20.00 +20.0 20.04 -15.7 27.2 16.8 31.3 7 10 Alarm State:  0
Thu Nov 16 03:52:23 PST 2017 ON: 20.00 +20.0 20.06 -15.3 27.8 16.4 31.5 8 9 Alarm State:  0
Thu Nov 16 03:51:22 PST 2017 ON: 20.00 +20.0 20.05 -15.3 27.8 16.4 31.5 7 10 Alarm State:  0
Thu Nov 16 03:50:20 PST 2017 ON: 20.00 +20.0 20.05 -15.5 27.5 16.6 31.4 7 9 Alarm State:  0
Thu Nov 16 03:49:19 PST 2017 ON: 19.99 +20.0 20.06 -15.7 27.2 16.8 31.3 8 9 Alarm State:  0
Thu Nov 16 03:48:17 PST 2017 ON: 19.99 +20.0 20.04 -15.4 27.6 16.5 31.5 7 10 Alarm State:  0
Thu Nov 16 03:47:16 PST 2017 ON: 20.00 +20.0 20.06 -15.4 27.6 16.5 31.4 8 8 Alarm State:  0
Thu Nov 16 03:46:14 PST 2017 ON: 20.00 +20.0 20.06 -15.5 27.5 16.6 31.3 7 9 Alarm State:  0
Thu Nov 16 03:45:13 PST 2017 ON: 19.99 +20.0 20.04 -15.4 27.6 16.5 31.4 7 11 Alarm State:  0
Thu Nov 16 03:44:11 PST 2017 ON: 19.99 +20.0 20.05 -15.4 27.6 16.5 31.5 8 9 Alarm State:  0
Thu Nov 16 03:43:10 PST 2017 ON: 20.00 +20.0 20.05 -15.5 27.4 16.7 31.4 7 9 Alarm State:  0
Thu Nov 16 03:42:08 PST 2017 ON: 19.99 +20.0 20.05 -15.3 27.7 16.5 31.4 7 10 Alarm State:  0
Thu Nov 16 03:41:07 PST 2017 ON: 19.99 +20.0 20.07 -15.7 27.2 16.8 31.4 8 8 Alarm State:  0
Thu Nov 16 03:40:05 PST 2017 ON: 20.00 +20.0 20.06 -15.9 26.9 17.0 31.1 7 9 Alarm State:  0
Thu Nov 16 03:39:04 PST 2017 ON: 20.00 +20.0 20.06 -15.7 27.1 16.9 31.4 7 9 Alarm State:  0
Thu Nov 16 03:38:02 PST 2017 ON: 20.00 +20.0 20.05 -15.4 27.6 16.5 31.4 8 10 Alarm State:  0
Thu Nov 16 03:37:01 PST 2017 ON: 19.99 +20.0 20.04 -15.3 27.7 16.5 31.4 7 10 Alarm State:  0
Thu Nov 16 03:35:59 PST 2017 ON: 20.00 +20.0 20.05 -15.5 27.5 16.6 31.4 8 9 Alarm State:  0
Thu Nov 16 03:34:58 PST 2017 ON: 19.99 +20.0 20.05 -15.5 27.5 16.6 31.4 7 10 Alarm State:  0
Thu Nov 16 03:33:56 PST 2017 ON: 20.00 +20.0 20.05 -15.3 27.7 16.5 31.4 7 9 Alarm State:  0
Thu Nov 16 03:32:55 PST 2017 ON: 19.99 +20.0 20.06 -15.5 27.4 16.7 31.3 7 9 Alarm State:  0
Thu Nov 16 03:31:53 PST 2017 ON: 20.00 +20.0 20.05 -15.6 27.3 16.8 31.3 7 9 Alarm State:  0
Thu Nov 16 03:30:52 PST 2017 ON: 20.00 +20.0 20.06 -15.4 27.6 16.5 31.4 7 9 Alarm State:  0
Thu Nov 16 03:29:50 PST 2017 ON: 19.99 +20.0 20.03 -15.2 27.9 16.3 31.5 7 10 Alarm State:  0
Thu Nov 16 03:28:49 PST 2017 ON: 20.00 +20.0 20.06 -15.3 27.7 16.5 31.5 7 9 Alarm State:  0
Thu Nov 16 03:27:47 PST 2017 ON: 20.00 +20.0 20.06 -15.5 27.4 16.7 31.3 8 10 Alarm State:  0
Thu Nov 16 03:26:46 PST 2017 ON: 19.99 +20.0 20.05 -15.3 27.8 16.4 31.5 7 10 Alarm State:  0
Thu Nov 16 03:25:44 PST 2017 ON: 19.99 +20.0 20.04 -15.5 27.5 16.6 31.4 8 10 Alarm State:  0
Thu Nov 16 03:24:43 PST 2017 ON: 20.00 +20.0 20.06 -15.6 27.3 16.8 31.4 8 9 Alarm State:  0
Thu Nov 16 03:23:41 PST 2017 ON: 19.99 +20.0 20.06 -15.6 27.3 16.8 31.4 7 9 Alarm State:  0
Thu Nov 16 03:22:40 PST 2017 ON: 20.00 +20.0 20.05 -15.5 27.4 16.7 31.3 7 10 Alarm State:  0
Thu Nov 16 03:21:39 PST 2017 ON: 19.99 +20.0 20.04 -15.0 28.2 16.1 31.6 7 11 Alarm State:  0
Thu Nov 16 03:20:37 PST 2017 ON: 19.99 +20.0 20.04 -15.3 27.8 16.4 31.5 7 10 Alarm State:  0
Thu Nov 16 03:19:36 PST 2017 ON: 19.99 +20.0 20.05 -15.4 27.6 16.5 31.5 8 10 Alarm State:  0
Thu Nov 16 03:18:34 PST 2017 ON: 20.00 +20.0 20.06 -15.7 27.2 16.8 31.3 7 9 Alarm State:  0
Thu Nov 16 03:17:33 PST 2017 ON: 19.99 +20.0 20.05 -15.5 27.4 16.7 31.3 7 10 Alarm State:  0
Thu Nov 16 03:16:31 PST 2017 ON: 19.99 +20.0 20.07 -15.8 27.0 16.9 31.4 8 8 Alarm State:  0
Thu Nov 16 03:15:30 PST 2017 ON: 20.00 +20.0 20.05 -15.6 27.3 16.8 31.4 7 9 Alarm State:  0
Thu Nov 16 03:14:28 PST 2017 ON: 20.00 +20.0 20.05 -15.5 27.5 16.6 31.4 7 9 Alarm State:  0
Thu Nov 16 03:13:27 PST 2017 ON: 20.00 +20.0 20.05 -15.5 27.4 16.7 31.3 8 9 Alarm State:  0
Thu Nov 16 03:12:25 PST 2017 ON: 19.99 +20.0 20.05 -15.6 27.3 16.8 31.4 7 10 Alarm State:  0
Thu Nov 16 03:11:24 PST 2017 ON: 20.00 +20.0 20.05 -15.5 27.4 16.7 31.4 8 9 Alarm State:  0
Thu Nov 16 03:10:22 PST 2017 ON: 20.00 +20.0 20.04 -15.3 27.8 16.4 31.4 7 10 Alarm State:  0
Thu Nov 16 03:09:21 PST 2017 ON: 20.00 +20.0 20.07 -15.5 27.4 16.7 31.4 7 9 Alarm State:  0
Thu Nov 16 03:08:19 PST 2017 ON: 19.99 +20.0 20.05 -15.5 27.5 16.6 31.4 8 10 Alarm State:  0
Thu Nov 16 03:07:18 PST 2017 ON: 19.98 +20.0 20.04 -15.5 27.5 16.6 31.4 7 10 Alarm State:  0
Thu Nov 16 03:06:16 PST 2017 ON: 20.00 +20.0 20.04 -15.5 27.5 16.6 31.4 7 9 Alarm State:  0